<?xml version="1.0" encoding="UTF-8" standalone="no" ?>
<gpx xmlns="http://www.topografix.com/GPX/1/1" xmlns:xsi="http://www.w3.org/2001/XMLSchema-instance" xsi:schemaLocation="http://www.topografix.com/GPX/1/1 http://www.topografix.com/GPX/1/1/gpx.xsd" version="1.1" creator="VisuGPX - https://www.visugpx.com">
  <metadata>
    <name>2018-01-29 - Schlucht, Tanet, Trois-Fours</name>
    <desc><![CDATA[2018-01-29 - Schlucht, Tanet, Trois-Fours - Reconnaissance de la randonnée programmée le 14 février - Denis Vouin]]></desc>
  </metadata>
  <trk>
    <name><![CDATA[29 janv. 2018]]></name>
    <cmt><![CDATA[8:40:04 AM]]></cmt>
    <desc><![CDATA[comment ...]]></desc>
    <trkseg>
      <trkpt lat="48.06389" lon="7.02196">
        <ele>1138</ele>
        <time>2018-01-29T07:40:04Z</time>
      </trkpt>
      <trkpt lat="48.06389" lon="7.02196">
        <ele>1138</ele>
        <time>2018-01-29T07:40:05Z</time>
      </trkpt>
      <trkpt lat="48.06388" lon="7.02202">
        <ele>1138</ele>
        <time>2018-01-29T07:40:58Z</time>
      </trkpt>
      <trkpt lat="48.06391" lon="7.02208">
        <ele>1140</ele>
        <time>2018-01-29T07:43:01Z</time>
      </trkpt>
      <trkpt lat="48.06395" lon="7.02214">
        <ele>1142</ele>
        <time>2018-01-29T07:43:06Z</time>
      </trkpt>
      <trkpt lat="48.06403" lon="7.02221">
        <ele>1144</ele>
        <time>2018-01-29T07:43:13Z</time>
      </trkpt>
      <trkpt lat="48.06411" lon="7.02228">
        <ele>1144</ele>
        <time>2018-01-29T07:43:20Z</time>
      </trkpt>
      <trkpt lat="48.06417" lon="7.02238">
        <ele>1141</ele>
        <time>2018-01-29T07:43:29Z</time>
      </trkpt>
      <trkpt lat="48.06419" lon="7.02244">
        <ele>1140</ele>
        <time>2018-01-29T07:43:32Z</time>
      </trkpt>
      <trkpt lat="48.06421" lon="7.0225">
        <ele>1140</ele>
        <time>2018-01-29T07:43:36Z</time>
      </trkpt>
      <trkpt lat="48.06457" lon="7.02257">
        <ele>1142</ele>
        <time>2018-01-29T07:44:09Z</time>
      </trkpt>
      <trkpt lat="48.06476" lon="7.02252">
        <ele>1135</ele>
        <time>2018-01-29T07:44:21Z</time>
      </trkpt>
      <trkpt lat="48.06486" lon="7.02251">
        <ele>1133</ele>
        <time>2018-01-29T07:44:28Z</time>
      </trkpt>
      <trkpt lat="48.06495" lon="7.02248">
        <ele>1135</ele>
        <time>2018-01-29T07:44:34Z</time>
      </trkpt>
      <trkpt lat="48.06527" lon="7.0225">
        <ele>1131</ele>
        <time>2018-01-29T07:44:56Z</time>
      </trkpt>
      <trkpt lat="48.06538" lon="7.02242">
        <ele>1133</ele>
        <time>2018-01-29T07:45:05Z</time>
      </trkpt>
      <trkpt lat="48.06547" lon="7.02236">
        <ele>1134</ele>
        <time>2018-01-29T07:45:13Z</time>
      </trkpt>
      <trkpt lat="48.06552" lon="7.02234">
        <ele>1135</ele>
        <time>2018-01-29T07:45:20Z</time>
      </trkpt>
      <trkpt lat="48.06557" lon="7.02235">
        <ele>1136</ele>
        <time>2018-01-29T07:45:31Z</time>
      </trkpt>
      <trkpt lat="48.06562" lon="7.02228">
        <ele>1138</ele>
        <time>2018-01-29T07:45:37Z</time>
      </trkpt>
      <trkpt lat="48.06565" lon="7.02221">
        <ele>1138</ele>
        <time>2018-01-29T07:45:59Z</time>
      </trkpt>
      <trkpt lat="48.06573" lon="7.02223">
        <ele>1138</ele>
        <time>2018-01-29T07:46:03Z</time>
      </trkpt>
      <trkpt lat="48.06587" lon="7.0222">
        <ele>1134</ele>
        <time>2018-01-29T07:46:12Z</time>
      </trkpt>
      <trkpt lat="48.0658" lon="7.0223">
        <ele>1132</ele>
        <time>2018-01-29T07:46:26Z</time>
      </trkpt>
      <trkpt lat="48.06571" lon="7.02233">
        <ele>1132</ele>
        <time>2018-01-29T07:46:30Z</time>
      </trkpt>
      <trkpt lat="48.06562" lon="7.02231">
        <ele>1132</ele>
        <time>2018-01-29T07:46:37Z</time>
      </trkpt>
      <trkpt lat="48.06555" lon="7.02231">
        <ele>1135</ele>
        <time>2018-01-29T07:46:40Z</time>
      </trkpt>
      <trkpt lat="48.06548" lon="7.02228">
        <ele>1135</ele>
        <time>2018-01-29T07:46:50Z</time>
      </trkpt>
      <trkpt lat="48.06543" lon="7.02231">
        <ele>1135</ele>
        <time>2018-01-29T07:46:56Z</time>
      </trkpt>
      <trkpt lat="48.0654" lon="7.02236">
        <ele>1134</ele>
        <time>2018-01-29T07:46:59Z</time>
      </trkpt>
      <trkpt lat="48.06537" lon="7.02242">
        <ele>1134</ele>
        <time>2018-01-29T07:47:02Z</time>
      </trkpt>
      <trkpt lat="48.06525" lon="7.02247">
        <ele>1135</ele>
        <time>2018-01-29T07:47:12Z</time>
      </trkpt>
      <trkpt lat="48.06496" lon="7.0225">
        <ele>1136</ele>
        <time>2018-01-29T07:47:31Z</time>
      </trkpt>
      <trkpt lat="48.0649" lon="7.02251">
        <ele>1137</ele>
        <time>2018-01-29T07:47:34Z</time>
      </trkpt>
      <trkpt lat="48.06485" lon="7.02255">
        <ele>1137</ele>
        <time>2018-01-29T07:47:37Z</time>
      </trkpt>
      <trkpt lat="48.06469" lon="7.02255">
        <ele>1138</ele>
        <time>2018-01-29T07:47:49Z</time>
      </trkpt>
      <trkpt lat="48.06464" lon="7.02256">
        <ele>1137</ele>
        <time>2018-01-29T07:47:52Z</time>
      </trkpt>
      <trkpt lat="48.06443" lon="7.02259">
        <ele>1136</ele>
        <time>2018-01-29T07:48:07Z</time>
      </trkpt>
      <trkpt lat="48.06429" lon="7.02261">
        <ele>1137</ele>
        <time>2018-01-29T07:48:17Z</time>
      </trkpt>
      <trkpt lat="48.06419" lon="7.02258">
        <ele>1142</ele>
        <time>2018-01-29T07:48:24Z</time>
      </trkpt>
      <trkpt lat="48.06419" lon="7.02265">
        <ele>1144</ele>
        <time>2018-01-29T07:48:31Z</time>
      </trkpt>
      <trkpt lat="48.06424" lon="7.02268">
        <ele>1143</ele>
        <time>2018-01-29T07:48:35Z</time>
      </trkpt>
      <trkpt lat="48.0645" lon="7.02293">
        <ele>1140</ele>
        <time>2018-01-29T07:49:10Z</time>
      </trkpt>
      <trkpt lat="48.06457" lon="7.02296">
        <ele>1136</ele>
        <time>2018-01-29T07:49:14Z</time>
      </trkpt>
      <trkpt lat="48.06461" lon="7.02297">
        <ele>1137</ele>
        <time>2018-01-29T07:49:17Z</time>
      </trkpt>
      <trkpt lat="48.06475" lon="7.02298">
        <ele>1140</ele>
        <time>2018-01-29T07:49:33Z</time>
      </trkpt>
      <trkpt lat="48.06492" lon="7.023">
        <ele>1140</ele>
        <time>2018-01-29T07:49:47Z</time>
      </trkpt>
      <trkpt lat="48.06511" lon="7.02301">
        <ele>1143</ele>
        <time>2018-01-29T07:50:08Z</time>
      </trkpt>
      <trkpt lat="48.06517" lon="7.02305">
        <ele>1144</ele>
        <time>2018-01-29T07:50:15Z</time>
      </trkpt>
      <trkpt lat="48.06524" lon="7.02311">
        <ele>1146</ele>
        <time>2018-01-29T07:50:25Z</time>
      </trkpt>
      <trkpt lat="48.06533" lon="7.0231">
        <ele>1145</ele>
        <time>2018-01-29T07:50:32Z</time>
      </trkpt>
      <trkpt lat="48.06542" lon="7.0231">
        <ele>1145</ele>
        <time>2018-01-29T07:50:38Z</time>
      </trkpt>
      <trkpt lat="48.0655" lon="7.02312">
        <ele>1146</ele>
        <time>2018-01-29T07:50:51Z</time>
      </trkpt>
      <trkpt lat="48.06558" lon="7.02321">
        <ele>1148</ele>
        <time>2018-01-29T07:51:03Z</time>
      </trkpt>
      <trkpt lat="48.06565" lon="7.0232">
        <ele>1152</ele>
        <time>2018-01-29T07:51:14Z</time>
      </trkpt>
      <trkpt lat="48.06571" lon="7.02322">
        <ele>1153</ele>
        <time>2018-01-29T07:51:18Z</time>
      </trkpt>
      <trkpt lat="48.06575" lon="7.02328">
        <ele>1152</ele>
        <time>2018-01-29T07:51:24Z</time>
      </trkpt>
      <trkpt lat="48.06596" lon="7.02335">
        <ele>1152</ele>
        <time>2018-01-29T07:51:47Z</time>
      </trkpt>
      <trkpt lat="48.06613" lon="7.02333">
        <ele>1156</ele>
        <time>2018-01-29T07:52:10Z</time>
      </trkpt>
      <trkpt lat="48.06618" lon="7.02334">
        <ele>1159</ele>
        <time>2018-01-29T07:52:16Z</time>
      </trkpt>
      <trkpt lat="48.06639" lon="7.02341">
        <ele>1164</ele>
        <time>2018-01-29T07:54:19Z</time>
      </trkpt>
      <trkpt lat="48.06638" lon="7.02353">
        <ele>1172</ele>
        <time>2018-01-29T07:56:46Z</time>
      </trkpt>
      <trkpt lat="48.06645" lon="7.02364">
        <ele>1168</ele>
        <time>2018-01-29T07:56:54Z</time>
      </trkpt>
      <trkpt lat="48.06648" lon="7.02373">
        <ele>1167</ele>
        <time>2018-01-29T07:57:06Z</time>
      </trkpt>
      <trkpt lat="48.06651" lon="7.02387">
        <ele>1172</ele>
        <time>2018-01-29T07:57:37Z</time>
      </trkpt>
      <trkpt lat="48.06663" lon="7.02384">
        <ele>1171</ele>
        <time>2018-01-29T07:57:54Z</time>
      </trkpt>
      <trkpt lat="48.06671" lon="7.02381">
        <ele>1176</ele>
        <time>2018-01-29T07:58:09Z</time>
      </trkpt>
      <trkpt lat="48.06679" lon="7.0239">
        <ele>1176</ele>
        <time>2018-01-29T07:58:21Z</time>
      </trkpt>
      <trkpt lat="48.06684" lon="7.02394">
        <ele>1170</ele>
        <time>2018-01-29T07:58:28Z</time>
      </trkpt>
      <trkpt lat="48.06691" lon="7.02394">
        <ele>1169</ele>
        <time>2018-01-29T07:58:33Z</time>
      </trkpt>
      <trkpt lat="48.06717" lon="7.02417">
        <ele>1173</ele>
        <time>2018-01-29T07:59:12Z</time>
      </trkpt>
      <trkpt lat="48.06712" lon="7.02421">
        <ele>1181</ele>
        <time>2018-01-29T07:59:25Z</time>
      </trkpt>
      <trkpt lat="48.06713" lon="7.02427">
        <ele>1181</ele>
        <time>2018-01-29T07:59:31Z</time>
      </trkpt>
      <trkpt lat="48.06717" lon="7.02433">
        <ele>1182</ele>
        <time>2018-01-29T07:59:35Z</time>
      </trkpt>
      <trkpt lat="48.06715" lon="7.02441">
        <ele>1183</ele>
        <time>2018-01-29T07:59:45Z</time>
      </trkpt>
      <trkpt lat="48.06718" lon="7.02447">
        <ele>1184</ele>
        <time>2018-01-29T07:59:53Z</time>
      </trkpt>
      <trkpt lat="48.06721" lon="7.02455">
        <ele>1183</ele>
        <time>2018-01-29T07:59:59Z</time>
      </trkpt>
      <trkpt lat="48.06725" lon="7.02462">
        <ele>1178</ele>
        <time>2018-01-29T08:00:06Z</time>
      </trkpt>
      <trkpt lat="48.06724" lon="7.0247">
        <ele>1177</ele>
        <time>2018-01-29T08:00:17Z</time>
      </trkpt>
      <trkpt lat="48.06727" lon="7.02479">
        <ele>1182</ele>
        <time>2018-01-29T08:00:34Z</time>
      </trkpt>
      <trkpt lat="48.06734" lon="7.02487">
        <ele>1183</ele>
        <time>2018-01-29T08:00:49Z</time>
      </trkpt>
      <trkpt lat="48.06737" lon="7.025">
        <ele>1188</ele>
        <time>2018-01-29T08:01:03Z</time>
      </trkpt>
      <trkpt lat="48.0674" lon="7.02507">
        <ele>1188</ele>
        <time>2018-01-29T08:01:13Z</time>
      </trkpt>
      <trkpt lat="48.06745" lon="7.02516">
        <ele>1193</ele>
        <time>2018-01-29T08:01:19Z</time>
      </trkpt>
      <trkpt lat="48.06741" lon="7.02521">
        <ele>1192</ele>
        <time>2018-01-29T08:01:28Z</time>
      </trkpt>
      <trkpt lat="48.06751" lon="7.02522">
        <ele>1191</ele>
        <time>2018-01-29T08:02:44Z</time>
      </trkpt>
      <trkpt lat="48.06758" lon="7.02521">
        <ele>1196</ele>
        <time>2018-01-29T08:02:50Z</time>
      </trkpt>
      <trkpt lat="48.06764" lon="7.02513">
        <ele>1201</ele>
        <time>2018-01-29T08:03:02Z</time>
      </trkpt>
      <trkpt lat="48.06769" lon="7.02522">
        <ele>1202</ele>
        <time>2018-01-29T08:03:09Z</time>
      </trkpt>
      <trkpt lat="48.06776" lon="7.02521">
        <ele>1207</ele>
        <time>2018-01-29T08:03:16Z</time>
      </trkpt>
      <trkpt lat="48.06781" lon="7.02526">
        <ele>1206</ele>
        <time>2018-01-29T08:03:23Z</time>
      </trkpt>
      <trkpt lat="48.06787" lon="7.02534">
        <ele>1205</ele>
        <time>2018-01-29T08:03:29Z</time>
      </trkpt>
      <trkpt lat="48.06789" lon="7.02544">
        <ele>1202</ele>
        <time>2018-01-29T08:03:34Z</time>
      </trkpt>
      <trkpt lat="48.0682" lon="7.02552">
        <ele>1206</ele>
        <time>2018-01-29T08:04:10Z</time>
      </trkpt>
      <trkpt lat="48.06822" lon="7.02544">
        <ele>1213</ele>
        <time>2018-01-29T08:04:14Z</time>
      </trkpt>
      <trkpt lat="48.06826" lon="7.02545">
        <ele>1213</ele>
        <time>2018-01-29T08:04:23Z</time>
      </trkpt>
      <trkpt lat="48.06841" lon="7.02546">
        <ele>1209</ele>
        <time>2018-01-29T08:04:38Z</time>
      </trkpt>
      <trkpt lat="48.06845" lon="7.02547">
        <ele>1208</ele>
        <time>2018-01-29T08:04:43Z</time>
      </trkpt>
      <trkpt lat="48.0685" lon="7.02549">
        <ele>1208</ele>
        <time>2018-01-29T08:04:48Z</time>
      </trkpt>
      <trkpt lat="48.06859" lon="7.02548">
        <ele>1209</ele>
        <time>2018-01-29T08:05:03Z</time>
      </trkpt>
      <trkpt lat="48.06863" lon="7.02553">
        <ele>1211</ele>
        <time>2018-01-29T08:05:10Z</time>
      </trkpt>
      <trkpt lat="48.06866" lon="7.02556">
        <ele>1211</ele>
        <time>2018-01-29T08:05:16Z</time>
      </trkpt>
      <trkpt lat="48.0687" lon="7.02562">
        <ele>1213</ele>
        <time>2018-01-29T08:05:22Z</time>
      </trkpt>
      <trkpt lat="48.06874" lon="7.02575">
        <ele>1218</ele>
        <time>2018-01-29T08:05:35Z</time>
      </trkpt>
      <trkpt lat="48.06876" lon="7.0258">
        <ele>1219</ele>
        <time>2018-01-29T08:05:43Z</time>
      </trkpt>
      <trkpt lat="48.0688" lon="7.02584">
        <ele>1220</ele>
        <time>2018-01-29T08:05:47Z</time>
      </trkpt>
      <trkpt lat="48.06884" lon="7.02587">
        <ele>1219</ele>
        <time>2018-01-29T08:05:50Z</time>
      </trkpt>
      <trkpt lat="48.06885" lon="7.02593">
        <ele>1218</ele>
        <time>2018-01-29T08:05:59Z</time>
      </trkpt>
      <trkpt lat="48.06888" lon="7.02597">
        <ele>1217</ele>
        <time>2018-01-29T08:06:04Z</time>
      </trkpt>
      <trkpt lat="48.06896" lon="7.02608">
        <ele>1219</ele>
        <time>2018-01-29T08:06:19Z</time>
      </trkpt>
      <trkpt lat="48.06899" lon="7.02615">
        <ele>1223</ele>
        <time>2018-01-29T08:06:28Z</time>
      </trkpt>
      <trkpt lat="48.06907" lon="7.02615">
        <ele>1225</ele>
        <time>2018-01-29T08:06:38Z</time>
      </trkpt>
      <trkpt lat="48.06911" lon="7.02621">
        <ele>1225</ele>
        <time>2018-01-29T08:06:42Z</time>
      </trkpt>
      <trkpt lat="48.06918" lon="7.02627">
        <ele>1224</ele>
        <time>2018-01-29T08:06:49Z</time>
      </trkpt>
      <trkpt lat="48.06924" lon="7.02624">
        <ele>1222</ele>
        <time>2018-01-29T08:06:56Z</time>
      </trkpt>
      <trkpt lat="48.06928" lon="7.0263">
        <ele>1223</ele>
        <time>2018-01-29T08:07:05Z</time>
      </trkpt>
      <trkpt lat="48.06934" lon="7.02628">
        <ele>1223</ele>
        <time>2018-01-29T08:07:10Z</time>
      </trkpt>
      <trkpt lat="48.0694" lon="7.02637">
        <ele>1223</ele>
        <time>2018-01-29T08:07:21Z</time>
      </trkpt>
      <trkpt lat="48.06942" lon="7.02649">
        <ele>1223</ele>
        <time>2018-01-29T08:07:30Z</time>
      </trkpt>
      <trkpt lat="48.06942" lon="7.02658">
        <ele>1223</ele>
        <time>2018-01-29T08:07:41Z</time>
      </trkpt>
      <trkpt lat="48.06946" lon="7.02667">
        <ele>1224</ele>
        <time>2018-01-29T08:08:05Z</time>
      </trkpt>
      <trkpt lat="48.06952" lon="7.02675">
        <ele>1226</ele>
        <time>2018-01-29T08:08:16Z</time>
      </trkpt>
      <trkpt lat="48.06957" lon="7.02682">
        <ele>1234</ele>
        <time>2018-01-29T08:08:27Z</time>
      </trkpt>
      <trkpt lat="48.06962" lon="7.02679">
        <ele>1234</ele>
        <time>2018-01-29T08:08:37Z</time>
      </trkpt>
      <trkpt lat="48.06984" lon="7.0269">
        <ele>1234</ele>
        <time>2018-01-29T08:09:13Z</time>
      </trkpt>
      <trkpt lat="48.06994" lon="7.02693">
        <ele>1231</ele>
        <time>2018-01-29T08:09:16Z</time>
      </trkpt>
      <trkpt lat="48.06998" lon="7.02696">
        <ele>1231</ele>
        <time>2018-01-29T08:09:24Z</time>
      </trkpt>
      <trkpt lat="48.07002" lon="7.02703">
        <ele>1232</ele>
        <time>2018-01-29T08:09:34Z</time>
      </trkpt>
      <trkpt lat="48.07006" lon="7.02711">
        <ele>1232</ele>
        <time>2018-01-29T08:09:39Z</time>
      </trkpt>
      <trkpt lat="48.0701" lon="7.02719">
        <ele>1231</ele>
        <time>2018-01-29T08:09:50Z</time>
      </trkpt>
      <trkpt lat="48.0701" lon="7.02728">
        <ele>1232</ele>
        <time>2018-01-29T08:09:57Z</time>
      </trkpt>
      <trkpt lat="48.07008" lon="7.02735">
        <ele>1233</ele>
        <time>2018-01-29T08:10:04Z</time>
      </trkpt>
      <trkpt lat="48.07014" lon="7.02741">
        <ele>1234</ele>
        <time>2018-01-29T08:10:09Z</time>
      </trkpt>
      <trkpt lat="48.07016" lon="7.02746">
        <ele>1236</ele>
        <time>2018-01-29T08:10:17Z</time>
      </trkpt>
      <trkpt lat="48.07018" lon="7.02757">
        <ele>1233</ele>
        <time>2018-01-29T08:10:26Z</time>
      </trkpt>
      <trkpt lat="48.07027" lon="7.02757">
        <ele>1229</ele>
        <time>2018-01-29T08:10:33Z</time>
      </trkpt>
      <trkpt lat="48.0704" lon="7.02771">
        <ele>1227</ele>
        <time>2018-01-29T08:11:08Z</time>
      </trkpt>
      <trkpt lat="48.07048" lon="7.02776">
        <ele>1229</ele>
        <time>2018-01-29T08:11:14Z</time>
      </trkpt>
      <trkpt lat="48.07056" lon="7.02778">
        <ele>1233</ele>
        <time>2018-01-29T08:11:23Z</time>
      </trkpt>
      <trkpt lat="48.07064" lon="7.02782">
        <ele>1235</ele>
        <time>2018-01-29T08:11:33Z</time>
      </trkpt>
      <trkpt lat="48.07079" lon="7.02795">
        <ele>1242</ele>
        <time>2018-01-29T08:11:49Z</time>
      </trkpt>
      <trkpt lat="48.07084" lon="7.02801">
        <ele>1244</ele>
        <time>2018-01-29T08:11:57Z</time>
      </trkpt>
      <trkpt lat="48.07089" lon="7.02806">
        <ele>1246</ele>
        <time>2018-01-29T08:12:02Z</time>
      </trkpt>
      <trkpt lat="48.07093" lon="7.02814">
        <ele>1246</ele>
        <time>2018-01-29T08:12:08Z</time>
      </trkpt>
      <trkpt lat="48.07098" lon="7.02825">
        <ele>1246</ele>
        <time>2018-01-29T08:12:18Z</time>
      </trkpt>
      <trkpt lat="48.07099" lon="7.02834">
        <ele>1244</ele>
        <time>2018-01-29T08:12:37Z</time>
      </trkpt>
      <trkpt lat="48.07099" lon="7.02841">
        <ele>1242</ele>
        <time>2018-01-29T08:12:42Z</time>
      </trkpt>
      <trkpt lat="48.07099" lon="7.0285">
        <ele>1241</ele>
        <time>2018-01-29T08:12:54Z</time>
      </trkpt>
      <trkpt lat="48.07096" lon="7.02858">
        <ele>1241</ele>
        <time>2018-01-29T08:13:02Z</time>
      </trkpt>
      <trkpt lat="48.07093" lon="7.02863">
        <ele>1245</ele>
        <time>2018-01-29T08:13:07Z</time>
      </trkpt>
      <trkpt lat="48.07094" lon="7.0287">
        <ele>1248</ele>
        <time>2018-01-29T08:13:12Z</time>
      </trkpt>
      <trkpt lat="48.07097" lon="7.02877">
        <ele>1249</ele>
        <time>2018-01-29T08:13:18Z</time>
      </trkpt>
      <trkpt lat="48.07101" lon="7.02883">
        <ele>1250</ele>
        <time>2018-01-29T08:13:23Z</time>
      </trkpt>
      <trkpt lat="48.07106" lon="7.02892">
        <ele>1248</ele>
        <time>2018-01-29T08:13:29Z</time>
      </trkpt>
      <trkpt lat="48.07143" lon="7.02935">
        <ele>1240</ele>
        <time>2018-01-29T08:14:12Z</time>
      </trkpt>
      <trkpt lat="48.07144" lon="7.02939">
        <ele>1246</ele>
        <time>2018-01-29T08:14:28Z</time>
      </trkpt>
      <trkpt lat="48.07146" lon="7.02945">
        <ele>1247</ele>
        <time>2018-01-29T08:14:32Z</time>
      </trkpt>
      <trkpt lat="48.07147" lon="7.02951">
        <ele>1249</ele>
        <time>2018-01-29T08:14:36Z</time>
      </trkpt>
      <trkpt lat="48.07146" lon="7.0296">
        <ele>1251</ele>
        <time>2018-01-29T08:14:42Z</time>
      </trkpt>
      <trkpt lat="48.07148" lon="7.02968">
        <ele>1255</ele>
        <time>2018-01-29T08:14:50Z</time>
      </trkpt>
      <trkpt lat="48.07151" lon="7.02973">
        <ele>1256</ele>
        <time>2018-01-29T08:15:00Z</time>
      </trkpt>
      <trkpt lat="48.07155" lon="7.02973">
        <ele>1252</ele>
        <time>2018-01-29T08:15:06Z</time>
      </trkpt>
      <trkpt lat="48.07162" lon="7.02977">
        <ele>1250</ele>
        <time>2018-01-29T08:15:13Z</time>
      </trkpt>
      <trkpt lat="48.07171" lon="7.02977">
        <ele>1245</ele>
        <time>2018-01-29T08:15:20Z</time>
      </trkpt>
      <trkpt lat="48.0718" lon="7.02972">
        <ele>1242</ele>
        <time>2018-01-29T08:15:27Z</time>
      </trkpt>
      <trkpt lat="48.07188" lon="7.02971">
        <ele>1242</ele>
        <time>2018-01-29T08:15:37Z</time>
      </trkpt>
      <trkpt lat="48.07195" lon="7.02978">
        <ele>1240</ele>
        <time>2018-01-29T08:15:55Z</time>
      </trkpt>
      <trkpt lat="48.07201" lon="7.02984">
        <ele>1239</ele>
        <time>2018-01-29T08:16:04Z</time>
      </trkpt>
      <trkpt lat="48.0721" lon="7.0299">
        <ele>1238</ele>
        <time>2018-01-29T08:16:12Z</time>
      </trkpt>
      <trkpt lat="48.07224" lon="7.03007">
        <ele>1232</ele>
        <time>2018-01-29T08:16:27Z</time>
      </trkpt>
      <trkpt lat="48.0724" lon="7.03016">
        <ele>1233</ele>
        <time>2018-01-29T08:17:05Z</time>
      </trkpt>
      <trkpt lat="48.07248" lon="7.03021">
        <ele>1238</ele>
        <time>2018-01-29T08:17:10Z</time>
      </trkpt>
      <trkpt lat="48.07255" lon="7.0303">
        <ele>1241</ele>
        <time>2018-01-29T08:17:15Z</time>
      </trkpt>
      <trkpt lat="48.07262" lon="7.03037">
        <ele>1241</ele>
        <time>2018-01-29T08:17:27Z</time>
      </trkpt>
      <trkpt lat="48.07268" lon="7.03045">
        <ele>1239</ele>
        <time>2018-01-29T08:17:34Z</time>
      </trkpt>
      <trkpt lat="48.07272" lon="7.0305">
        <ele>1237</ele>
        <time>2018-01-29T08:17:40Z</time>
      </trkpt>
      <trkpt lat="48.07281" lon="7.03051">
        <ele>1236</ele>
        <time>2018-01-29T08:17:46Z</time>
      </trkpt>
      <trkpt lat="48.07284" lon="7.03061">
        <ele>1235</ele>
        <time>2018-01-29T08:17:56Z</time>
      </trkpt>
      <trkpt lat="48.07291" lon="7.03072">
        <ele>1234</ele>
        <time>2018-01-29T08:18:04Z</time>
      </trkpt>
      <trkpt lat="48.073" lon="7.03077">
        <ele>1235</ele>
        <time>2018-01-29T08:18:11Z</time>
      </trkpt>
      <trkpt lat="48.07307" lon="7.03083">
        <ele>1233</ele>
        <time>2018-01-29T08:18:18Z</time>
      </trkpt>
      <trkpt lat="48.07316" lon="7.03095">
        <ele>1229</ele>
        <time>2018-01-29T08:18:28Z</time>
      </trkpt>
      <trkpt lat="48.07334" lon="7.03105">
        <ele>1225</ele>
        <time>2018-01-29T08:18:40Z</time>
      </trkpt>
      <trkpt lat="48.07376" lon="7.03135">
        <ele>1222</ele>
        <time>2018-01-29T08:19:12Z</time>
      </trkpt>
      <trkpt lat="48.07371" lon="7.03136">
        <ele>1224</ele>
        <time>2018-01-29T08:19:16Z</time>
      </trkpt>
      <trkpt lat="48.07371" lon="7.03143">
        <ele>1228</ele>
        <time>2018-01-29T08:19:25Z</time>
      </trkpt>
      <trkpt lat="48.07373" lon="7.03149">
        <ele>1231</ele>
        <time>2018-01-29T08:19:35Z</time>
      </trkpt>
      <trkpt lat="48.07377" lon="7.03154">
        <ele>1230</ele>
        <time>2018-01-29T08:19:47Z</time>
      </trkpt>
      <trkpt lat="48.07381" lon="7.03159">
        <ele>1231</ele>
        <time>2018-01-29T08:19:51Z</time>
      </trkpt>
      <trkpt lat="48.07389" lon="7.03168">
        <ele>1231</ele>
        <time>2018-01-29T08:19:59Z</time>
      </trkpt>
      <trkpt lat="48.07393" lon="7.03172">
        <ele>1233</ele>
        <time>2018-01-29T08:20:04Z</time>
      </trkpt>
      <trkpt lat="48.07398" lon="7.03172">
        <ele>1233</ele>
        <time>2018-01-29T08:20:18Z</time>
      </trkpt>
      <trkpt lat="48.07402" lon="7.03177">
        <ele>1233</ele>
        <time>2018-01-29T08:20:22Z</time>
      </trkpt>
      <trkpt lat="48.07404" lon="7.03183">
        <ele>1232</ele>
        <time>2018-01-29T08:20:27Z</time>
      </trkpt>
      <trkpt lat="48.07408" lon="7.03187">
        <ele>1232</ele>
        <time>2018-01-29T08:20:32Z</time>
      </trkpt>
      <trkpt lat="48.07411" lon="7.03192">
        <ele>1234</ele>
        <time>2018-01-29T08:20:36Z</time>
      </trkpt>
      <trkpt lat="48.07415" lon="7.03195">
        <ele>1234</ele>
        <time>2018-01-29T08:20:42Z</time>
      </trkpt>
      <trkpt lat="48.07419" lon="7.03199">
        <ele>1237</ele>
        <time>2018-01-29T08:20:48Z</time>
      </trkpt>
      <trkpt lat="48.07421" lon="7.03204">
        <ele>1238</ele>
        <time>2018-01-29T08:20:53Z</time>
      </trkpt>
      <trkpt lat="48.07429" lon="7.03225">
        <ele>1240</ele>
        <time>2018-01-29T08:21:03Z</time>
      </trkpt>
      <trkpt lat="48.07437" lon="7.03231">
        <ele>1236</ele>
        <time>2018-01-29T08:21:19Z</time>
      </trkpt>
      <trkpt lat="48.07445" lon="7.03243">
        <ele>1237</ele>
        <time>2018-01-29T08:21:30Z</time>
      </trkpt>
      <trkpt lat="48.07455" lon="7.03245">
        <ele>1238</ele>
        <time>2018-01-29T08:21:37Z</time>
      </trkpt>
      <trkpt lat="48.07455" lon="7.03254">
        <ele>1238</ele>
        <time>2018-01-29T08:21:50Z</time>
      </trkpt>
      <trkpt lat="48.07458" lon="7.03265">
        <ele>1240</ele>
        <time>2018-01-29T08:22:01Z</time>
      </trkpt>
      <trkpt lat="48.07463" lon="7.03273">
        <ele>1240</ele>
        <time>2018-01-29T08:22:19Z</time>
      </trkpt>
      <trkpt lat="48.07473" lon="7.03288">
        <ele>1241</ele>
        <time>2018-01-29T08:22:28Z</time>
      </trkpt>
      <trkpt lat="48.07478" lon="7.03295">
        <ele>1239</ele>
        <time>2018-01-29T08:22:42Z</time>
      </trkpt>
      <trkpt lat="48.0748" lon="7.03303">
        <ele>1238</ele>
        <time>2018-01-29T08:22:48Z</time>
      </trkpt>
      <trkpt lat="48.07494" lon="7.03328">
        <ele>1247</ele>
        <time>2018-01-29T08:23:20Z</time>
      </trkpt>
      <trkpt lat="48.075" lon="7.03335">
        <ele>1250</ele>
        <time>2018-01-29T08:23:32Z</time>
      </trkpt>
      <trkpt lat="48.07502" lon="7.03346">
        <ele>1251</ele>
        <time>2018-01-29T08:23:37Z</time>
      </trkpt>
      <trkpt lat="48.07516" lon="7.03388">
        <ele>1256</ele>
        <time>2018-01-29T08:24:14Z</time>
      </trkpt>
      <trkpt lat="48.07523" lon="7.03386">
        <ele>1258</ele>
        <time>2018-01-29T08:24:16Z</time>
      </trkpt>
      <trkpt lat="48.07535" lon="7.03399">
        <ele>1260</ele>
        <time>2018-01-29T08:24:34Z</time>
      </trkpt>
      <trkpt lat="48.07536" lon="7.03405">
        <ele>1260</ele>
        <time>2018-01-29T08:24:39Z</time>
      </trkpt>
      <trkpt lat="48.07539" lon="7.03412">
        <ele>1259</ele>
        <time>2018-01-29T08:24:47Z</time>
      </trkpt>
      <trkpt lat="48.07545" lon="7.03422">
        <ele>1261</ele>
        <time>2018-01-29T08:24:59Z</time>
      </trkpt>
      <trkpt lat="48.07547" lon="7.03433">
        <ele>1262</ele>
        <time>2018-01-29T08:25:08Z</time>
      </trkpt>
      <trkpt lat="48.07554" lon="7.03438">
        <ele>1261</ele>
        <time>2018-01-29T08:25:13Z</time>
      </trkpt>
      <trkpt lat="48.07558" lon="7.03446">
        <ele>1259</ele>
        <time>2018-01-29T08:25:18Z</time>
      </trkpt>
      <trkpt lat="48.0756" lon="7.03451">
        <ele>1258</ele>
        <time>2018-01-29T08:25:30Z</time>
      </trkpt>
      <trkpt lat="48.07566" lon="7.03463">
        <ele>1261</ele>
        <time>2018-01-29T08:25:39Z</time>
      </trkpt>
      <trkpt lat="48.07566" lon="7.03469">
        <ele>1262</ele>
        <time>2018-01-29T08:25:44Z</time>
      </trkpt>
      <trkpt lat="48.07565" lon="7.03476">
        <ele>1263</ele>
        <time>2018-01-29T08:25:51Z</time>
      </trkpt>
      <trkpt lat="48.07565" lon="7.03483">
        <ele>1264</ele>
        <time>2018-01-29T08:25:56Z</time>
      </trkpt>
      <trkpt lat="48.07569" lon="7.03488">
        <ele>1267</ele>
        <time>2018-01-29T08:26:02Z</time>
      </trkpt>
      <trkpt lat="48.07574" lon="7.03489">
        <ele>1268</ele>
        <time>2018-01-29T08:26:06Z</time>
      </trkpt>
      <trkpt lat="48.07578" lon="7.03491">
        <ele>1268</ele>
        <time>2018-01-29T08:26:10Z</time>
      </trkpt>
      <trkpt lat="48.07579" lon="7.03499">
        <ele>1267</ele>
        <time>2018-01-29T08:26:14Z</time>
      </trkpt>
      <trkpt lat="48.07579" lon="7.03507">
        <ele>1268</ele>
        <time>2018-01-29T08:26:21Z</time>
      </trkpt>
      <trkpt lat="48.07582" lon="7.03512">
        <ele>1268</ele>
        <time>2018-01-29T08:26:24Z</time>
      </trkpt>
      <trkpt lat="48.07587" lon="7.0351">
        <ele>1267</ele>
        <time>2018-01-29T08:26:34Z</time>
      </trkpt>
      <trkpt lat="48.07601" lon="7.03516">
        <ele>1263</ele>
        <time>2018-01-29T08:26:45Z</time>
      </trkpt>
      <trkpt lat="48.07606" lon="7.03511">
        <ele>1264</ele>
        <time>2018-01-29T08:26:56Z</time>
      </trkpt>
      <trkpt lat="48.07611" lon="7.03505">
        <ele>1267</ele>
        <time>2018-01-29T08:27:02Z</time>
      </trkpt>
      <trkpt lat="48.07618" lon="7.03505">
        <ele>1266</ele>
        <time>2018-01-29T08:27:07Z</time>
      </trkpt>
      <trkpt lat="48.07624" lon="7.03502">
        <ele>1264</ele>
        <time>2018-01-29T08:27:14Z</time>
      </trkpt>
      <trkpt lat="48.0763" lon="7.03501">
        <ele>1265</ele>
        <time>2018-01-29T08:27:20Z</time>
      </trkpt>
      <trkpt lat="48.07634" lon="7.03494">
        <ele>1267</ele>
        <time>2018-01-29T08:27:26Z</time>
      </trkpt>
      <trkpt lat="48.07639" lon="7.03491">
        <ele>1270</ele>
        <time>2018-01-29T08:27:37Z</time>
      </trkpt>
      <trkpt lat="48.07647" lon="7.03484">
        <ele>1271</ele>
        <time>2018-01-29T08:27:46Z</time>
      </trkpt>
      <trkpt lat="48.07653" lon="7.03484">
        <ele>1270</ele>
        <time>2018-01-29T08:28:43Z</time>
      </trkpt>
      <trkpt lat="48.0766" lon="7.03497">
        <ele>1270</ele>
        <time>2018-01-29T08:29:15Z</time>
      </trkpt>
      <trkpt lat="48.07668" lon="7.03502">
        <ele>1270</ele>
        <time>2018-01-29T08:29:17Z</time>
      </trkpt>
      <trkpt lat="48.07673" lon="7.03514">
        <ele>1270</ele>
        <time>2018-01-29T08:29:27Z</time>
      </trkpt>
      <trkpt lat="48.0768" lon="7.03531">
        <ele>1271</ele>
        <time>2018-01-29T08:29:43Z</time>
      </trkpt>
      <trkpt lat="48.0768" lon="7.03539">
        <ele>1272</ele>
        <time>2018-01-29T08:29:49Z</time>
      </trkpt>
      <trkpt lat="48.07674" lon="7.03558">
        <ele>1270</ele>
        <time>2018-01-29T08:30:05Z</time>
      </trkpt>
      <trkpt lat="48.07675" lon="7.03577">
        <ele>1271</ele>
        <time>2018-01-29T08:30:17Z</time>
      </trkpt>
      <trkpt lat="48.07679" lon="7.03582">
        <ele>1273</ele>
        <time>2018-01-29T08:30:21Z</time>
      </trkpt>
      <trkpt lat="48.07682" lon="7.03595">
        <ele>1275</ele>
        <time>2018-01-29T08:30:29Z</time>
      </trkpt>
      <trkpt lat="48.07694" lon="7.03616">
        <ele>1277</ele>
        <time>2018-01-29T08:30:49Z</time>
      </trkpt>
      <trkpt lat="48.077" lon="7.03627">
        <ele>1276</ele>
        <time>2018-01-29T08:30:58Z</time>
      </trkpt>
      <trkpt lat="48.07705" lon="7.03646">
        <ele>1278</ele>
        <time>2018-01-29T08:31:13Z</time>
      </trkpt>
      <trkpt lat="48.07707" lon="7.03651">
        <ele>1278</ele>
        <time>2018-01-29T08:31:17Z</time>
      </trkpt>
      <trkpt lat="48.07718" lon="7.03665">
        <ele>1278</ele>
        <time>2018-01-29T08:31:31Z</time>
      </trkpt>
      <trkpt lat="48.0773" lon="7.03673">
        <ele>1278</ele>
        <time>2018-01-29T08:31:43Z</time>
      </trkpt>
      <trkpt lat="48.07744" lon="7.03681">
        <ele>1278</ele>
        <time>2018-01-29T08:31:58Z</time>
      </trkpt>
      <trkpt lat="48.07764" lon="7.03692">
        <ele>1279</ele>
        <time>2018-01-29T08:32:16Z</time>
      </trkpt>
      <trkpt lat="48.07767" lon="7.03699">
        <ele>1278</ele>
        <time>2018-01-29T08:32:20Z</time>
      </trkpt>
      <trkpt lat="48.07776" lon="7.03706">
        <ele>1275</ele>
        <time>2018-01-29T08:32:28Z</time>
      </trkpt>
      <trkpt lat="48.07781" lon="7.03708">
        <ele>1274</ele>
        <time>2018-01-29T08:32:32Z</time>
      </trkpt>
      <trkpt lat="48.07785" lon="7.0371">
        <ele>1272</ele>
        <time>2018-01-29T08:32:36Z</time>
      </trkpt>
      <trkpt lat="48.0779" lon="7.0371">
        <ele>1271</ele>
        <time>2018-01-29T08:32:40Z</time>
      </trkpt>
      <trkpt lat="48.07794" lon="7.03714">
        <ele>1270</ele>
        <time>2018-01-29T08:32:45Z</time>
      </trkpt>
      <trkpt lat="48.07806" lon="7.03724">
        <ele>1269</ele>
        <time>2018-01-29T08:32:55Z</time>
      </trkpt>
      <trkpt lat="48.07815" lon="7.03727">
        <ele>1269</ele>
        <time>2018-01-29T08:33:02Z</time>
      </trkpt>
      <trkpt lat="48.07821" lon="7.03727">
        <ele>1269</ele>
        <time>2018-01-29T08:33:05Z</time>
      </trkpt>
      <trkpt lat="48.07827" lon="7.03735">
        <ele>1269</ele>
        <time>2018-01-29T08:33:16Z</time>
      </trkpt>
      <trkpt lat="48.07833" lon="7.03737">
        <ele>1269</ele>
        <time>2018-01-29T08:33:21Z</time>
      </trkpt>
      <trkpt lat="48.07834" lon="7.03744">
        <ele>1269</ele>
        <time>2018-01-29T08:33:25Z</time>
      </trkpt>
      <trkpt lat="48.07836" lon="7.03758">
        <ele>1268</ele>
        <time>2018-01-29T08:33:33Z</time>
      </trkpt>
      <trkpt lat="48.07834" lon="7.03766">
        <ele>1267</ele>
        <time>2018-01-29T08:33:38Z</time>
      </trkpt>
      <trkpt lat="48.07836" lon="7.03771">
        <ele>1266</ele>
        <time>2018-01-29T08:33:41Z</time>
      </trkpt>
      <trkpt lat="48.07852" lon="7.03811">
        <ele>1274</ele>
        <time>2018-01-29T08:34:14Z</time>
      </trkpt>
      <trkpt lat="48.07853" lon="7.03818">
        <ele>1271</ele>
        <time>2018-01-29T08:34:18Z</time>
      </trkpt>
      <trkpt lat="48.07857" lon="7.0383">
        <ele>1269</ele>
        <time>2018-01-29T08:34:27Z</time>
      </trkpt>
      <trkpt lat="48.07858" lon="7.03837">
        <ele>1269</ele>
        <time>2018-01-29T08:34:32Z</time>
      </trkpt>
      <trkpt lat="48.07858" lon="7.03844">
        <ele>1270</ele>
        <time>2018-01-29T08:34:37Z</time>
      </trkpt>
      <trkpt lat="48.07858" lon="7.03857">
        <ele>1268</ele>
        <time>2018-01-29T08:34:46Z</time>
      </trkpt>
      <trkpt lat="48.07865" lon="7.03877">
        <ele>1268</ele>
        <time>2018-01-29T08:34:56Z</time>
      </trkpt>
      <trkpt lat="48.07872" lon="7.03895">
        <ele>1272</ele>
        <time>2018-01-29T08:35:07Z</time>
      </trkpt>
      <trkpt lat="48.07875" lon="7.039">
        <ele>1272</ele>
        <time>2018-01-29T08:35:12Z</time>
      </trkpt>
      <trkpt lat="48.07877" lon="7.03907">
        <ele>1270</ele>
        <time>2018-01-29T08:35:16Z</time>
      </trkpt>
      <trkpt lat="48.07879" lon="7.03912">
        <ele>1267</ele>
        <time>2018-01-29T08:35:20Z</time>
      </trkpt>
      <trkpt lat="48.07881" lon="7.03918">
        <ele>1267</ele>
        <time>2018-01-29T08:35:23Z</time>
      </trkpt>
      <trkpt lat="48.07885" lon="7.03918">
        <ele>1266</ele>
        <time>2018-01-29T08:35:27Z</time>
      </trkpt>
      <trkpt lat="48.07887" lon="7.03913">
        <ele>1266</ele>
        <time>2018-01-29T08:35:31Z</time>
      </trkpt>
      <trkpt lat="48.07892" lon="7.03907">
        <ele>1267</ele>
        <time>2018-01-29T08:35:40Z</time>
      </trkpt>
      <trkpt lat="48.07904" lon="7.0391">
        <ele>1264</ele>
        <time>2018-01-29T08:35:52Z</time>
      </trkpt>
      <trkpt lat="48.0791" lon="7.03912">
        <ele>1264</ele>
        <time>2018-01-29T08:36:08Z</time>
      </trkpt>
      <trkpt lat="48.07908" lon="7.03925">
        <ele>1263</ele>
        <time>2018-01-29T08:36:18Z</time>
      </trkpt>
      <trkpt lat="48.07916" lon="7.0393">
        <ele>1263</ele>
        <time>2018-01-29T08:36:24Z</time>
      </trkpt>
      <trkpt lat="48.07921" lon="7.03933">
        <ele>1263</ele>
        <time>2018-01-29T08:36:28Z</time>
      </trkpt>
      <trkpt lat="48.07926" lon="7.03939">
        <ele>1265</ele>
        <time>2018-01-29T08:36:32Z</time>
      </trkpt>
      <trkpt lat="48.07925" lon="7.03947">
        <ele>1264</ele>
        <time>2018-01-29T08:36:38Z</time>
      </trkpt>
      <trkpt lat="48.07929" lon="7.03955">
        <ele>1266</ele>
        <time>2018-01-29T08:36:41Z</time>
      </trkpt>
      <trkpt lat="48.07932" lon="7.03963">
        <ele>1266</ele>
        <time>2018-01-29T08:36:47Z</time>
      </trkpt>
      <trkpt lat="48.07938" lon="7.03969">
        <ele>1266</ele>
        <time>2018-01-29T08:36:53Z</time>
      </trkpt>
      <trkpt lat="48.07944" lon="7.03974">
        <ele>1264</ele>
        <time>2018-01-29T08:36:59Z</time>
      </trkpt>
      <trkpt lat="48.07952" lon="7.0398">
        <ele>1262</ele>
        <time>2018-01-29T08:37:08Z</time>
      </trkpt>
      <trkpt lat="48.07954" lon="7.03995">
        <ele>1263</ele>
        <time>2018-01-29T08:37:20Z</time>
      </trkpt>
      <trkpt lat="48.07954" lon="7.04009">
        <ele>1260</ele>
        <time>2018-01-29T08:37:31Z</time>
      </trkpt>
      <trkpt lat="48.07955" lon="7.04023">
        <ele>1261</ele>
        <time>2018-01-29T08:37:39Z</time>
      </trkpt>
      <trkpt lat="48.07956" lon="7.04035">
        <ele>1261</ele>
        <time>2018-01-29T08:38:01Z</time>
      </trkpt>
      <trkpt lat="48.07958" lon="7.04046">
        <ele>1257</ele>
        <time>2018-01-29T08:38:07Z</time>
      </trkpt>
      <trkpt lat="48.07957" lon="7.04063">
        <ele>1256</ele>
        <time>2018-01-29T08:38:19Z</time>
      </trkpt>
      <trkpt lat="48.07964" lon="7.04074">
        <ele>1257</ele>
        <time>2018-01-29T08:38:26Z</time>
      </trkpt>
      <trkpt lat="48.07965" lon="7.04086">
        <ele>1256</ele>
        <time>2018-01-29T08:38:36Z</time>
      </trkpt>
      <trkpt lat="48.0796" lon="7.04097">
        <ele>1255</ele>
        <time>2018-01-29T08:38:42Z</time>
      </trkpt>
      <trkpt lat="48.07968" lon="7.04152">
        <ele>1259</ele>
        <time>2018-01-29T08:39:15Z</time>
      </trkpt>
      <trkpt lat="48.07962" lon="7.04152">
        <ele>1268</ele>
        <time>2018-01-29T08:39:22Z</time>
      </trkpt>
      <trkpt lat="48.07956" lon="7.04155">
        <ele>1260</ele>
        <time>2018-01-29T08:39:26Z</time>
      </trkpt>
      <trkpt lat="48.07952" lon="7.04154">
        <ele>1259</ele>
        <time>2018-01-29T08:39:31Z</time>
      </trkpt>
      <trkpt lat="48.07949" lon="7.04159">
        <ele>1259</ele>
        <time>2018-01-29T08:39:37Z</time>
      </trkpt>
      <trkpt lat="48.07945" lon="7.04163">
        <ele>1260</ele>
        <time>2018-01-29T08:39:42Z</time>
      </trkpt>
      <trkpt lat="48.07942" lon="7.04168">
        <ele>1260</ele>
        <time>2018-01-29T08:39:45Z</time>
      </trkpt>
      <trkpt lat="48.07939" lon="7.04188">
        <ele>1264</ele>
        <time>2018-01-29T08:40:00Z</time>
      </trkpt>
      <trkpt lat="48.0794" lon="7.04203">
        <ele>1268</ele>
        <time>2018-01-29T08:40:12Z</time>
      </trkpt>
      <trkpt lat="48.0794" lon="7.04218">
        <ele>1268</ele>
        <time>2018-01-29T08:40:24Z</time>
      </trkpt>
      <trkpt lat="48.07941" lon="7.04225">
        <ele>1269</ele>
        <time>2018-01-29T08:40:28Z</time>
      </trkpt>
      <trkpt lat="48.07939" lon="7.04231">
        <ele>1270</ele>
        <time>2018-01-29T08:40:31Z</time>
      </trkpt>
      <trkpt lat="48.07937" lon="7.04251">
        <ele>1271</ele>
        <time>2018-01-29T08:40:45Z</time>
      </trkpt>
      <trkpt lat="48.07939" lon="7.04271">
        <ele>1271</ele>
        <time>2018-01-29T08:40:58Z</time>
      </trkpt>
      <trkpt lat="48.07938" lon="7.04278">
        <ele>1270</ele>
        <time>2018-01-29T08:41:03Z</time>
      </trkpt>
      <trkpt lat="48.07938" lon="7.04285">
        <ele>1271</ele>
        <time>2018-01-29T08:41:07Z</time>
      </trkpt>
      <trkpt lat="48.07938" lon="7.04292">
        <ele>1272</ele>
        <time>2018-01-29T08:41:12Z</time>
      </trkpt>
      <trkpt lat="48.07937" lon="7.04298">
        <ele>1273</ele>
        <time>2018-01-29T08:41:17Z</time>
      </trkpt>
      <trkpt lat="48.07936" lon="7.04306">
        <ele>1273</ele>
        <time>2018-01-29T08:41:22Z</time>
      </trkpt>
      <trkpt lat="48.07941" lon="7.04327">
        <ele>1269</ele>
        <time>2018-01-29T08:41:35Z</time>
      </trkpt>
      <trkpt lat="48.07937" lon="7.04329">
        <ele>1270</ele>
        <time>2018-01-29T08:41:38Z</time>
      </trkpt>
      <trkpt lat="48.07937" lon="7.04336">
        <ele>1270</ele>
        <time>2018-01-29T08:41:43Z</time>
      </trkpt>
      <trkpt lat="48.07937" lon="7.04343">
        <ele>1271</ele>
        <time>2018-01-29T08:41:48Z</time>
      </trkpt>
      <trkpt lat="48.07943" lon="7.04365">
        <ele>1272</ele>
        <time>2018-01-29T08:42:01Z</time>
      </trkpt>
      <trkpt lat="48.07941" lon="7.04371">
        <ele>1272</ele>
        <time>2018-01-29T08:42:06Z</time>
      </trkpt>
      <trkpt lat="48.07938" lon="7.0439">
        <ele>1277</ele>
        <time>2018-01-29T08:42:20Z</time>
      </trkpt>
      <trkpt lat="48.0794" lon="7.04396">
        <ele>1277</ele>
        <time>2018-01-29T08:42:26Z</time>
      </trkpt>
      <trkpt lat="48.07948" lon="7.04421">
        <ele>1278</ele>
        <time>2018-01-29T08:42:44Z</time>
      </trkpt>
      <trkpt lat="48.07951" lon="7.04428">
        <ele>1275</ele>
        <time>2018-01-29T08:42:49Z</time>
      </trkpt>
      <trkpt lat="48.07956" lon="7.04455">
        <ele>1275</ele>
        <time>2018-01-29T08:43:05Z</time>
      </trkpt>
      <trkpt lat="48.07955" lon="7.04462">
        <ele>1276</ele>
        <time>2018-01-29T08:43:10Z</time>
      </trkpt>
      <trkpt lat="48.07955" lon="7.04468">
        <ele>1277</ele>
        <time>2018-01-29T08:43:15Z</time>
      </trkpt>
      <trkpt lat="48.07953" lon="7.04474">
        <ele>1278</ele>
        <time>2018-01-29T08:43:19Z</time>
      </trkpt>
      <trkpt lat="48.07953" lon="7.04488">
        <ele>1278</ele>
        <time>2018-01-29T08:43:28Z</time>
      </trkpt>
      <trkpt lat="48.07955" lon="7.04494">
        <ele>1277</ele>
        <time>2018-01-29T08:43:31Z</time>
      </trkpt>
      <trkpt lat="48.07958" lon="7.045">
        <ele>1280</ele>
        <time>2018-01-29T08:43:37Z</time>
      </trkpt>
      <trkpt lat="48.07965" lon="7.04507">
        <ele>1282</ele>
        <time>2018-01-29T08:43:44Z</time>
      </trkpt>
      <trkpt lat="48.07972" lon="7.04536">
        <ele>1285</ele>
        <time>2018-01-29T08:44:15Z</time>
      </trkpt>
      <trkpt lat="48.07981" lon="7.04548">
        <ele>1287</ele>
        <time>2018-01-29T08:44:19Z</time>
      </trkpt>
      <trkpt lat="48.07992" lon="7.04577">
        <ele>1286</ele>
        <time>2018-01-29T08:44:42Z</time>
      </trkpt>
      <trkpt lat="48.07996" lon="7.04582">
        <ele>1286</ele>
        <time>2018-01-29T08:44:54Z</time>
      </trkpt>
      <trkpt lat="48.07997" lon="7.04588">
        <ele>1285</ele>
        <time>2018-01-29T08:44:58Z</time>
      </trkpt>
      <trkpt lat="48.07999" lon="7.04596">
        <ele>1284</ele>
        <time>2018-01-29T08:45:04Z</time>
      </trkpt>
      <trkpt lat="48.08001" lon="7.04607">
        <ele>1284</ele>
        <time>2018-01-29T08:45:34Z</time>
      </trkpt>
      <trkpt lat="48.08006" lon="7.04635">
        <ele>1286</ele>
        <time>2018-01-29T08:45:54Z</time>
      </trkpt>
      <trkpt lat="48.08007" lon="7.04648">
        <ele>1286</ele>
        <time>2018-01-29T08:46:03Z</time>
      </trkpt>
      <trkpt lat="48.08008" lon="7.04655">
        <ele>1286</ele>
        <time>2018-01-29T08:46:07Z</time>
      </trkpt>
      <trkpt lat="48.08007" lon="7.04662">
        <ele>1287</ele>
        <time>2018-01-29T08:46:13Z</time>
      </trkpt>
      <trkpt lat="48.08008" lon="7.04669">
        <ele>1289</ele>
        <time>2018-01-29T08:46:17Z</time>
      </trkpt>
      <trkpt lat="48.08017" lon="7.04685">
        <ele>1289</ele>
        <time>2018-01-29T08:46:29Z</time>
      </trkpt>
      <trkpt lat="48.08029" lon="7.04697">
        <ele>1288</ele>
        <time>2018-01-29T08:46:38Z</time>
      </trkpt>
      <trkpt lat="48.08034" lon="7.04709">
        <ele>1288</ele>
        <time>2018-01-29T08:46:46Z</time>
      </trkpt>
      <trkpt lat="48.08035" lon="7.04717">
        <ele>1288</ele>
        <time>2018-01-29T08:46:50Z</time>
      </trkpt>
      <trkpt lat="48.08036" lon="7.04731">
        <ele>1289</ele>
        <time>2018-01-29T08:46:59Z</time>
      </trkpt>
      <trkpt lat="48.08047" lon="7.04762">
        <ele>1288</ele>
        <time>2018-01-29T08:47:19Z</time>
      </trkpt>
      <trkpt lat="48.0805" lon="7.04766">
        <ele>1287</ele>
        <time>2018-01-29T08:47:23Z</time>
      </trkpt>
      <trkpt lat="48.08057" lon="7.04777">
        <ele>1286</ele>
        <time>2018-01-29T08:47:30Z</time>
      </trkpt>
      <trkpt lat="48.08059" lon="7.04783">
        <ele>1285</ele>
        <time>2018-01-29T08:47:34Z</time>
      </trkpt>
      <trkpt lat="48.08061" lon="7.04789">
        <ele>1284</ele>
        <time>2018-01-29T08:47:37Z</time>
      </trkpt>
      <trkpt lat="48.08066" lon="7.04803">
        <ele>1282</ele>
        <time>2018-01-29T08:47:45Z</time>
      </trkpt>
      <trkpt lat="48.08065" lon="7.0481">
        <ele>1281</ele>
        <time>2018-01-29T08:47:50Z</time>
      </trkpt>
      <trkpt lat="48.08063" lon="7.04823">
        <ele>1279</ele>
        <time>2018-01-29T08:47:59Z</time>
      </trkpt>
      <trkpt lat="48.08065" lon="7.0483">
        <ele>1278</ele>
        <time>2018-01-29T08:48:05Z</time>
      </trkpt>
      <trkpt lat="48.08064" lon="7.04836">
        <ele>1277</ele>
        <time>2018-01-29T08:48:09Z</time>
      </trkpt>
      <trkpt lat="48.08068" lon="7.04849">
        <ele>1274</ele>
        <time>2018-01-29T08:48:16Z</time>
      </trkpt>
      <trkpt lat="48.08071" lon="7.04855">
        <ele>1274</ele>
        <time>2018-01-29T08:48:19Z</time>
      </trkpt>
      <trkpt lat="48.08074" lon="7.04861">
        <ele>1275</ele>
        <time>2018-01-29T08:48:23Z</time>
      </trkpt>
      <trkpt lat="48.08078" lon="7.04873">
        <ele>1274</ele>
        <time>2018-01-29T08:48:29Z</time>
      </trkpt>
      <trkpt lat="48.08088" lon="7.04888">
        <ele>1273</ele>
        <time>2018-01-29T08:48:40Z</time>
      </trkpt>
      <trkpt lat="48.08089" lon="7.04894">
        <ele>1275</ele>
        <time>2018-01-29T08:48:44Z</time>
      </trkpt>
      <trkpt lat="48.08115" lon="7.04941">
        <ele>1269</ele>
        <time>2018-01-29T08:49:16Z</time>
      </trkpt>
      <trkpt lat="48.08116" lon="7.04948">
        <ele>1268</ele>
        <time>2018-01-29T08:49:20Z</time>
      </trkpt>
      <trkpt lat="48.08123" lon="7.04959">
        <ele>1267</ele>
        <time>2018-01-29T08:49:28Z</time>
      </trkpt>
      <trkpt lat="48.08144" lon="7.04989">
        <ele>1267</ele>
        <time>2018-01-29T08:49:52Z</time>
      </trkpt>
      <trkpt lat="48.08148" lon="7.04994">
        <ele>1266</ele>
        <time>2018-01-29T08:49:56Z</time>
      </trkpt>
      <trkpt lat="48.08152" lon="7.05">
        <ele>1266</ele>
        <time>2018-01-29T08:50:00Z</time>
      </trkpt>
      <trkpt lat="48.08175" lon="7.05027">
        <ele>1265</ele>
        <time>2018-01-29T08:50:26Z</time>
      </trkpt>
      <trkpt lat="48.0818" lon="7.05029">
        <ele>1265</ele>
        <time>2018-01-29T08:50:29Z</time>
      </trkpt>
      <trkpt lat="48.08184" lon="7.05032">
        <ele>1265</ele>
        <time>2018-01-29T08:50:33Z</time>
      </trkpt>
      <trkpt lat="48.08186" lon="7.05038">
        <ele>1266</ele>
        <time>2018-01-29T08:51:02Z</time>
      </trkpt>
      <trkpt lat="48.0819" lon="7.05042">
        <ele>1266</ele>
        <time>2018-01-29T08:51:06Z</time>
      </trkpt>
      <trkpt lat="48.08191" lon="7.05049">
        <ele>1266</ele>
        <time>2018-01-29T08:51:10Z</time>
      </trkpt>
      <trkpt lat="48.08193" lon="7.05054">
        <ele>1266</ele>
        <time>2018-01-29T08:51:15Z</time>
      </trkpt>
      <trkpt lat="48.08221" lon="7.05096">
        <ele>1268</ele>
        <time>2018-01-29T08:51:47Z</time>
      </trkpt>
      <trkpt lat="48.08229" lon="7.05113">
        <ele>1268</ele>
        <time>2018-01-29T08:52:04Z</time>
      </trkpt>
      <trkpt lat="48.08234" lon="7.05132">
        <ele>1269</ele>
        <time>2018-01-29T08:52:20Z</time>
      </trkpt>
      <trkpt lat="48.08229" lon="7.05135">
        <ele>1269</ele>
        <time>2018-01-29T08:52:24Z</time>
      </trkpt>
      <trkpt lat="48.08226" lon="7.0514">
        <ele>1269</ele>
        <time>2018-01-29T08:52:28Z</time>
      </trkpt>
      <trkpt lat="48.08226" lon="7.05147">
        <ele>1269</ele>
        <time>2018-01-29T08:52:35Z</time>
      </trkpt>
      <trkpt lat="48.08235" lon="7.05152">
        <ele>1269</ele>
        <time>2018-01-29T08:52:46Z</time>
      </trkpt>
      <trkpt lat="48.08235" lon="7.05158">
        <ele>1268</ele>
        <time>2018-01-29T08:52:52Z</time>
      </trkpt>
      <trkpt lat="48.08239" lon="7.05163">
        <ele>1269</ele>
        <time>2018-01-29T08:52:57Z</time>
      </trkpt>
      <trkpt lat="48.08246" lon="7.05171">
        <ele>1271</ele>
        <time>2018-01-29T08:53:10Z</time>
      </trkpt>
      <trkpt lat="48.08251" lon="7.05171">
        <ele>1272</ele>
        <time>2018-01-29T08:53:17Z</time>
      </trkpt>
      <trkpt lat="48.08263" lon="7.05181">
        <ele>1275</ele>
        <time>2018-01-29T08:53:33Z</time>
      </trkpt>
      <trkpt lat="48.08266" lon="7.05186">
        <ele>1275</ele>
        <time>2018-01-29T08:53:39Z</time>
      </trkpt>
      <trkpt lat="48.08288" lon="7.05187">
        <ele>1277</ele>
        <time>2018-01-29T08:54:16Z</time>
      </trkpt>
      <trkpt lat="48.08291" lon="7.05182">
        <ele>1284</ele>
        <time>2018-01-29T08:54:24Z</time>
      </trkpt>
      <trkpt lat="48.08301" lon="7.05183">
        <ele>1287</ele>
        <time>2018-01-29T08:54:38Z</time>
      </trkpt>
      <trkpt lat="48.08305" lon="7.05184">
        <ele>1287</ele>
        <time>2018-01-29T08:54:44Z</time>
      </trkpt>
      <trkpt lat="48.08309" lon="7.05182">
        <ele>1287</ele>
        <time>2018-01-29T08:54:50Z</time>
      </trkpt>
      <trkpt lat="48.08314" lon="7.05183">
        <ele>1288</ele>
        <time>2018-01-29T08:54:55Z</time>
      </trkpt>
      <trkpt lat="48.08321" lon="7.05191">
        <ele>1290</ele>
        <time>2018-01-29T08:55:10Z</time>
      </trkpt>
      <trkpt lat="48.08323" lon="7.05197">
        <ele>1290</ele>
        <time>2018-01-29T08:55:15Z</time>
      </trkpt>
      <trkpt lat="48.0832" lon="7.05202">
        <ele>1289</ele>
        <time>2018-01-29T08:55:22Z</time>
      </trkpt>
      <trkpt lat="48.08317" lon="7.05215">
        <ele>1287</ele>
        <time>2018-01-29T08:55:32Z</time>
      </trkpt>
      <trkpt lat="48.08318" lon="7.05221">
        <ele>1286</ele>
        <time>2018-01-29T08:55:37Z</time>
      </trkpt>
      <trkpt lat="48.08319" lon="7.05228">
        <ele>1285</ele>
        <time>2018-01-29T08:55:42Z</time>
      </trkpt>
      <trkpt lat="48.08324" lon="7.05231">
        <ele>1285</ele>
        <time>2018-01-29T08:55:45Z</time>
      </trkpt>
      <trkpt lat="48.08328" lon="7.0523">
        <ele>1285</ele>
        <time>2018-01-29T08:55:49Z</time>
      </trkpt>
      <trkpt lat="48.08332" lon="7.05231">
        <ele>1287</ele>
        <time>2018-01-29T08:55:54Z</time>
      </trkpt>
      <trkpt lat="48.08336" lon="7.0523">
        <ele>1287</ele>
        <time>2018-01-29T08:56:06Z</time>
      </trkpt>
      <trkpt lat="48.08341" lon="7.05232">
        <ele>1290</ele>
        <time>2018-01-29T08:56:46Z</time>
      </trkpt>
      <trkpt lat="48.0835" lon="7.05232">
        <ele>1291</ele>
        <time>2018-01-29T08:56:57Z</time>
      </trkpt>
      <trkpt lat="48.08353" lon="7.05226">
        <ele>1293</ele>
        <time>2018-01-29T08:57:07Z</time>
      </trkpt>
      <trkpt lat="48.0835" lon="7.05222">
        <ele>1293</ele>
        <time>2018-01-29T08:57:11Z</time>
      </trkpt>
      <trkpt lat="48.08351" lon="7.05216">
        <ele>1293</ele>
        <time>2018-01-29T08:57:25Z</time>
      </trkpt>
      <trkpt lat="48.08353" lon="7.05217">
        <ele>1293</ele>
        <time>2018-01-29T08:59:05Z</time>
      </trkpt>
      <trkpt lat="48.08354" lon="7.05224">
        <ele>1293</ele>
        <time>2018-01-29T08:59:15Z</time>
      </trkpt>
      <trkpt lat="48.08358" lon="7.05226">
        <ele>1292</ele>
        <time>2018-01-29T08:59:18Z</time>
      </trkpt>
      <trkpt lat="48.08363" lon="7.05228">
        <ele>1292</ele>
        <time>2018-01-29T08:59:23Z</time>
      </trkpt>
      <trkpt lat="48.08373" lon="7.05232">
        <ele>1294</ele>
        <time>2018-01-29T08:59:33Z</time>
      </trkpt>
      <trkpt lat="48.08375" lon="7.05231">
        <ele>1294</ele>
        <time>2018-01-29T08:59:55Z</time>
      </trkpt>
      <trkpt lat="48.08388" lon="7.05226">
        <ele>1294</ele>
        <time>2018-01-29T09:00:07Z</time>
      </trkpt>
      <trkpt lat="48.08393" lon="7.05221">
        <ele>1294</ele>
        <time>2018-01-29T09:00:12Z</time>
      </trkpt>
      <trkpt lat="48.08407" lon="7.05217">
        <ele>1294</ele>
        <time>2018-01-29T09:00:23Z</time>
      </trkpt>
      <trkpt lat="48.08411" lon="7.05217">
        <ele>1294</ele>
        <time>2018-01-29T09:00:27Z</time>
      </trkpt>
      <trkpt lat="48.08416" lon="7.05216">
        <ele>1294</ele>
        <time>2018-01-29T09:00:31Z</time>
      </trkpt>
      <trkpt lat="48.0842" lon="7.05221">
        <ele>1293</ele>
        <time>2018-01-29T09:00:35Z</time>
      </trkpt>
      <trkpt lat="48.08424" lon="7.0522">
        <ele>1292</ele>
        <time>2018-01-29T09:00:39Z</time>
      </trkpt>
      <trkpt lat="48.08452" lon="7.05231">
        <ele>1293</ele>
        <time>2018-01-29T09:01:02Z</time>
      </trkpt>
      <trkpt lat="48.0846" lon="7.05239">
        <ele>1292</ele>
        <time>2018-01-29T09:01:11Z</time>
      </trkpt>
      <trkpt lat="48.08469" lon="7.05235">
        <ele>1290</ele>
        <time>2018-01-29T09:01:20Z</time>
      </trkpt>
      <trkpt lat="48.08473" lon="7.05238">
        <ele>1290</ele>
        <time>2018-01-29T09:01:25Z</time>
      </trkpt>
      <trkpt lat="48.08475" lon="7.05243">
        <ele>1288</ele>
        <time>2018-01-29T09:01:31Z</time>
      </trkpt>
      <trkpt lat="48.0848" lon="7.05246">
        <ele>1286</ele>
        <time>2018-01-29T09:01:41Z</time>
      </trkpt>
      <trkpt lat="48.08484" lon="7.0524">
        <ele>1285</ele>
        <time>2018-01-29T09:01:45Z</time>
      </trkpt>
      <trkpt lat="48.08489" lon="7.05239">
        <ele>1284</ele>
        <time>2018-01-29T09:01:49Z</time>
      </trkpt>
      <trkpt lat="48.08493" lon="7.05237">
        <ele>1282</ele>
        <time>2018-01-29T09:01:53Z</time>
      </trkpt>
      <trkpt lat="48.08497" lon="7.05233">
        <ele>1281</ele>
        <time>2018-01-29T09:01:58Z</time>
      </trkpt>
      <trkpt lat="48.08507" lon="7.05228">
        <ele>1277</ele>
        <time>2018-01-29T09:02:07Z</time>
      </trkpt>
      <trkpt lat="48.08516" lon="7.05223">
        <ele>1273</ele>
        <time>2018-01-29T09:02:17Z</time>
      </trkpt>
      <trkpt lat="48.08529" lon="7.05226">
        <ele>1272</ele>
        <time>2018-01-29T09:02:29Z</time>
      </trkpt>
      <trkpt lat="48.08537" lon="7.05221">
        <ele>1268</ele>
        <time>2018-01-29T09:02:41Z</time>
      </trkpt>
      <trkpt lat="48.08542" lon="7.05209">
        <ele>1265</ele>
        <time>2018-01-29T09:02:49Z</time>
      </trkpt>
      <trkpt lat="48.08557" lon="7.05207">
        <ele>1262</ele>
        <time>2018-01-29T09:03:01Z</time>
      </trkpt>
      <trkpt lat="48.08565" lon="7.05203">
        <ele>1264</ele>
        <time>2018-01-29T09:03:10Z</time>
      </trkpt>
      <trkpt lat="48.08566" lon="7.05195">
        <ele>1263</ele>
        <time>2018-01-29T09:03:14Z</time>
      </trkpt>
      <trkpt lat="48.08565" lon="7.05189">
        <ele>1262</ele>
        <time>2018-01-29T09:03:17Z</time>
      </trkpt>
      <trkpt lat="48.08568" lon="7.05182">
        <ele>1262</ele>
        <time>2018-01-29T09:03:21Z</time>
      </trkpt>
      <trkpt lat="48.08567" lon="7.05161">
        <ele>1263</ele>
        <time>2018-01-29T09:03:32Z</time>
      </trkpt>
      <trkpt lat="48.08564" lon="7.05149">
        <ele>1262</ele>
        <time>2018-01-29T09:03:41Z</time>
      </trkpt>
      <trkpt lat="48.08568" lon="7.05136">
        <ele>1260</ele>
        <time>2018-01-29T09:03:49Z</time>
      </trkpt>
      <trkpt lat="48.0857" lon="7.0513">
        <ele>1260</ele>
        <time>2018-01-29T09:03:53Z</time>
      </trkpt>
      <trkpt lat="48.08574" lon="7.05129">
        <ele>1257</ele>
        <time>2018-01-29T09:03:59Z</time>
      </trkpt>
      <trkpt lat="48.08584" lon="7.05121">
        <ele>1255</ele>
        <time>2018-01-29T09:04:13Z</time>
      </trkpt>
      <trkpt lat="48.08587" lon="7.05115">
        <ele>1253</ele>
        <time>2018-01-29T09:04:18Z</time>
      </trkpt>
      <trkpt lat="48.08579" lon="7.05051">
        <ele>1251</ele>
        <time>2018-01-29T09:04:56Z</time>
      </trkpt>
      <trkpt lat="48.08573" lon="7.05038">
        <ele>1248</ele>
        <time>2018-01-29T09:05:01Z</time>
      </trkpt>
      <trkpt lat="48.08572" lon="7.0503">
        <ele>1245</ele>
        <time>2018-01-29T09:05:07Z</time>
      </trkpt>
      <trkpt lat="48.08574" lon="7.05022">
        <ele>1244</ele>
        <time>2018-01-29T09:05:12Z</time>
      </trkpt>
      <trkpt lat="48.08581" lon="7.05013">
        <ele>1242</ele>
        <time>2018-01-29T09:05:21Z</time>
      </trkpt>
      <trkpt lat="48.08588" lon="7.05005">
        <ele>1241</ele>
        <time>2018-01-29T09:05:28Z</time>
      </trkpt>
      <trkpt lat="48.0859" lon="7.04995">
        <ele>1242</ele>
        <time>2018-01-29T09:05:32Z</time>
      </trkpt>
      <trkpt lat="48.08596" lon="7.0499">
        <ele>1239</ele>
        <time>2018-01-29T09:05:38Z</time>
      </trkpt>
      <trkpt lat="48.08595" lon="7.04979">
        <ele>1239</ele>
        <time>2018-01-29T09:05:43Z</time>
      </trkpt>
      <trkpt lat="48.08599" lon="7.04972">
        <ele>1236</ele>
        <time>2018-01-29T09:05:50Z</time>
      </trkpt>
      <trkpt lat="48.08596" lon="7.04959">
        <ele>1235</ele>
        <time>2018-01-29T09:05:55Z</time>
      </trkpt>
      <trkpt lat="48.08594" lon="7.04947">
        <ele>1233</ele>
        <time>2018-01-29T09:06:04Z</time>
      </trkpt>
      <trkpt lat="48.0859" lon="7.04938">
        <ele>1231</ele>
        <time>2018-01-29T09:06:09Z</time>
      </trkpt>
      <trkpt lat="48.08591" lon="7.04925">
        <ele>1229</ele>
        <time>2018-01-29T09:06:17Z</time>
      </trkpt>
      <trkpt lat="48.08595" lon="7.049">
        <ele>1229</ele>
        <time>2018-01-29T09:06:35Z</time>
      </trkpt>
      <trkpt lat="48.08593" lon="7.0489">
        <ele>1230</ele>
        <time>2018-01-29T09:06:45Z</time>
      </trkpt>
      <trkpt lat="48.08596" lon="7.0488">
        <ele>1231</ele>
        <time>2018-01-29T09:06:53Z</time>
      </trkpt>
      <trkpt lat="48.08599" lon="7.04865">
        <ele>1227</ele>
        <time>2018-01-29T09:07:04Z</time>
      </trkpt>
      <trkpt lat="48.08603" lon="7.04855">
        <ele>1228</ele>
        <time>2018-01-29T09:07:10Z</time>
      </trkpt>
      <trkpt lat="48.08604" lon="7.04846">
        <ele>1230</ele>
        <time>2018-01-29T09:07:14Z</time>
      </trkpt>
      <trkpt lat="48.08606" lon="7.04838">
        <ele>1230</ele>
        <time>2018-01-29T09:07:18Z</time>
      </trkpt>
      <trkpt lat="48.08607" lon="7.04831">
        <ele>1232</ele>
        <time>2018-01-29T09:07:22Z</time>
      </trkpt>
      <trkpt lat="48.08602" lon="7.04826">
        <ele>1231</ele>
        <time>2018-01-29T09:07:33Z</time>
      </trkpt>
      <trkpt lat="48.086" lon="7.04817">
        <ele>1228</ele>
        <time>2018-01-29T09:07:40Z</time>
      </trkpt>
      <trkpt lat="48.08602" lon="7.04807">
        <ele>1226</ele>
        <time>2018-01-29T09:07:46Z</time>
      </trkpt>
      <trkpt lat="48.086" lon="7.04799">
        <ele>1226</ele>
        <time>2018-01-29T09:07:52Z</time>
      </trkpt>
      <trkpt lat="48.08599" lon="7.0479">
        <ele>1223</ele>
        <time>2018-01-29T09:07:56Z</time>
      </trkpt>
      <trkpt lat="48.08595" lon="7.04779">
        <ele>1222</ele>
        <time>2018-01-29T09:08:08Z</time>
      </trkpt>
      <trkpt lat="48.08598" lon="7.04774">
        <ele>1217</ele>
        <time>2018-01-29T09:08:29Z</time>
      </trkpt>
      <trkpt lat="48.08594" lon="7.04772">
        <ele>1217</ele>
        <time>2018-01-29T09:09:04Z</time>
      </trkpt>
      <trkpt lat="48.0859" lon="7.04765">
        <ele>1217</ele>
        <time>2018-01-29T09:09:11Z</time>
      </trkpt>
      <trkpt lat="48.08591" lon="7.04735">
        <ele>1215</ele>
        <time>2018-01-29T09:09:56Z</time>
      </trkpt>
      <trkpt lat="48.08591" lon="7.04727">
        <ele>1213</ele>
        <time>2018-01-29T09:10:00Z</time>
      </trkpt>
      <trkpt lat="48.08592" lon="7.0472">
        <ele>1214</ele>
        <time>2018-01-29T09:10:05Z</time>
      </trkpt>
      <trkpt lat="48.08592" lon="7.04714">
        <ele>1214</ele>
        <time>2018-01-29T09:10:09Z</time>
      </trkpt>
      <trkpt lat="48.08589" lon="7.04709">
        <ele>1214</ele>
        <time>2018-01-29T09:10:14Z</time>
      </trkpt>
      <trkpt lat="48.08573" lon="7.04695">
        <ele>1211</ele>
        <time>2018-01-29T09:10:28Z</time>
      </trkpt>
      <trkpt lat="48.08568" lon="7.04695">
        <ele>1211</ele>
        <time>2018-01-29T09:10:31Z</time>
      </trkpt>
      <trkpt lat="48.08567" lon="7.04687">
        <ele>1211</ele>
        <time>2018-01-29T09:10:42Z</time>
      </trkpt>
      <trkpt lat="48.08563" lon="7.04681">
        <ele>1211</ele>
        <time>2018-01-29T09:10:47Z</time>
      </trkpt>
      <trkpt lat="48.08559" lon="7.04678">
        <ele>1210</ele>
        <time>2018-01-29T09:10:51Z</time>
      </trkpt>
      <trkpt lat="48.08556" lon="7.04672">
        <ele>1209</ele>
        <time>2018-01-29T09:10:54Z</time>
      </trkpt>
      <trkpt lat="48.08555" lon="7.04665">
        <ele>1208</ele>
        <time>2018-01-29T09:10:57Z</time>
      </trkpt>
      <trkpt lat="48.08552" lon="7.04661">
        <ele>1209</ele>
        <time>2018-01-29T09:11:00Z</time>
      </trkpt>
      <trkpt lat="48.08545" lon="7.04655">
        <ele>1210</ele>
        <time>2018-01-29T09:11:06Z</time>
      </trkpt>
      <trkpt lat="48.08541" lon="7.0465">
        <ele>1209</ele>
        <time>2018-01-29T09:11:10Z</time>
      </trkpt>
      <trkpt lat="48.08535" lon="7.04643">
        <ele>1208</ele>
        <time>2018-01-29T09:11:16Z</time>
      </trkpt>
      <trkpt lat="48.08531" lon="7.04638">
        <ele>1208</ele>
        <time>2018-01-29T09:11:20Z</time>
      </trkpt>
      <trkpt lat="48.08505" lon="7.04612">
        <ele>1204</ele>
        <time>2018-01-29T09:11:50Z</time>
      </trkpt>
      <trkpt lat="48.08501" lon="7.04607">
        <ele>1204</ele>
        <time>2018-01-29T09:11:54Z</time>
      </trkpt>
      <trkpt lat="48.08497" lon="7.04606">
        <ele>1205</ele>
        <time>2018-01-29T09:11:57Z</time>
      </trkpt>
      <trkpt lat="48.08478" lon="7.04577">
        <ele>1204</ele>
        <time>2018-01-29T09:12:20Z</time>
      </trkpt>
      <trkpt lat="48.08474" lon="7.04573">
        <ele>1204</ele>
        <time>2018-01-29T09:12:24Z</time>
      </trkpt>
      <trkpt lat="48.08471" lon="7.04568">
        <ele>1203</ele>
        <time>2018-01-29T09:12:29Z</time>
      </trkpt>
      <trkpt lat="48.08466" lon="7.04568">
        <ele>1202</ele>
        <time>2018-01-29T09:12:35Z</time>
      </trkpt>
      <trkpt lat="48.08463" lon="7.04563">
        <ele>1202</ele>
        <time>2018-01-29T09:12:39Z</time>
      </trkpt>
      <trkpt lat="48.08458" lon="7.0456">
        <ele>1201</ele>
        <time>2018-01-29T09:12:43Z</time>
      </trkpt>
      <trkpt lat="48.08455" lon="7.04556">
        <ele>1201</ele>
        <time>2018-01-29T09:12:47Z</time>
      </trkpt>
      <trkpt lat="48.08451" lon="7.04551">
        <ele>1203</ele>
        <time>2018-01-29T09:12:54Z</time>
      </trkpt>
      <trkpt lat="48.08444" lon="7.04534">
        <ele>1206</ele>
        <time>2018-01-29T09:13:08Z</time>
      </trkpt>
      <trkpt lat="48.08438" lon="7.04525">
        <ele>1206</ele>
        <time>2018-01-29T09:13:15Z</time>
      </trkpt>
      <trkpt lat="48.08434" lon="7.04523">
        <ele>1206</ele>
        <time>2018-01-29T09:13:18Z</time>
      </trkpt>
      <trkpt lat="48.0843" lon="7.04519">
        <ele>1205</ele>
        <time>2018-01-29T09:13:22Z</time>
      </trkpt>
      <trkpt lat="48.08428" lon="7.04514">
        <ele>1204</ele>
        <time>2018-01-29T09:13:26Z</time>
      </trkpt>
      <trkpt lat="48.08421" lon="7.04506">
        <ele>1202</ele>
        <time>2018-01-29T09:13:37Z</time>
      </trkpt>
      <trkpt lat="48.08416" lon="7.04506">
        <ele>1202</ele>
        <time>2018-01-29T09:13:41Z</time>
      </trkpt>
      <trkpt lat="48.08413" lon="7.045">
        <ele>1204</ele>
        <time>2018-01-29T09:13:47Z</time>
      </trkpt>
      <trkpt lat="48.08403" lon="7.04487">
        <ele>1207</ele>
        <time>2018-01-29T09:14:01Z</time>
      </trkpt>
      <trkpt lat="48.08398" lon="7.04483">
        <ele>1207</ele>
        <time>2018-01-29T09:14:05Z</time>
      </trkpt>
      <trkpt lat="48.08393" lon="7.04473">
        <ele>1207</ele>
        <time>2018-01-29T09:14:14Z</time>
      </trkpt>
      <trkpt lat="48.08386" lon="7.04464">
        <ele>1207</ele>
        <time>2018-01-29T09:14:26Z</time>
      </trkpt>
      <trkpt lat="48.08398" lon="7.04421">
        <ele>1205</ele>
        <time>2018-01-29T09:14:57Z</time>
      </trkpt>
      <trkpt lat="48.08394" lon="7.04415">
        <ele>1193</ele>
        <time>2018-01-29T09:15:01Z</time>
      </trkpt>
      <trkpt lat="48.08394" lon="7.04409">
        <ele>1195</ele>
        <time>2018-01-29T09:15:09Z</time>
      </trkpt>
      <trkpt lat="48.08393" lon="7.04396">
        <ele>1197</ele>
        <time>2018-01-29T09:15:17Z</time>
      </trkpt>
      <trkpt lat="48.08391" lon="7.0439">
        <ele>1198</ele>
        <time>2018-01-29T09:15:21Z</time>
      </trkpt>
      <trkpt lat="48.08393" lon="7.04381">
        <ele>1197</ele>
        <time>2018-01-29T09:15:29Z</time>
      </trkpt>
      <trkpt lat="48.08391" lon="7.04373">
        <ele>1192</ele>
        <time>2018-01-29T09:15:35Z</time>
      </trkpt>
      <trkpt lat="48.08387" lon="7.04353">
        <ele>1194</ele>
        <time>2018-01-29T09:15:46Z</time>
      </trkpt>
      <trkpt lat="48.08382" lon="7.04346">
        <ele>1196</ele>
        <time>2018-01-29T09:15:52Z</time>
      </trkpt>
      <trkpt lat="48.0838" lon="7.04334">
        <ele>1196</ele>
        <time>2018-01-29T09:16:00Z</time>
      </trkpt>
      <trkpt lat="48.08379" lon="7.04325">
        <ele>1196</ele>
        <time>2018-01-29T09:16:06Z</time>
      </trkpt>
      <trkpt lat="48.08372" lon="7.04311">
        <ele>1196</ele>
        <time>2018-01-29T09:16:15Z</time>
      </trkpt>
      <trkpt lat="48.08371" lon="7.04301">
        <ele>1196</ele>
        <time>2018-01-29T09:16:20Z</time>
      </trkpt>
      <trkpt lat="48.08372" lon="7.04289">
        <ele>1195</ele>
        <time>2018-01-29T09:16:28Z</time>
      </trkpt>
      <trkpt lat="48.0837" lon="7.04281">
        <ele>1196</ele>
        <time>2018-01-29T09:16:32Z</time>
      </trkpt>
      <trkpt lat="48.08367" lon="7.04272">
        <ele>1198</ele>
        <time>2018-01-29T09:16:38Z</time>
      </trkpt>
      <trkpt lat="48.08364" lon="7.04265">
        <ele>1197</ele>
        <time>2018-01-29T09:16:41Z</time>
      </trkpt>
      <trkpt lat="48.08361" lon="7.04259">
        <ele>1196</ele>
        <time>2018-01-29T09:16:45Z</time>
      </trkpt>
      <trkpt lat="48.08361" lon="7.04251">
        <ele>1198</ele>
        <time>2018-01-29T09:16:50Z</time>
      </trkpt>
      <trkpt lat="48.08363" lon="7.04244">
        <ele>1198</ele>
        <time>2018-01-29T09:16:55Z</time>
      </trkpt>
      <trkpt lat="48.08362" lon="7.04235">
        <ele>1198</ele>
        <time>2018-01-29T09:16:59Z</time>
      </trkpt>
      <trkpt lat="48.08361" lon="7.04212">
        <ele>1188</ele>
        <time>2018-01-29T09:17:16Z</time>
      </trkpt>
      <trkpt lat="48.08355" lon="7.04192">
        <ele>1179</ele>
        <time>2018-01-29T09:17:25Z</time>
      </trkpt>
      <trkpt lat="48.08353" lon="7.04184">
        <ele>1180</ele>
        <time>2018-01-29T09:17:30Z</time>
      </trkpt>
      <trkpt lat="48.08352" lon="7.04177">
        <ele>1182</ele>
        <time>2018-01-29T09:17:33Z</time>
      </trkpt>
      <trkpt lat="48.08354" lon="7.04167">
        <ele>1184</ele>
        <time>2018-01-29T09:18:00Z</time>
      </trkpt>
      <trkpt lat="48.08356" lon="7.04147">
        <ele>1183</ele>
        <time>2018-01-29T09:18:12Z</time>
      </trkpt>
      <trkpt lat="48.08354" lon="7.04135">
        <ele>1184</ele>
        <time>2018-01-29T09:18:20Z</time>
      </trkpt>
      <trkpt lat="48.08348" lon="7.04123">
        <ele>1183</ele>
        <time>2018-01-29T09:18:27Z</time>
      </trkpt>
      <trkpt lat="48.08346" lon="7.04113">
        <ele>1183</ele>
        <time>2018-01-29T09:18:35Z</time>
      </trkpt>
      <trkpt lat="48.08345" lon="7.04103">
        <ele>1184</ele>
        <time>2018-01-29T09:18:43Z</time>
      </trkpt>
      <trkpt lat="48.08338" lon="7.04068">
        <ele>1188</ele>
        <time>2018-01-29T09:19:05Z</time>
      </trkpt>
      <trkpt lat="48.08335" lon="7.04058">
        <ele>1190</ele>
        <time>2018-01-29T09:19:11Z</time>
      </trkpt>
      <trkpt lat="48.08336" lon="7.04047">
        <ele>1191</ele>
        <time>2018-01-29T09:19:19Z</time>
      </trkpt>
      <trkpt lat="48.08322" lon="7.03989">
        <ele>1192</ele>
        <time>2018-01-29T09:19:58Z</time>
      </trkpt>
      <trkpt lat="48.08317" lon="7.04004">
        <ele>1190</ele>
        <time>2018-01-29T09:20:01Z</time>
      </trkpt>
      <trkpt lat="48.08307" lon="7.03985">
        <ele>1186</ele>
        <time>2018-01-29T09:20:40Z</time>
      </trkpt>
      <trkpt lat="48.08303" lon="7.03977">
        <ele>1186</ele>
        <time>2018-01-29T09:20:47Z</time>
      </trkpt>
      <trkpt lat="48.083" lon="7.03967">
        <ele>1186</ele>
        <time>2018-01-29T09:21:01Z</time>
      </trkpt>
      <trkpt lat="48.08291" lon="7.03962">
        <ele>1189</ele>
        <time>2018-01-29T09:21:11Z</time>
      </trkpt>
      <trkpt lat="48.08289" lon="7.0395">
        <ele>1190</ele>
        <time>2018-01-29T09:21:21Z</time>
      </trkpt>
      <trkpt lat="48.08288" lon="7.03936">
        <ele>1185</ele>
        <time>2018-01-29T09:21:36Z</time>
      </trkpt>
      <trkpt lat="48.08284" lon="7.03926">
        <ele>1187</ele>
        <time>2018-01-29T09:21:42Z</time>
      </trkpt>
      <trkpt lat="48.08278" lon="7.03927">
        <ele>1191</ele>
        <time>2018-01-29T09:21:56Z</time>
      </trkpt>
      <trkpt lat="48.08276" lon="7.03917">
        <ele>1193</ele>
        <time>2018-01-29T09:22:04Z</time>
      </trkpt>
      <trkpt lat="48.08273" lon="7.03913">
        <ele>1195</ele>
        <time>2018-01-29T09:22:08Z</time>
      </trkpt>
      <trkpt lat="48.08272" lon="7.03907">
        <ele>1196</ele>
        <time>2018-01-29T09:22:12Z</time>
      </trkpt>
      <trkpt lat="48.08267" lon="7.03906">
        <ele>1200</ele>
        <time>2018-01-29T09:23:37Z</time>
      </trkpt>
      <trkpt lat="48.08252" lon="7.03893">
        <ele>1201</ele>
        <time>2018-01-29T09:24:59Z</time>
      </trkpt>
      <trkpt lat="48.08249" lon="7.03886">
        <ele>1205</ele>
        <time>2018-01-29T09:25:02Z</time>
      </trkpt>
      <trkpt lat="48.08247" lon="7.03881">
        <ele>1203</ele>
        <time>2018-01-29T09:25:10Z</time>
      </trkpt>
      <trkpt lat="48.08245" lon="7.03875">
        <ele>1201</ele>
        <time>2018-01-29T09:25:14Z</time>
      </trkpt>
      <trkpt lat="48.08246" lon="7.03856">
        <ele>1201</ele>
        <time>2018-01-29T09:25:24Z</time>
      </trkpt>
      <trkpt lat="48.08244" lon="7.03847">
        <ele>1204</ele>
        <time>2018-01-29T09:25:30Z</time>
      </trkpt>
      <trkpt lat="48.08246" lon="7.03841">
        <ele>1205</ele>
        <time>2018-01-29T09:25:33Z</time>
      </trkpt>
      <trkpt lat="48.08249" lon="7.03833">
        <ele>1203</ele>
        <time>2018-01-29T09:25:38Z</time>
      </trkpt>
      <trkpt lat="48.08254" lon="7.03792">
        <ele>1201</ele>
        <time>2018-01-29T09:26:00Z</time>
      </trkpt>
      <trkpt lat="48.08259" lon="7.0377">
        <ele>1204</ele>
        <time>2018-01-29T09:26:12Z</time>
      </trkpt>
      <trkpt lat="48.08259" lon="7.03763">
        <ele>1203</ele>
        <time>2018-01-29T09:26:15Z</time>
      </trkpt>
      <trkpt lat="48.0826" lon="7.03754">
        <ele>1201</ele>
        <time>2018-01-29T09:26:19Z</time>
      </trkpt>
      <trkpt lat="48.08253" lon="7.03736">
        <ele>1199</ele>
        <time>2018-01-29T09:26:25Z</time>
      </trkpt>
      <trkpt lat="48.0826" lon="7.03732">
        <ele>1198</ele>
        <time>2018-01-29T09:26:30Z</time>
      </trkpt>
      <trkpt lat="48.08257" lon="7.0372">
        <ele>1200</ele>
        <time>2018-01-29T09:26:35Z</time>
      </trkpt>
      <trkpt lat="48.08259" lon="7.0371">
        <ele>1198</ele>
        <time>2018-01-29T09:26:41Z</time>
      </trkpt>
      <trkpt lat="48.08258" lon="7.03704">
        <ele>1199</ele>
        <time>2018-01-29T09:26:45Z</time>
      </trkpt>
      <trkpt lat="48.08254" lon="7.03685">
        <ele>1201</ele>
        <time>2018-01-29T09:27:00Z</time>
      </trkpt>
      <trkpt lat="48.08254" lon="7.03675">
        <ele>1200</ele>
        <time>2018-01-29T09:27:08Z</time>
      </trkpt>
      <trkpt lat="48.08251" lon="7.03666">
        <ele>1198</ele>
        <time>2018-01-29T09:27:12Z</time>
      </trkpt>
      <trkpt lat="48.08248" lon="7.03656">
        <ele>1198</ele>
        <time>2018-01-29T09:27:15Z</time>
      </trkpt>
      <trkpt lat="48.08248" lon="7.0365">
        <ele>1198</ele>
        <time>2018-01-29T09:27:19Z</time>
      </trkpt>
      <trkpt lat="48.08245" lon="7.03644">
        <ele>1198</ele>
        <time>2018-01-29T09:27:23Z</time>
      </trkpt>
      <trkpt lat="48.08244" lon="7.03638">
        <ele>1198</ele>
        <time>2018-01-29T09:27:28Z</time>
      </trkpt>
      <trkpt lat="48.08242" lon="7.03632">
        <ele>1198</ele>
        <time>2018-01-29T09:27:33Z</time>
      </trkpt>
      <trkpt lat="48.08237" lon="7.03627">
        <ele>1193</ele>
        <time>2018-01-29T09:27:37Z</time>
      </trkpt>
      <trkpt lat="48.08235" lon="7.03619">
        <ele>1192</ele>
        <time>2018-01-29T09:27:42Z</time>
      </trkpt>
      <trkpt lat="48.08233" lon="7.03605">
        <ele>1195</ele>
        <time>2018-01-29T09:27:49Z</time>
      </trkpt>
      <trkpt lat="48.08224" lon="7.03589">
        <ele>1198</ele>
        <time>2018-01-29T09:27:59Z</time>
      </trkpt>
      <trkpt lat="48.0822" lon="7.03587">
        <ele>1198</ele>
        <time>2018-01-29T09:28:05Z</time>
      </trkpt>
      <trkpt lat="48.08212" lon="7.03577">
        <ele>1195</ele>
        <time>2018-01-29T09:28:14Z</time>
      </trkpt>
      <trkpt lat="48.08203" lon="7.03556">
        <ele>1196</ele>
        <time>2018-01-29T09:28:25Z</time>
      </trkpt>
      <trkpt lat="48.082" lon="7.03551">
        <ele>1197</ele>
        <time>2018-01-29T09:28:28Z</time>
      </trkpt>
      <trkpt lat="48.08193" lon="7.03544">
        <ele>1197</ele>
        <time>2018-01-29T09:28:34Z</time>
      </trkpt>
      <trkpt lat="48.08189" lon="7.03537">
        <ele>1198</ele>
        <time>2018-01-29T09:28:38Z</time>
      </trkpt>
      <trkpt lat="48.08185" lon="7.03535">
        <ele>1201</ele>
        <time>2018-01-29T09:28:42Z</time>
      </trkpt>
      <trkpt lat="48.08178" lon="7.0352">
        <ele>1203</ele>
        <time>2018-01-29T09:28:52Z</time>
      </trkpt>
      <trkpt lat="48.08175" lon="7.03514">
        <ele>1200</ele>
        <time>2018-01-29T09:28:56Z</time>
      </trkpt>
      <trkpt lat="48.08167" lon="7.03505">
        <ele>1201</ele>
        <time>2018-01-29T09:29:03Z</time>
      </trkpt>
      <trkpt lat="48.08164" lon="7.03499">
        <ele>1201</ele>
        <time>2018-01-29T09:29:07Z</time>
      </trkpt>
      <trkpt lat="48.08152" lon="7.03479">
        <ele>1202</ele>
        <time>2018-01-29T09:29:22Z</time>
      </trkpt>
      <trkpt lat="48.08101" lon="7.03474">
        <ele>1198</ele>
        <time>2018-01-29T09:29:59Z</time>
      </trkpt>
      <trkpt lat="48.08115" lon="7.03467">
        <ele>1197</ele>
        <time>2018-01-29T09:30:03Z</time>
      </trkpt>
      <trkpt lat="48.08121" lon="7.03464">
        <ele>1199</ele>
        <time>2018-01-29T09:30:06Z</time>
      </trkpt>
      <trkpt lat="48.08119" lon="7.03458">
        <ele>1202</ele>
        <time>2018-01-29T09:30:15Z</time>
      </trkpt>
      <trkpt lat="48.08115" lon="7.03453">
        <ele>1202</ele>
        <time>2018-01-29T09:30:21Z</time>
      </trkpt>
      <trkpt lat="48.08116" lon="7.03447">
        <ele>1201</ele>
        <time>2018-01-29T09:30:25Z</time>
      </trkpt>
      <trkpt lat="48.0811" lon="7.03443">
        <ele>1199</ele>
        <time>2018-01-29T09:30:38Z</time>
      </trkpt>
      <trkpt lat="48.08099" lon="7.03424">
        <ele>1196</ele>
        <time>2018-01-29T09:31:07Z</time>
      </trkpt>
      <trkpt lat="48.08094" lon="7.03418">
        <ele>1193</ele>
        <time>2018-01-29T09:31:18Z</time>
      </trkpt>
      <trkpt lat="48.08091" lon="7.03408">
        <ele>1192</ele>
        <time>2018-01-29T09:31:27Z</time>
      </trkpt>
      <trkpt lat="48.08093" lon="7.034">
        <ele>1196</ele>
        <time>2018-01-29T09:31:38Z</time>
      </trkpt>
      <trkpt lat="48.08093" lon="7.03384">
        <ele>1198</ele>
        <time>2018-01-29T09:32:00Z</time>
      </trkpt>
      <trkpt lat="48.0809" lon="7.03376">
        <ele>1200</ele>
        <time>2018-01-29T09:32:04Z</time>
      </trkpt>
      <trkpt lat="48.08082" lon="7.03361">
        <ele>1202</ele>
        <time>2018-01-29T09:32:14Z</time>
      </trkpt>
      <trkpt lat="48.08079" lon="7.03354">
        <ele>1200</ele>
        <time>2018-01-29T09:32:18Z</time>
      </trkpt>
      <trkpt lat="48.08074" lon="7.03349">
        <ele>1200</ele>
        <time>2018-01-29T09:32:23Z</time>
      </trkpt>
      <trkpt lat="48.0807" lon="7.03342">
        <ele>1200</ele>
        <time>2018-01-29T09:32:27Z</time>
      </trkpt>
      <trkpt lat="48.08066" lon="7.03327">
        <ele>1202</ele>
        <time>2018-01-29T09:32:35Z</time>
      </trkpt>
      <trkpt lat="48.08064" lon="7.0332">
        <ele>1202</ele>
        <time>2018-01-29T09:32:40Z</time>
      </trkpt>
      <trkpt lat="48.08061" lon="7.03315">
        <ele>1202</ele>
        <time>2018-01-29T09:32:44Z</time>
      </trkpt>
      <trkpt lat="48.08057" lon="7.03309">
        <ele>1200</ele>
        <time>2018-01-29T09:32:48Z</time>
      </trkpt>
      <trkpt lat="48.08054" lon="7.03305">
        <ele>1198</ele>
        <time>2018-01-29T09:32:52Z</time>
      </trkpt>
      <trkpt lat="48.0805" lon="7.03284">
        <ele>1192</ele>
        <time>2018-01-29T09:33:05Z</time>
      </trkpt>
      <trkpt lat="48.08047" lon="7.03278">
        <ele>1195</ele>
        <time>2018-01-29T09:33:10Z</time>
      </trkpt>
      <trkpt lat="48.08044" lon="7.03265">
        <ele>1195</ele>
        <time>2018-01-29T09:33:17Z</time>
      </trkpt>
      <trkpt lat="48.08041" lon="7.0326">
        <ele>1195</ele>
        <time>2018-01-29T09:33:22Z</time>
      </trkpt>
      <trkpt lat="48.08039" lon="7.03245">
        <ele>1193</ele>
        <time>2018-01-29T09:33:30Z</time>
      </trkpt>
      <trkpt lat="48.08034" lon="7.03239">
        <ele>1189</ele>
        <time>2018-01-29T09:33:34Z</time>
      </trkpt>
      <trkpt lat="48.08032" lon="7.03234">
        <ele>1187</ele>
        <time>2018-01-29T09:33:38Z</time>
      </trkpt>
      <trkpt lat="48.08031" lon="7.03224">
        <ele>1187</ele>
        <time>2018-01-29T09:33:43Z</time>
      </trkpt>
      <trkpt lat="48.08025" lon="7.03207">
        <ele>1191</ele>
        <time>2018-01-29T09:33:53Z</time>
      </trkpt>
      <trkpt lat="48.08022" lon="7.032">
        <ele>1190</ele>
        <time>2018-01-29T09:33:57Z</time>
      </trkpt>
      <trkpt lat="48.0802" lon="7.03194">
        <ele>1189</ele>
        <time>2018-01-29T09:34:00Z</time>
      </trkpt>
      <trkpt lat="48.08018" lon="7.03188">
        <ele>1189</ele>
        <time>2018-01-29T09:34:04Z</time>
      </trkpt>
      <trkpt lat="48.08015" lon="7.03183">
        <ele>1187</ele>
        <time>2018-01-29T09:34:09Z</time>
      </trkpt>
      <trkpt lat="48.08011" lon="7.03181">
        <ele>1186</ele>
        <time>2018-01-29T09:34:14Z</time>
      </trkpt>
      <trkpt lat="48.08008" lon="7.03176">
        <ele>1188</ele>
        <time>2018-01-29T09:34:18Z</time>
      </trkpt>
      <trkpt lat="48.08005" lon="7.03169">
        <ele>1190</ele>
        <time>2018-01-29T09:34:22Z</time>
      </trkpt>
      <trkpt lat="48.08001" lon="7.03162">
        <ele>1192</ele>
        <time>2018-01-29T09:34:27Z</time>
      </trkpt>
      <trkpt lat="48.07978" lon="7.03136">
        <ele>1175</ele>
        <time>2018-01-29T09:34:59Z</time>
      </trkpt>
      <trkpt lat="48.07972" lon="7.03129">
        <ele>1172</ele>
        <time>2018-01-29T09:35:02Z</time>
      </trkpt>
      <trkpt lat="48.07968" lon="7.03116">
        <ele>1183</ele>
        <time>2018-01-29T09:35:10Z</time>
      </trkpt>
      <trkpt lat="48.07962" lon="7.03107">
        <ele>1191</ele>
        <time>2018-01-29T09:35:20Z</time>
      </trkpt>
      <trkpt lat="48.07959" lon="7.031">
        <ele>1196</ele>
        <time>2018-01-29T09:35:25Z</time>
      </trkpt>
      <trkpt lat="48.07955" lon="7.03095">
        <ele>1197</ele>
        <time>2018-01-29T09:35:29Z</time>
      </trkpt>
      <trkpt lat="48.07951" lon="7.03092">
        <ele>1197</ele>
        <time>2018-01-29T09:35:33Z</time>
      </trkpt>
      <trkpt lat="48.07946" lon="7.03094">
        <ele>1197</ele>
        <time>2018-01-29T09:35:35Z</time>
      </trkpt>
      <trkpt lat="48.07937" lon="7.03088">
        <ele>1198</ele>
        <time>2018-01-29T09:35:44Z</time>
      </trkpt>
      <trkpt lat="48.07931" lon="7.03077">
        <ele>1196</ele>
        <time>2018-01-29T09:35:52Z</time>
      </trkpt>
      <trkpt lat="48.07927" lon="7.03072">
        <ele>1195</ele>
        <time>2018-01-29T09:35:58Z</time>
      </trkpt>
      <trkpt lat="48.07912" lon="7.03062">
        <ele>1197</ele>
        <time>2018-01-29T09:36:16Z</time>
      </trkpt>
      <trkpt lat="48.07906" lon="7.0306">
        <ele>1197</ele>
        <time>2018-01-29T09:36:21Z</time>
      </trkpt>
      <trkpt lat="48.079" lon="7.03056">
        <ele>1197</ele>
        <time>2018-01-29T09:36:27Z</time>
      </trkpt>
      <trkpt lat="48.07892" lon="7.03045">
        <ele>1199</ele>
        <time>2018-01-29T09:36:35Z</time>
      </trkpt>
      <trkpt lat="48.07888" lon="7.03044">
        <ele>1200</ele>
        <time>2018-01-29T09:36:39Z</time>
      </trkpt>
      <trkpt lat="48.07885" lon="7.03038">
        <ele>1198</ele>
        <time>2018-01-29T09:36:43Z</time>
      </trkpt>
      <trkpt lat="48.07881" lon="7.03034">
        <ele>1197</ele>
        <time>2018-01-29T09:36:47Z</time>
      </trkpt>
      <trkpt lat="48.07876" lon="7.03029">
        <ele>1198</ele>
        <time>2018-01-29T09:36:52Z</time>
      </trkpt>
      <trkpt lat="48.07872" lon="7.03025">
        <ele>1199</ele>
        <time>2018-01-29T09:36:56Z</time>
      </trkpt>
      <trkpt lat="48.07867" lon="7.03026">
        <ele>1197</ele>
        <time>2018-01-29T09:37:00Z</time>
      </trkpt>
      <trkpt lat="48.07862" lon="7.0302">
        <ele>1194</ele>
        <time>2018-01-29T09:37:05Z</time>
      </trkpt>
      <trkpt lat="48.07857" lon="7.03015">
        <ele>1191</ele>
        <time>2018-01-29T09:37:09Z</time>
      </trkpt>
      <trkpt lat="48.07852" lon="7.03012">
        <ele>1192</ele>
        <time>2018-01-29T09:37:15Z</time>
      </trkpt>
      <trkpt lat="48.07849" lon="7.03007">
        <ele>1195</ele>
        <time>2018-01-29T09:37:18Z</time>
      </trkpt>
      <trkpt lat="48.07837" lon="7.02999">
        <ele>1193</ele>
        <time>2018-01-29T09:37:29Z</time>
      </trkpt>
      <trkpt lat="48.07834" lon="7.02994">
        <ele>1193</ele>
        <time>2018-01-29T09:37:33Z</time>
      </trkpt>
      <trkpt lat="48.0783" lon="7.02992">
        <ele>1195</ele>
        <time>2018-01-29T09:37:36Z</time>
      </trkpt>
      <trkpt lat="48.07825" lon="7.02992">
        <ele>1194</ele>
        <time>2018-01-29T09:37:39Z</time>
      </trkpt>
      <trkpt lat="48.0782" lon="7.0299">
        <ele>1192</ele>
        <time>2018-01-29T09:37:44Z</time>
      </trkpt>
      <trkpt lat="48.07816" lon="7.02987">
        <ele>1192</ele>
        <time>2018-01-29T09:37:48Z</time>
      </trkpt>
      <trkpt lat="48.07806" lon="7.02982">
        <ele>1191</ele>
        <time>2018-01-29T09:37:57Z</time>
      </trkpt>
      <trkpt lat="48.07796" lon="7.02971">
        <ele>1191</ele>
        <time>2018-01-29T09:38:08Z</time>
      </trkpt>
      <trkpt lat="48.07788" lon="7.02957">
        <ele>1192</ele>
        <time>2018-01-29T09:38:22Z</time>
      </trkpt>
      <trkpt lat="48.0778" lon="7.02953">
        <ele>1190</ele>
        <time>2018-01-29T09:38:29Z</time>
      </trkpt>
      <trkpt lat="48.07772" lon="7.02951">
        <ele>1190</ele>
        <time>2018-01-29T09:38:36Z</time>
      </trkpt>
      <trkpt lat="48.07757" lon="7.02941">
        <ele>1190</ele>
        <time>2018-01-29T09:38:49Z</time>
      </trkpt>
      <trkpt lat="48.07752" lon="7.02938">
        <ele>1193</ele>
        <time>2018-01-29T09:38:53Z</time>
      </trkpt>
      <trkpt lat="48.07748" lon="7.02939">
        <ele>1194</ele>
        <time>2018-01-29T09:39:00Z</time>
      </trkpt>
      <trkpt lat="48.07742" lon="7.02938">
        <ele>1191</ele>
        <time>2018-01-29T09:39:06Z</time>
      </trkpt>
      <trkpt lat="48.07737" lon="7.02934">
        <ele>1187</ele>
        <time>2018-01-29T09:39:14Z</time>
      </trkpt>
      <trkpt lat="48.07734" lon="7.02927">
        <ele>1187</ele>
        <time>2018-01-29T09:39:21Z</time>
      </trkpt>
      <trkpt lat="48.07696" lon="7.02919">
        <ele>1208</ele>
        <time>2018-01-29T09:40:01Z</time>
      </trkpt>
      <trkpt lat="48.07698" lon="7.02905">
        <ele>1215</ele>
        <time>2018-01-29T09:40:05Z</time>
      </trkpt>
      <trkpt lat="48.07685" lon="7.02895">
        <ele>1207</ele>
        <time>2018-01-29T09:40:19Z</time>
      </trkpt>
      <trkpt lat="48.07681" lon="7.0289">
        <ele>1207</ele>
        <time>2018-01-29T09:40:25Z</time>
      </trkpt>
      <trkpt lat="48.07667" lon="7.02883">
        <ele>1197</ele>
        <time>2018-01-29T09:40:59Z</time>
      </trkpt>
      <trkpt lat="48.07658" lon="7.02877">
        <ele>1195</ele>
        <time>2018-01-29T09:41:06Z</time>
      </trkpt>
      <trkpt lat="48.07652" lon="7.02876">
        <ele>1193</ele>
        <time>2018-01-29T09:41:21Z</time>
      </trkpt>
      <trkpt lat="48.0764" lon="7.02881">
        <ele>1193</ele>
        <time>2018-01-29T09:41:31Z</time>
      </trkpt>
      <trkpt lat="48.07628" lon="7.02877">
        <ele>1197</ele>
        <time>2018-01-29T09:41:42Z</time>
      </trkpt>
      <trkpt lat="48.07622" lon="7.02881">
        <ele>1200</ele>
        <time>2018-01-29T09:41:46Z</time>
      </trkpt>
      <trkpt lat="48.07618" lon="7.02879">
        <ele>1202</ele>
        <time>2018-01-29T09:41:52Z</time>
      </trkpt>
      <trkpt lat="48.07614" lon="7.02875">
        <ele>1205</ele>
        <time>2018-01-29T09:41:56Z</time>
      </trkpt>
      <trkpt lat="48.07616" lon="7.02868">
        <ele>1204</ele>
        <time>2018-01-29T09:41:58Z</time>
      </trkpt>
      <trkpt lat="48.07617" lon="7.02862">
        <ele>1201</ele>
        <time>2018-01-29T09:42:01Z</time>
      </trkpt>
      <trkpt lat="48.07614" lon="7.02857">
        <ele>1201</ele>
        <time>2018-01-29T09:42:04Z</time>
      </trkpt>
      <trkpt lat="48.07616" lon="7.0285">
        <ele>1199</ele>
        <time>2018-01-29T09:42:09Z</time>
      </trkpt>
      <trkpt lat="48.07614" lon="7.02835">
        <ele>1194</ele>
        <time>2018-01-29T09:42:23Z</time>
      </trkpt>
      <trkpt lat="48.07611" lon="7.0283">
        <ele>1194</ele>
        <time>2018-01-29T09:42:27Z</time>
      </trkpt>
      <trkpt lat="48.0761" lon="7.02823">
        <ele>1199</ele>
        <time>2018-01-29T09:42:33Z</time>
      </trkpt>
      <trkpt lat="48.07606" lon="7.02817">
        <ele>1200</ele>
        <time>2018-01-29T09:42:38Z</time>
      </trkpt>
      <trkpt lat="48.07603" lon="7.02809">
        <ele>1198</ele>
        <time>2018-01-29T09:42:44Z</time>
      </trkpt>
      <trkpt lat="48.07594" lon="7.02793">
        <ele>1199</ele>
        <time>2018-01-29T09:42:57Z</time>
      </trkpt>
      <trkpt lat="48.07592" lon="7.02787">
        <ele>1200</ele>
        <time>2018-01-29T09:43:00Z</time>
      </trkpt>
      <trkpt lat="48.0759" lon="7.02782">
        <ele>1200</ele>
        <time>2018-01-29T09:43:04Z</time>
      </trkpt>
      <trkpt lat="48.07588" lon="7.02775">
        <ele>1201</ele>
        <time>2018-01-29T09:43:08Z</time>
      </trkpt>
      <trkpt lat="48.07588" lon="7.02768">
        <ele>1200</ele>
        <time>2018-01-29T09:43:11Z</time>
      </trkpt>
      <trkpt lat="48.07586" lon="7.02763">
        <ele>1199</ele>
        <time>2018-01-29T09:43:15Z</time>
      </trkpt>
      <trkpt lat="48.07583" lon="7.02758">
        <ele>1198</ele>
        <time>2018-01-29T09:43:22Z</time>
      </trkpt>
      <trkpt lat="48.07581" lon="7.02751">
        <ele>1198</ele>
        <time>2018-01-29T09:43:26Z</time>
      </trkpt>
      <trkpt lat="48.07577" lon="7.02745">
        <ele>1199</ele>
        <time>2018-01-29T09:43:30Z</time>
      </trkpt>
      <trkpt lat="48.07576" lon="7.02737">
        <ele>1200</ele>
        <time>2018-01-29T09:43:34Z</time>
      </trkpt>
      <trkpt lat="48.07574" lon="7.02729">
        <ele>1198</ele>
        <time>2018-01-29T09:43:39Z</time>
      </trkpt>
      <trkpt lat="48.07573" lon="7.0272">
        <ele>1194</ele>
        <time>2018-01-29T09:43:45Z</time>
      </trkpt>
      <trkpt lat="48.07569" lon="7.02714">
        <ele>1194</ele>
        <time>2018-01-29T09:43:50Z</time>
      </trkpt>
      <trkpt lat="48.07566" lon="7.02706">
        <ele>1191</ele>
        <time>2018-01-29T09:43:56Z</time>
      </trkpt>
      <trkpt lat="48.07563" lon="7.0269">
        <ele>1190</ele>
        <time>2018-01-29T09:44:07Z</time>
      </trkpt>
      <trkpt lat="48.0756" lon="7.02683">
        <ele>1191</ele>
        <time>2018-01-29T09:44:11Z</time>
      </trkpt>
      <trkpt lat="48.07552" lon="7.02652">
        <ele>1191</ele>
        <time>2018-01-29T09:44:28Z</time>
      </trkpt>
      <trkpt lat="48.07535" lon="7.02595">
        <ele>1191</ele>
        <time>2018-01-29T09:45:02Z</time>
      </trkpt>
      <trkpt lat="48.07532" lon="7.0259">
        <ele>1188</ele>
        <time>2018-01-29T09:45:08Z</time>
      </trkpt>
      <trkpt lat="48.07526" lon="7.02566">
        <ele>1190</ele>
        <time>2018-01-29T09:45:26Z</time>
      </trkpt>
      <trkpt lat="48.07524" lon="7.02561">
        <ele>1190</ele>
        <time>2018-01-29T09:45:32Z</time>
      </trkpt>
      <trkpt lat="48.07521" lon="7.02556">
        <ele>1190</ele>
        <time>2018-01-29T09:45:35Z</time>
      </trkpt>
      <trkpt lat="48.07521" lon="7.02549">
        <ele>1193</ele>
        <time>2018-01-29T09:45:39Z</time>
      </trkpt>
      <trkpt lat="48.07518" lon="7.02545">
        <ele>1193</ele>
        <time>2018-01-29T09:45:43Z</time>
      </trkpt>
      <trkpt lat="48.07514" lon="7.02542">
        <ele>1191</ele>
        <time>2018-01-29T09:45:46Z</time>
      </trkpt>
      <trkpt lat="48.07511" lon="7.02535">
        <ele>1189</ele>
        <time>2018-01-29T09:45:51Z</time>
      </trkpt>
      <trkpt lat="48.07506" lon="7.02522">
        <ele>1193</ele>
        <time>2018-01-29T09:46:00Z</time>
      </trkpt>
      <trkpt lat="48.07502" lon="7.02516">
        <ele>1194</ele>
        <time>2018-01-29T09:46:05Z</time>
      </trkpt>
      <trkpt lat="48.07498" lon="7.02512">
        <ele>1195</ele>
        <time>2018-01-29T09:46:09Z</time>
      </trkpt>
      <trkpt lat="48.07495" lon="7.02508">
        <ele>1197</ele>
        <time>2018-01-29T09:46:13Z</time>
      </trkpt>
      <trkpt lat="48.07492" lon="7.02502">
        <ele>1196</ele>
        <time>2018-01-29T09:46:17Z</time>
      </trkpt>
      <trkpt lat="48.07484" lon="7.02492">
        <ele>1193</ele>
        <time>2018-01-29T09:46:25Z</time>
      </trkpt>
      <trkpt lat="48.07481" lon="7.02485">
        <ele>1193</ele>
        <time>2018-01-29T09:46:29Z</time>
      </trkpt>
      <trkpt lat="48.07477" lon="7.02478">
        <ele>1192</ele>
        <time>2018-01-29T09:46:34Z</time>
      </trkpt>
      <trkpt lat="48.07472" lon="7.02469">
        <ele>1193</ele>
        <time>2018-01-29T09:46:40Z</time>
      </trkpt>
      <trkpt lat="48.07468" lon="7.02461">
        <ele>1193</ele>
        <time>2018-01-29T09:46:44Z</time>
      </trkpt>
      <trkpt lat="48.07464" lon="7.02453">
        <ele>1191</ele>
        <time>2018-01-29T09:46:50Z</time>
      </trkpt>
      <trkpt lat="48.0746" lon="7.02442">
        <ele>1189</ele>
        <time>2018-01-29T09:46:58Z</time>
      </trkpt>
      <trkpt lat="48.07455" lon="7.02438">
        <ele>1188</ele>
        <time>2018-01-29T09:47:03Z</time>
      </trkpt>
      <trkpt lat="48.07452" lon="7.02431">
        <ele>1184</ele>
        <time>2018-01-29T09:47:10Z</time>
      </trkpt>
      <trkpt lat="48.0745" lon="7.02424">
        <ele>1185</ele>
        <time>2018-01-29T09:47:14Z</time>
      </trkpt>
      <trkpt lat="48.07446" lon="7.0242">
        <ele>1185</ele>
        <time>2018-01-29T09:47:20Z</time>
      </trkpt>
      <trkpt lat="48.07441" lon="7.02418">
        <ele>1185</ele>
        <time>2018-01-29T09:47:24Z</time>
      </trkpt>
      <trkpt lat="48.07437" lon="7.02417">
        <ele>1186</ele>
        <time>2018-01-29T09:47:27Z</time>
      </trkpt>
      <trkpt lat="48.07434" lon="7.02413">
        <ele>1187</ele>
        <time>2018-01-29T09:47:30Z</time>
      </trkpt>
      <trkpt lat="48.07432" lon="7.02407">
        <ele>1187</ele>
        <time>2018-01-29T09:47:34Z</time>
      </trkpt>
      <trkpt lat="48.07428" lon="7.02402">
        <ele>1185</ele>
        <time>2018-01-29T09:47:38Z</time>
      </trkpt>
      <trkpt lat="48.07423" lon="7.02393">
        <ele>1183</ele>
        <time>2018-01-29T09:47:43Z</time>
      </trkpt>
      <trkpt lat="48.0742" lon="7.02388">
        <ele>1184</ele>
        <time>2018-01-29T09:47:48Z</time>
      </trkpt>
      <trkpt lat="48.07417" lon="7.02382">
        <ele>1183</ele>
        <time>2018-01-29T09:47:52Z</time>
      </trkpt>
      <trkpt lat="48.07415" lon="7.02377">
        <ele>1183</ele>
        <time>2018-01-29T09:47:56Z</time>
      </trkpt>
      <trkpt lat="48.07409" lon="7.02374">
        <ele>1184</ele>
        <time>2018-01-29T09:48:01Z</time>
      </trkpt>
      <trkpt lat="48.07405" lon="7.02369">
        <ele>1183</ele>
        <time>2018-01-29T09:48:05Z</time>
      </trkpt>
      <trkpt lat="48.074" lon="7.02369">
        <ele>1183</ele>
        <time>2018-01-29T09:48:10Z</time>
      </trkpt>
      <trkpt lat="48.07394" lon="7.02352">
        <ele>1184</ele>
        <time>2018-01-29T09:48:24Z</time>
      </trkpt>
      <trkpt lat="48.07388" lon="7.02347">
        <ele>1182</ele>
        <time>2018-01-29T09:48:29Z</time>
      </trkpt>
      <trkpt lat="48.07386" lon="7.02341">
        <ele>1179</ele>
        <time>2018-01-29T09:48:35Z</time>
      </trkpt>
      <trkpt lat="48.0738" lon="7.0234">
        <ele>1180</ele>
        <time>2018-01-29T09:48:38Z</time>
      </trkpt>
      <trkpt lat="48.07376" lon="7.02339">
        <ele>1180</ele>
        <time>2018-01-29T09:48:40Z</time>
      </trkpt>
      <trkpt lat="48.07371" lon="7.02327">
        <ele>1180</ele>
        <time>2018-01-29T09:48:49Z</time>
      </trkpt>
      <trkpt lat="48.07366" lon="7.02325">
        <ele>1180</ele>
        <time>2018-01-29T09:48:53Z</time>
      </trkpt>
      <trkpt lat="48.07356" lon="7.02309">
        <ele>1185</ele>
        <time>2018-01-29T09:49:06Z</time>
      </trkpt>
      <trkpt lat="48.07351" lon="7.02307">
        <ele>1184</ele>
        <time>2018-01-29T09:49:10Z</time>
      </trkpt>
      <trkpt lat="48.07349" lon="7.02298">
        <ele>1185</ele>
        <time>2018-01-29T09:49:16Z</time>
      </trkpt>
      <trkpt lat="48.07345" lon="7.02289">
        <ele>1189</ele>
        <time>2018-01-29T09:49:23Z</time>
      </trkpt>
      <trkpt lat="48.07339" lon="7.02283">
        <ele>1189</ele>
        <time>2018-01-29T09:49:30Z</time>
      </trkpt>
      <trkpt lat="48.073" lon="7.02284">
        <ele>1183</ele>
        <time>2018-01-29T09:50:01Z</time>
      </trkpt>
      <trkpt lat="48.07305" lon="7.02267">
        <ele>1179</ele>
        <time>2018-01-29T09:50:04Z</time>
      </trkpt>
      <trkpt lat="48.073" lon="7.02263">
        <ele>1180</ele>
        <time>2018-01-29T09:50:08Z</time>
      </trkpt>
      <trkpt lat="48.07293" lon="7.02254">
        <ele>1179</ele>
        <time>2018-01-29T09:50:17Z</time>
      </trkpt>
      <trkpt lat="48.07291" lon="7.02247">
        <ele>1178</ele>
        <time>2018-01-29T09:50:21Z</time>
      </trkpt>
      <trkpt lat="48.07287" lon="7.02244">
        <ele>1178</ele>
        <time>2018-01-29T09:50:25Z</time>
      </trkpt>
      <trkpt lat="48.07285" lon="7.02236">
        <ele>1179</ele>
        <time>2018-01-29T09:50:30Z</time>
      </trkpt>
      <trkpt lat="48.07282" lon="7.02229">
        <ele>1180</ele>
        <time>2018-01-29T09:50:37Z</time>
      </trkpt>
      <trkpt lat="48.07273" lon="7.02234">
        <ele>1181</ele>
        <time>2018-01-29T09:50:43Z</time>
      </trkpt>
      <trkpt lat="48.07266" lon="7.02227">
        <ele>1179</ele>
        <time>2018-01-29T09:50:50Z</time>
      </trkpt>
      <trkpt lat="48.07259" lon="7.02228">
        <ele>1175</ele>
        <time>2018-01-29T09:51:02Z</time>
      </trkpt>
      <trkpt lat="48.07253" lon="7.02217">
        <ele>1170</ele>
        <time>2018-01-29T09:51:11Z</time>
      </trkpt>
      <trkpt lat="48.07245" lon="7.02212">
        <ele>1167</ele>
        <time>2018-01-29T09:51:19Z</time>
      </trkpt>
      <trkpt lat="48.07236" lon="7.02208">
        <ele>1163</ele>
        <time>2018-01-29T09:51:26Z</time>
      </trkpt>
      <trkpt lat="48.07217" lon="7.02199">
        <ele>1165</ele>
        <time>2018-01-29T09:51:40Z</time>
      </trkpt>
      <trkpt lat="48.072" lon="7.02194">
        <ele>1166</ele>
        <time>2018-01-29T09:51:54Z</time>
      </trkpt>
      <trkpt lat="48.07193" lon="7.02185">
        <ele>1171</ele>
        <time>2018-01-29T09:52:08Z</time>
      </trkpt>
      <trkpt lat="48.07187" lon="7.02181">
        <ele>1174</ele>
        <time>2018-01-29T09:52:16Z</time>
      </trkpt>
      <trkpt lat="48.0718" lon="7.02177">
        <ele>1173</ele>
        <time>2018-01-29T09:52:23Z</time>
      </trkpt>
      <trkpt lat="48.07173" lon="7.02183">
        <ele>1168</ele>
        <time>2018-01-29T09:52:35Z</time>
      </trkpt>
      <trkpt lat="48.07167" lon="7.0218">
        <ele>1169</ele>
        <time>2018-01-29T09:52:42Z</time>
      </trkpt>
      <trkpt lat="48.07156" lon="7.02186">
        <ele>1170</ele>
        <time>2018-01-29T09:52:59Z</time>
      </trkpt>
      <trkpt lat="48.07146" lon="7.02184">
        <ele>1169</ele>
        <time>2018-01-29T09:53:06Z</time>
      </trkpt>
      <trkpt lat="48.07141" lon="7.02184">
        <ele>1169</ele>
        <time>2018-01-29T09:53:12Z</time>
      </trkpt>
      <trkpt lat="48.07132" lon="7.02182">
        <ele>1168</ele>
        <time>2018-01-29T09:53:18Z</time>
      </trkpt>
      <trkpt lat="48.07127" lon="7.02178">
        <ele>1166</ele>
        <time>2018-01-29T09:53:23Z</time>
      </trkpt>
      <trkpt lat="48.07121" lon="7.02178">
        <ele>1167</ele>
        <time>2018-01-29T09:53:28Z</time>
      </trkpt>
      <trkpt lat="48.07112" lon="7.02178">
        <ele>1169</ele>
        <time>2018-01-29T09:53:34Z</time>
      </trkpt>
      <trkpt lat="48.07102" lon="7.02179">
        <ele>1173</ele>
        <time>2018-01-29T09:53:41Z</time>
      </trkpt>
      <trkpt lat="48.07095" lon="7.02174">
        <ele>1174</ele>
        <time>2018-01-29T09:53:48Z</time>
      </trkpt>
      <trkpt lat="48.07079" lon="7.0217">
        <ele>1173</ele>
        <time>2018-01-29T09:54:03Z</time>
      </trkpt>
      <trkpt lat="48.07074" lon="7.02173">
        <ele>1168</ele>
        <time>2018-01-29T09:54:07Z</time>
      </trkpt>
      <trkpt lat="48.07069" lon="7.02173">
        <ele>1167</ele>
        <time>2018-01-29T09:54:11Z</time>
      </trkpt>
      <trkpt lat="48.07064" lon="7.02173">
        <ele>1165</ele>
        <time>2018-01-29T09:54:14Z</time>
      </trkpt>
      <trkpt lat="48.07056" lon="7.02172">
        <ele>1163</ele>
        <time>2018-01-29T09:54:21Z</time>
      </trkpt>
      <trkpt lat="48.07013" lon="7.02173">
        <ele>1161</ele>
        <time>2018-01-29T09:55:01Z</time>
      </trkpt>
      <trkpt lat="48.07012" lon="7.02175">
        <ele>1156</ele>
        <time>2018-01-29T09:55:20Z</time>
      </trkpt>
      <trkpt lat="48.07007" lon="7.02175">
        <ele>1157</ele>
        <time>2018-01-29T09:55:25Z</time>
      </trkpt>
      <trkpt lat="48.07002" lon="7.02172">
        <ele>1162</ele>
        <time>2018-01-29T09:55:32Z</time>
      </trkpt>
      <trkpt lat="48.06998" lon="7.02176">
        <ele>1163</ele>
        <time>2018-01-29T09:55:41Z</time>
      </trkpt>
      <trkpt lat="48.06991" lon="7.02179">
        <ele>1167</ele>
        <time>2018-01-29T09:55:48Z</time>
      </trkpt>
      <trkpt lat="48.06986" lon="7.02182">
        <ele>1167</ele>
        <time>2018-01-29T09:55:55Z</time>
      </trkpt>
      <trkpt lat="48.06975" lon="7.02188">
        <ele>1164</ele>
        <time>2018-01-29T09:56:05Z</time>
      </trkpt>
      <trkpt lat="48.06969" lon="7.02197">
        <ele>1160</ele>
        <time>2018-01-29T09:56:10Z</time>
      </trkpt>
      <trkpt lat="48.06955" lon="7.02211">
        <ele>1154</ele>
        <time>2018-01-29T09:56:22Z</time>
      </trkpt>
      <trkpt lat="48.06949" lon="7.02223">
        <ele>1149</ele>
        <time>2018-01-29T09:56:28Z</time>
      </trkpt>
      <trkpt lat="48.06942" lon="7.02229">
        <ele>1147</ele>
        <time>2018-01-29T09:56:35Z</time>
      </trkpt>
      <trkpt lat="48.06936" lon="7.02233">
        <ele>1149</ele>
        <time>2018-01-29T09:56:42Z</time>
      </trkpt>
      <trkpt lat="48.0693" lon="7.02234">
        <ele>1149</ele>
        <time>2018-01-29T09:56:48Z</time>
      </trkpt>
      <trkpt lat="48.06908" lon="7.02245">
        <ele>1145</ele>
        <time>2018-01-29T09:57:06Z</time>
      </trkpt>
      <trkpt lat="48.06891" lon="7.02248">
        <ele>1145</ele>
        <time>2018-01-29T09:57:23Z</time>
      </trkpt>
      <trkpt lat="48.06884" lon="7.02249">
        <ele>1146</ele>
        <time>2018-01-29T09:57:28Z</time>
      </trkpt>
      <trkpt lat="48.06875" lon="7.02242">
        <ele>1149</ele>
        <time>2018-01-29T09:57:37Z</time>
      </trkpt>
      <trkpt lat="48.06874" lon="7.02232">
        <ele>1149</ele>
        <time>2018-01-29T09:57:45Z</time>
      </trkpt>
      <trkpt lat="48.06868" lon="7.02234">
        <ele>1148</ele>
        <time>2018-01-29T09:57:49Z</time>
      </trkpt>
      <trkpt lat="48.06861" lon="7.02232">
        <ele>1149</ele>
        <time>2018-01-29T09:58:02Z</time>
      </trkpt>
      <trkpt lat="48.06855" lon="7.02233">
        <ele>1144</ele>
        <time>2018-01-29T09:58:15Z</time>
      </trkpt>
      <trkpt lat="48.06848" lon="7.02229">
        <ele>1142</ele>
        <time>2018-01-29T09:58:23Z</time>
      </trkpt>
      <trkpt lat="48.06841" lon="7.02232">
        <ele>1139</ele>
        <time>2018-01-29T09:58:32Z</time>
      </trkpt>
      <trkpt lat="48.0683" lon="7.0224">
        <ele>1138</ele>
        <time>2018-01-29T09:58:41Z</time>
      </trkpt>
      <trkpt lat="48.06817" lon="7.02239">
        <ele>1142</ele>
        <time>2018-01-29T09:58:50Z</time>
      </trkpt>
      <trkpt lat="48.06811" lon="7.02233">
        <ele>1140</ele>
        <time>2018-01-29T09:58:58Z</time>
      </trkpt>
      <trkpt lat="48.06803" lon="7.02229">
        <ele>1140</ele>
        <time>2018-01-29T09:59:09Z</time>
      </trkpt>
      <trkpt lat="48.06795" lon="7.02227">
        <ele>1140</ele>
        <time>2018-01-29T09:59:15Z</time>
      </trkpt>
      <trkpt lat="48.06788" lon="7.02223">
        <ele>1141</ele>
        <time>2018-01-29T09:59:22Z</time>
      </trkpt>
      <trkpt lat="48.06782" lon="7.02224">
        <ele>1147</ele>
        <time>2018-01-29T09:59:28Z</time>
      </trkpt>
      <trkpt lat="48.06758" lon="7.02221">
        <ele>1149</ele>
        <time>2018-01-29T10:00:04Z</time>
      </trkpt>
      <trkpt lat="48.06741" lon="7.02216">
        <ele>1156</ele>
        <time>2018-01-29T10:00:07Z</time>
      </trkpt>
      <trkpt lat="48.06731" lon="7.02224">
        <ele>1157</ele>
        <time>2018-01-29T10:00:09Z</time>
      </trkpt>
      <trkpt lat="48.06727" lon="7.02221">
        <ele>1153</ele>
        <time>2018-01-29T10:00:12Z</time>
      </trkpt>
      <trkpt lat="48.06721" lon="7.02224">
        <ele>1151</ele>
        <time>2018-01-29T10:00:15Z</time>
      </trkpt>
      <trkpt lat="48.06716" lon="7.02223">
        <ele>1152</ele>
        <time>2018-01-29T10:00:19Z</time>
      </trkpt>
      <trkpt lat="48.06711" lon="7.02224">
        <ele>1153</ele>
        <time>2018-01-29T10:00:24Z</time>
      </trkpt>
      <trkpt lat="48.06705" lon="7.02223">
        <ele>1153</ele>
        <time>2018-01-29T10:00:29Z</time>
      </trkpt>
      <trkpt lat="48.06701" lon="7.02228">
        <ele>1153</ele>
        <time>2018-01-29T10:00:33Z</time>
      </trkpt>
      <trkpt lat="48.06694" lon="7.02228">
        <ele>1155</ele>
        <time>2018-01-29T10:00:41Z</time>
      </trkpt>
      <trkpt lat="48.06685" lon="7.0223">
        <ele>1158</ele>
        <time>2018-01-29T10:00:50Z</time>
      </trkpt>
      <trkpt lat="48.06677" lon="7.02232">
        <ele>1160</ele>
        <time>2018-01-29T10:00:56Z</time>
      </trkpt>
      <trkpt lat="48.06665" lon="7.02245">
        <ele>1158</ele>
        <time>2018-01-29T10:01:02Z</time>
      </trkpt>
      <trkpt lat="48.06654" lon="7.02251">
        <ele>1150</ele>
        <time>2018-01-29T10:01:08Z</time>
      </trkpt>
      <trkpt lat="48.06639" lon="7.02255">
        <ele>1153</ele>
        <time>2018-01-29T10:01:25Z</time>
      </trkpt>
      <trkpt lat="48.06633" lon="7.02253">
        <ele>1150</ele>
        <time>2018-01-29T10:01:43Z</time>
      </trkpt>
      <trkpt lat="48.06628" lon="7.02251">
        <ele>1147</ele>
        <time>2018-01-29T10:01:48Z</time>
      </trkpt>
      <trkpt lat="48.06621" lon="7.02257">
        <ele>1144</ele>
        <time>2018-01-29T10:02:13Z</time>
      </trkpt>
      <trkpt lat="48.06616" lon="7.02251">
        <ele>1139</ele>
        <time>2018-01-29T10:02:20Z</time>
      </trkpt>
      <trkpt lat="48.06603" lon="7.02252">
        <ele>1135</ele>
        <time>2018-01-29T10:03:00Z</time>
      </trkpt>
      <trkpt lat="48.06596" lon="7.0225">
        <ele>1135</ele>
        <time>2018-01-29T10:03:09Z</time>
      </trkpt>
      <trkpt lat="48.0659" lon="7.02256">
        <ele>1134</ele>
        <time>2018-01-29T10:03:14Z</time>
      </trkpt>
      <trkpt lat="48.06582" lon="7.02266">
        <ele>1133</ele>
        <time>2018-01-29T10:03:22Z</time>
      </trkpt>
      <trkpt lat="48.06576" lon="7.02273">
        <ele>1129</ele>
        <time>2018-01-29T10:03:26Z</time>
      </trkpt>
      <trkpt lat="48.06572" lon="7.02274">
        <ele>1127</ele>
        <time>2018-01-29T10:03:30Z</time>
      </trkpt>
      <trkpt lat="48.06567" lon="7.02268">
        <ele>1129</ele>
        <time>2018-01-29T10:03:37Z</time>
      </trkpt>
      <trkpt lat="48.06564" lon="7.02264">
        <ele>1132</ele>
        <time>2018-01-29T10:03:42Z</time>
      </trkpt>
      <trkpt lat="48.06565" lon="7.02257">
        <ele>1134</ele>
        <time>2018-01-29T10:03:48Z</time>
      </trkpt>
      <trkpt lat="48.06563" lon="7.02239">
        <ele>1133</ele>
        <time>2018-01-29T10:04:01Z</time>
      </trkpt>
      <trkpt lat="48.06562" lon="7.02233">
        <ele>1137</ele>
        <time>2018-01-29T10:04:14Z</time>
      </trkpt>
      <trkpt lat="48.06562" lon="7.02226">
        <ele>1139</ele>
        <time>2018-01-29T10:04:26Z</time>
      </trkpt>
      <trkpt lat="48.06557" lon="7.02228">
        <ele>1141</ele>
        <time>2018-01-29T10:05:29Z</time>
      </trkpt>
      <trkpt lat="48.06551" lon="7.02239">
        <ele>1140</ele>
        <time>2018-01-29T10:05:42Z</time>
      </trkpt>
      <trkpt lat="48.06548" lon="7.02246">
        <ele>1135</ele>
        <time>2018-01-29T10:05:51Z</time>
      </trkpt>
      <trkpt lat="48.06533" lon="7.02251">
        <ele>1135</ele>
        <time>2018-01-29T10:06:03Z</time>
      </trkpt>
      <trkpt lat="48.06527" lon="7.02255">
        <ele>1135</ele>
        <time>2018-01-29T10:06:07Z</time>
      </trkpt>
      <trkpt lat="48.06523" lon="7.02258">
        <ele>1134</ele>
        <time>2018-01-29T10:06:11Z</time>
      </trkpt>
      <trkpt lat="48.06513" lon="7.02258">
        <ele>1134</ele>
        <time>2018-01-29T10:06:21Z</time>
      </trkpt>
      <trkpt lat="48.06504" lon="7.02263">
        <ele>1135</ele>
        <time>2018-01-29T10:06:26Z</time>
      </trkpt>
      <trkpt lat="48.065" lon="7.02263">
        <ele>1134</ele>
        <time>2018-01-29T10:06:33Z</time>
      </trkpt>
      <trkpt lat="48.06496" lon="7.02266">
        <ele>1133</ele>
        <time>2018-01-29T10:06:36Z</time>
      </trkpt>
      <trkpt lat="48.06478" lon="7.02263">
        <ele>1135</ele>
        <time>2018-01-29T10:06:55Z</time>
      </trkpt>
      <trkpt lat="48.06474" lon="7.02267">
        <ele>1135</ele>
        <time>2018-01-29T10:06:59Z</time>
      </trkpt>
      <trkpt lat="48.0646" lon="7.02269">
        <ele>1136</ele>
        <time>2018-01-29T10:07:14Z</time>
      </trkpt>
      <trkpt lat="48.06456" lon="7.02269">
        <ele>1137</ele>
        <time>2018-01-29T10:07:17Z</time>
      </trkpt>
      <trkpt lat="48.06447" lon="7.0227">
        <ele>1144</ele>
        <time>2018-01-29T10:07:28Z</time>
      </trkpt>
      <trkpt lat="48.06443" lon="7.02273">
        <ele>1143</ele>
        <time>2018-01-29T10:07:35Z</time>
      </trkpt>
      <trkpt lat="48.06434" lon="7.02274">
        <ele>1141</ele>
        <time>2018-01-29T10:07:44Z</time>
      </trkpt>
      <trkpt lat="48.06429" lon="7.02275">
        <ele>1141</ele>
        <time>2018-01-29T10:07:48Z</time>
      </trkpt>
      <trkpt lat="48.06426" lon="7.02272">
        <ele>1141</ele>
        <time>2018-01-29T10:07:52Z</time>
      </trkpt>
      <trkpt lat="48.06421" lon="7.02271">
        <ele>1142</ele>
        <time>2018-01-29T10:08:24Z</time>
      </trkpt>
      <trkpt lat="48.06418" lon="7.02268">
        <ele>1142</ele>
        <time>2018-01-29T10:08:59Z</time>
      </trkpt>
      <trkpt lat="48.06409" lon="7.02265">
        <ele>1142</ele>
        <time>2018-01-29T10:09:13Z</time>
      </trkpt>
      <trkpt lat="48.06403" lon="7.02247">
        <ele>1140</ele>
        <time>2018-01-29T10:09:25Z</time>
      </trkpt>
      <trkpt lat="48.06401" lon="7.02242">
        <ele>1141</ele>
        <time>2018-01-29T10:09:29Z</time>
      </trkpt>
      <trkpt lat="48.06385" lon="7.02199">
        <ele>1136</ele>
        <time>2018-01-29T10:10:00Z</time>
      </trkpt>
      <trkpt lat="48.06382" lon="7.02205">
        <ele>1140</ele>
        <time>2018-01-29T10:10:06Z</time>
      </trkpt>
      <trkpt lat="48.06374" lon="7.02209">
        <ele>1138</ele>
        <time>2018-01-29T10:10:15Z</time>
      </trkpt>
      <trkpt lat="48.06372" lon="7.02215">
        <ele>1139</ele>
        <time>2018-01-29T10:10:26Z</time>
      </trkpt>
      <trkpt lat="48.06369" lon="7.0222">
        <ele>1138</ele>
        <time>2018-01-29T10:10:30Z</time>
      </trkpt>
      <trkpt lat="48.06366" lon="7.02232">
        <ele>1137</ele>
        <time>2018-01-29T10:10:38Z</time>
      </trkpt>
      <trkpt lat="48.06367" lon="7.02241">
        <ele>1137</ele>
        <time>2018-01-29T10:10:44Z</time>
      </trkpt>
      <trkpt lat="48.06366" lon="7.02247">
        <ele>1137</ele>
        <time>2018-01-29T10:10:47Z</time>
      </trkpt>
      <trkpt lat="48.06361" lon="7.02247">
        <ele>1138</ele>
        <time>2018-01-29T10:10:52Z</time>
      </trkpt>
      <trkpt lat="48.06344" lon="7.02239">
        <ele>1138</ele>
        <time>2018-01-29T10:11:07Z</time>
      </trkpt>
      <trkpt lat="48.06342" lon="7.02236">
        <ele>1139</ele>
        <time>2018-01-29T10:12:16Z</time>
      </trkpt>
      <trkpt lat="48.06339" lon="7.02232">
        <ele>1139</ele>
        <time>2018-01-29T10:12:21Z</time>
      </trkpt>
      <trkpt lat="48.06329" lon="7.02226">
        <ele>1143</ele>
        <time>2018-01-29T10:12:30Z</time>
      </trkpt>
      <trkpt lat="48.06325" lon="7.02225">
        <ele>1143</ele>
        <time>2018-01-29T10:12:33Z</time>
      </trkpt>
      <trkpt lat="48.06324" lon="7.02218">
        <ele>1142</ele>
        <time>2018-01-29T10:12:40Z</time>
      </trkpt>
      <trkpt lat="48.06321" lon="7.02211">
        <ele>1144</ele>
        <time>2018-01-29T10:13:35Z</time>
      </trkpt>
      <trkpt lat="48.06317" lon="7.02208">
        <ele>1144</ele>
        <time>2018-01-29T10:13:41Z</time>
      </trkpt>
      <trkpt lat="48.06316" lon="7.02202">
        <ele>1145</ele>
        <time>2018-01-29T10:13:45Z</time>
      </trkpt>
      <trkpt lat="48.06307" lon="7.02197">
        <ele>1144</ele>
        <time>2018-01-29T10:13:53Z</time>
      </trkpt>
      <trkpt lat="48.06302" lon="7.02197">
        <ele>1143</ele>
        <time>2018-01-29T10:13:56Z</time>
      </trkpt>
      <trkpt lat="48.06298" lon="7.02195">
        <ele>1142</ele>
        <time>2018-01-29T10:14:03Z</time>
      </trkpt>
      <trkpt lat="48.06293" lon="7.02195">
        <ele>1144</ele>
        <time>2018-01-29T10:14:08Z</time>
      </trkpt>
      <trkpt lat="48.06273" lon="7.02183">
        <ele>1146</ele>
        <time>2018-01-29T10:14:31Z</time>
      </trkpt>
      <trkpt lat="48.06252" lon="7.02176">
        <ele>1148</ele>
        <time>2018-01-29T10:15:02Z</time>
      </trkpt>
      <trkpt lat="48.06248" lon="7.02175">
        <ele>1148</ele>
        <time>2018-01-29T10:15:06Z</time>
      </trkpt>
      <trkpt lat="48.06229" lon="7.02171">
        <ele>1150</ele>
        <time>2018-01-29T10:15:31Z</time>
      </trkpt>
      <trkpt lat="48.06225" lon="7.02174">
        <ele>1154</ele>
        <time>2018-01-29T10:15:36Z</time>
      </trkpt>
      <trkpt lat="48.06217" lon="7.02169">
        <ele>1154</ele>
        <time>2018-01-29T10:15:54Z</time>
      </trkpt>
      <trkpt lat="48.06212" lon="7.02173">
        <ele>1154</ele>
        <time>2018-01-29T10:15:59Z</time>
      </trkpt>
      <trkpt lat="48.06209" lon="7.02168">
        <ele>1157</ele>
        <time>2018-01-29T10:16:12Z</time>
      </trkpt>
      <trkpt lat="48.06199" lon="7.02172">
        <ele>1158</ele>
        <time>2018-01-29T10:16:24Z</time>
      </trkpt>
      <trkpt lat="48.06193" lon="7.02171">
        <ele>1157</ele>
        <time>2018-01-29T10:16:30Z</time>
      </trkpt>
      <trkpt lat="48.06187" lon="7.0217">
        <ele>1155</ele>
        <time>2018-01-29T10:16:37Z</time>
      </trkpt>
      <trkpt lat="48.06179" lon="7.02172">
        <ele>1156</ele>
        <time>2018-01-29T10:16:45Z</time>
      </trkpt>
      <trkpt lat="48.06174" lon="7.0217">
        <ele>1154</ele>
        <time>2018-01-29T10:16:50Z</time>
      </trkpt>
      <trkpt lat="48.06171" lon="7.02163">
        <ele>1156</ele>
        <time>2018-01-29T10:17:04Z</time>
      </trkpt>
      <trkpt lat="48.06164" lon="7.02169">
        <ele>1155</ele>
        <time>2018-01-29T10:17:08Z</time>
      </trkpt>
      <trkpt lat="48.06158" lon="7.0217">
        <ele>1157</ele>
        <time>2018-01-29T10:17:23Z</time>
      </trkpt>
      <trkpt lat="48.06153" lon="7.02174">
        <ele>1157</ele>
        <time>2018-01-29T10:17:28Z</time>
      </trkpt>
      <trkpt lat="48.06145" lon="7.02176">
        <ele>1156</ele>
        <time>2018-01-29T10:18:30Z</time>
      </trkpt>
      <trkpt lat="48.0614" lon="7.02174">
        <ele>1157</ele>
        <time>2018-01-29T10:18:52Z</time>
      </trkpt>
      <trkpt lat="48.06136" lon="7.02171">
        <ele>1158</ele>
        <time>2018-01-29T10:18:57Z</time>
      </trkpt>
      <trkpt lat="48.06132" lon="7.02169">
        <ele>1160</ele>
        <time>2018-01-29T10:19:02Z</time>
      </trkpt>
      <trkpt lat="48.06111" lon="7.02152">
        <ele>1168</ele>
        <time>2018-01-29T10:19:30Z</time>
      </trkpt>
      <trkpt lat="48.06087" lon="7.02134">
        <ele>1166</ele>
        <time>2018-01-29T10:20:03Z</time>
      </trkpt>
      <trkpt lat="48.06085" lon="7.02129">
        <ele>1169</ele>
        <time>2018-01-29T10:20:11Z</time>
      </trkpt>
      <trkpt lat="48.06082" lon="7.02125">
        <ele>1170</ele>
        <time>2018-01-29T10:20:17Z</time>
      </trkpt>
      <trkpt lat="48.06077" lon="7.02123">
        <ele>1173</ele>
        <time>2018-01-29T10:20:23Z</time>
      </trkpt>
      <trkpt lat="48.06072" lon="7.02124">
        <ele>1174</ele>
        <time>2018-01-29T10:20:28Z</time>
      </trkpt>
      <trkpt lat="48.06068" lon="7.02125">
        <ele>1176</ele>
        <time>2018-01-29T10:20:35Z</time>
      </trkpt>
      <trkpt lat="48.0606" lon="7.02121">
        <ele>1179</ele>
        <time>2018-01-29T10:20:48Z</time>
      </trkpt>
      <trkpt lat="48.06055" lon="7.02121">
        <ele>1180</ele>
        <time>2018-01-29T10:20:53Z</time>
      </trkpt>
      <trkpt lat="48.06052" lon="7.02115">
        <ele>1181</ele>
        <time>2018-01-29T10:21:00Z</time>
      </trkpt>
      <trkpt lat="48.06053" lon="7.02109">
        <ele>1182</ele>
        <time>2018-01-29T10:21:07Z</time>
      </trkpt>
      <trkpt lat="48.06048" lon="7.02109">
        <ele>1183</ele>
        <time>2018-01-29T10:21:14Z</time>
      </trkpt>
      <trkpt lat="48.06045" lon="7.02105">
        <ele>1184</ele>
        <time>2018-01-29T10:21:22Z</time>
      </trkpt>
      <trkpt lat="48.06042" lon="7.02102">
        <ele>1186</ele>
        <time>2018-01-29T10:21:33Z</time>
      </trkpt>
      <trkpt lat="48.06033" lon="7.02099">
        <ele>1186</ele>
        <time>2018-01-29T10:21:46Z</time>
      </trkpt>
      <trkpt lat="48.06028" lon="7.02096">
        <ele>1186</ele>
        <time>2018-01-29T10:21:53Z</time>
      </trkpt>
      <trkpt lat="48.06021" lon="7.02088">
        <ele>1187</ele>
        <time>2018-01-29T10:22:10Z</time>
      </trkpt>
      <trkpt lat="48.06017" lon="7.02085">
        <ele>1187</ele>
        <time>2018-01-29T10:22:18Z</time>
      </trkpt>
      <trkpt lat="48.06012" lon="7.02084">
        <ele>1188</ele>
        <time>2018-01-29T10:22:26Z</time>
      </trkpt>
      <trkpt lat="48.06008" lon="7.02084">
        <ele>1189</ele>
        <time>2018-01-29T10:22:33Z</time>
      </trkpt>
      <trkpt lat="48.06004" lon="7.02083">
        <ele>1191</ele>
        <time>2018-01-29T10:22:40Z</time>
      </trkpt>
      <trkpt lat="48.06001" lon="7.02078">
        <ele>1193</ele>
        <time>2018-01-29T10:22:48Z</time>
      </trkpt>
      <trkpt lat="48.05997" lon="7.02074">
        <ele>1194</ele>
        <time>2018-01-29T10:23:12Z</time>
      </trkpt>
      <trkpt lat="48.05993" lon="7.02074">
        <ele>1194</ele>
        <time>2018-01-29T10:23:20Z</time>
      </trkpt>
      <trkpt lat="48.05985" lon="7.02064">
        <ele>1198</ele>
        <time>2018-01-29T10:23:38Z</time>
      </trkpt>
      <trkpt lat="48.05981" lon="7.02066">
        <ele>1197</ele>
        <time>2018-01-29T10:23:41Z</time>
      </trkpt>
      <trkpt lat="48.05976" lon="7.02065">
        <ele>1198</ele>
        <time>2018-01-29T10:23:48Z</time>
      </trkpt>
      <trkpt lat="48.05968" lon="7.02063">
        <ele>1200</ele>
        <time>2018-01-29T10:24:05Z</time>
      </trkpt>
      <trkpt lat="48.05965" lon="7.02059">
        <ele>1203</ele>
        <time>2018-01-29T10:24:14Z</time>
      </trkpt>
      <trkpt lat="48.05959" lon="7.02062">
        <ele>1205</ele>
        <time>2018-01-29T10:24:24Z</time>
      </trkpt>
      <trkpt lat="48.0595" lon="7.02052">
        <ele>1207</ele>
        <time>2018-01-29T10:24:42Z</time>
      </trkpt>
      <trkpt lat="48.05941" lon="7.02048">
        <ele>1207</ele>
        <time>2018-01-29T10:24:56Z</time>
      </trkpt>
      <trkpt lat="48.05936" lon="7.02043">
        <ele>1209</ele>
        <time>2018-01-29T10:25:07Z</time>
      </trkpt>
      <trkpt lat="48.0593" lon="7.02039">
        <ele>1210</ele>
        <time>2018-01-29T10:25:16Z</time>
      </trkpt>
      <trkpt lat="48.05926" lon="7.02041">
        <ele>1211</ele>
        <time>2018-01-29T10:25:22Z</time>
      </trkpt>
      <trkpt lat="48.0592" lon="7.02039">
        <ele>1212</ele>
        <time>2018-01-29T10:25:32Z</time>
      </trkpt>
      <trkpt lat="48.05916" lon="7.02038">
        <ele>1213</ele>
        <time>2018-01-29T10:25:40Z</time>
      </trkpt>
      <trkpt lat="48.05912" lon="7.02035">
        <ele>1214</ele>
        <time>2018-01-29T10:25:52Z</time>
      </trkpt>
      <trkpt lat="48.05907" lon="7.02036">
        <ele>1215</ele>
        <time>2018-01-29T10:26:03Z</time>
      </trkpt>
      <trkpt lat="48.05899" lon="7.02027">
        <ele>1216</ele>
        <time>2018-01-29T10:26:17Z</time>
      </trkpt>
      <trkpt lat="48.05895" lon="7.02025">
        <ele>1217</ele>
        <time>2018-01-29T10:26:29Z</time>
      </trkpt>
      <trkpt lat="48.05893" lon="7.02019">
        <ele>1216</ele>
        <time>2018-01-29T10:26:36Z</time>
      </trkpt>
      <trkpt lat="48.05889" lon="7.02016">
        <ele>1217</ele>
        <time>2018-01-29T10:26:43Z</time>
      </trkpt>
      <trkpt lat="48.05885" lon="7.02013">
        <ele>1219</ele>
        <time>2018-01-29T10:26:51Z</time>
      </trkpt>
      <trkpt lat="48.0588" lon="7.02014">
        <ele>1219</ele>
        <time>2018-01-29T10:26:58Z</time>
      </trkpt>
      <trkpt lat="48.05872" lon="7.02007">
        <ele>1216</ele>
        <time>2018-01-29T10:27:10Z</time>
      </trkpt>
      <trkpt lat="48.05867" lon="7.02007">
        <ele>1215</ele>
        <time>2018-01-29T10:27:19Z</time>
      </trkpt>
      <trkpt lat="48.05862" lon="7.02011">
        <ele>1215</ele>
        <time>2018-01-29T10:27:28Z</time>
      </trkpt>
      <trkpt lat="48.05858" lon="7.02009">
        <ele>1215</ele>
        <time>2018-01-29T10:27:34Z</time>
      </trkpt>
      <trkpt lat="48.05849" lon="7.02001">
        <ele>1217</ele>
        <time>2018-01-29T10:27:48Z</time>
      </trkpt>
      <trkpt lat="48.05845" lon="7.01997">
        <ele>1223</ele>
        <time>2018-01-29T10:27:57Z</time>
      </trkpt>
      <trkpt lat="48.05844" lon="7.01992">
        <ele>1225</ele>
        <time>2018-01-29T10:28:05Z</time>
      </trkpt>
      <trkpt lat="48.05841" lon="7.01986">
        <ele>1226</ele>
        <time>2018-01-29T10:28:18Z</time>
      </trkpt>
      <trkpt lat="48.05837" lon="7.01985">
        <ele>1227</ele>
        <time>2018-01-29T10:28:26Z</time>
      </trkpt>
      <trkpt lat="48.05832" lon="7.01987">
        <ele>1227</ele>
        <time>2018-01-29T10:28:31Z</time>
      </trkpt>
      <trkpt lat="48.05828" lon="7.01987">
        <ele>1228</ele>
        <time>2018-01-29T10:28:36Z</time>
      </trkpt>
      <trkpt lat="48.05823" lon="7.01988">
        <ele>1229</ele>
        <time>2018-01-29T10:28:39Z</time>
      </trkpt>
      <trkpt lat="48.05822" lon="7.01982">
        <ele>1231</ele>
        <time>2018-01-29T10:28:44Z</time>
      </trkpt>
      <trkpt lat="48.05813" lon="7.01981">
        <ele>1224</ele>
        <time>2018-01-29T10:29:08Z</time>
      </trkpt>
      <trkpt lat="48.05808" lon="7.0198">
        <ele>1227</ele>
        <time>2018-01-29T10:29:15Z</time>
      </trkpt>
      <trkpt lat="48.05801" lon="7.01978">
        <ele>1229</ele>
        <time>2018-01-29T10:29:41Z</time>
      </trkpt>
      <trkpt lat="48.05795" lon="7.01984">
        <ele>1227</ele>
        <time>2018-01-29T10:29:48Z</time>
      </trkpt>
      <trkpt lat="48.05791" lon="7.01978">
        <ele>1229</ele>
        <time>2018-01-29T10:29:57Z</time>
      </trkpt>
      <trkpt lat="48.05786" lon="7.01982">
        <ele>1233</ele>
        <time>2018-01-29T10:30:04Z</time>
      </trkpt>
      <trkpt lat="48.05772" lon="7.0198">
        <ele>1238</ele>
        <time>2018-01-29T10:30:33Z</time>
      </trkpt>
      <trkpt lat="48.05761" lon="7.01972">
        <ele>1236</ele>
        <time>2018-01-29T10:30:46Z</time>
      </trkpt>
      <trkpt lat="48.05756" lon="7.01968">
        <ele>1233</ele>
        <time>2018-01-29T10:30:52Z</time>
      </trkpt>
      <trkpt lat="48.05751" lon="7.01961">
        <ele>1236</ele>
        <time>2018-01-29T10:31:07Z</time>
      </trkpt>
      <trkpt lat="48.05734" lon="7.0196">
        <ele>1237</ele>
        <time>2018-01-29T10:31:22Z</time>
      </trkpt>
      <trkpt lat="48.05736" lon="7.0195">
        <ele>1236</ele>
        <time>2018-01-29T10:31:30Z</time>
      </trkpt>
      <trkpt lat="48.05733" lon="7.01938">
        <ele>1236</ele>
        <time>2018-01-29T10:31:53Z</time>
      </trkpt>
      <trkpt lat="48.05727" lon="7.0193">
        <ele>1235</ele>
        <time>2018-01-29T10:31:59Z</time>
      </trkpt>
      <trkpt lat="48.05723" lon="7.01925">
        <ele>1236</ele>
        <time>2018-01-29T10:32:05Z</time>
      </trkpt>
      <trkpt lat="48.05718" lon="7.01925">
        <ele>1239</ele>
        <time>2018-01-29T10:32:08Z</time>
      </trkpt>
      <trkpt lat="48.05712" lon="7.01926">
        <ele>1240</ele>
        <time>2018-01-29T10:32:14Z</time>
      </trkpt>
      <trkpt lat="48.05703" lon="7.01934">
        <ele>1244</ele>
        <time>2018-01-29T10:32:30Z</time>
      </trkpt>
      <trkpt lat="48.05697" lon="7.01937">
        <ele>1245</ele>
        <time>2018-01-29T10:32:36Z</time>
      </trkpt>
      <trkpt lat="48.05695" lon="7.01932">
        <ele>1247</ele>
        <time>2018-01-29T10:32:41Z</time>
      </trkpt>
      <trkpt lat="48.05682" lon="7.01932">
        <ele>1250</ele>
        <time>2018-01-29T10:33:00Z</time>
      </trkpt>
      <trkpt lat="48.05679" lon="7.01937">
        <ele>1251</ele>
        <time>2018-01-29T10:33:07Z</time>
      </trkpt>
      <trkpt lat="48.05675" lon="7.01934">
        <ele>1247</ele>
        <time>2018-01-29T10:33:48Z</time>
      </trkpt>
      <trkpt lat="48.05668" lon="7.01925">
        <ele>1246</ele>
        <time>2018-01-29T10:33:56Z</time>
      </trkpt>
      <trkpt lat="48.05668" lon="7.01912">
        <ele>1247</ele>
        <time>2018-01-29T10:34:10Z</time>
      </trkpt>
      <trkpt lat="48.05669" lon="7.01905">
        <ele>1246</ele>
        <time>2018-01-29T10:34:16Z</time>
      </trkpt>
      <trkpt lat="48.05667" lon="7.01899">
        <ele>1247</ele>
        <time>2018-01-29T10:34:19Z</time>
      </trkpt>
      <trkpt lat="48.05664" lon="7.01894">
        <ele>1250</ele>
        <time>2018-01-29T10:34:24Z</time>
      </trkpt>
      <trkpt lat="48.05661" lon="7.0189">
        <ele>1251</ele>
        <time>2018-01-29T10:34:29Z</time>
      </trkpt>
      <trkpt lat="48.05651" lon="7.01888">
        <ele>1252</ele>
        <time>2018-01-29T10:34:39Z</time>
      </trkpt>
      <trkpt lat="48.05647" lon="7.01885">
        <ele>1253</ele>
        <time>2018-01-29T10:34:44Z</time>
      </trkpt>
      <trkpt lat="48.05641" lon="7.01887">
        <ele>1253</ele>
        <time>2018-01-29T10:34:54Z</time>
      </trkpt>
      <trkpt lat="48.05633" lon="7.01889">
        <ele>1251</ele>
        <time>2018-01-29T10:35:02Z</time>
      </trkpt>
      <trkpt lat="48.05619" lon="7.0191">
        <ele>1251</ele>
        <time>2018-01-29T10:35:06Z</time>
      </trkpt>
      <trkpt lat="48.05611" lon="7.01904">
        <ele>1253</ele>
        <time>2018-01-29T10:35:23Z</time>
      </trkpt>
      <trkpt lat="48.05602" lon="7.01908">
        <ele>1256</ele>
        <time>2018-01-29T10:35:28Z</time>
      </trkpt>
      <trkpt lat="48.05595" lon="7.01911">
        <ele>1259</ele>
        <time>2018-01-29T10:35:38Z</time>
      </trkpt>
      <trkpt lat="48.05589" lon="7.01916">
        <ele>1261</ele>
        <time>2018-01-29T10:35:44Z</time>
      </trkpt>
      <trkpt lat="48.05583" lon="7.01919">
        <ele>1263</ele>
        <time>2018-01-29T10:35:51Z</time>
      </trkpt>
      <trkpt lat="48.05577" lon="7.01917">
        <ele>1263</ele>
        <time>2018-01-29T10:35:57Z</time>
      </trkpt>
      <trkpt lat="48.05562" lon="7.01917">
        <ele>1262</ele>
        <time>2018-01-29T10:36:19Z</time>
      </trkpt>
      <trkpt lat="48.05556" lon="7.01915">
        <ele>1262</ele>
        <time>2018-01-29T10:36:29Z</time>
      </trkpt>
      <trkpt lat="48.05551" lon="7.01914">
        <ele>1264</ele>
        <time>2018-01-29T10:36:32Z</time>
      </trkpt>
      <trkpt lat="48.05541" lon="7.01905">
        <ele>1264</ele>
        <time>2018-01-29T10:36:46Z</time>
      </trkpt>
      <trkpt lat="48.05524" lon="7.01883">
        <ele>1262</ele>
        <time>2018-01-29T10:37:11Z</time>
      </trkpt>
      <trkpt lat="48.05515" lon="7.01882">
        <ele>1262</ele>
        <time>2018-01-29T10:37:27Z</time>
      </trkpt>
      <trkpt lat="48.0551" lon="7.01884">
        <ele>1263</ele>
        <time>2018-01-29T10:37:30Z</time>
      </trkpt>
      <trkpt lat="48.05501" lon="7.01879">
        <ele>1266</ele>
        <time>2018-01-29T10:37:40Z</time>
      </trkpt>
      <trkpt lat="48.05499" lon="7.01873">
        <ele>1266</ele>
        <time>2018-01-29T10:37:47Z</time>
      </trkpt>
      <trkpt lat="48.05494" lon="7.01871">
        <ele>1265</ele>
        <time>2018-01-29T10:37:51Z</time>
      </trkpt>
      <trkpt lat="48.05485" lon="7.01867">
        <ele>1264</ele>
        <time>2018-01-29T10:38:00Z</time>
      </trkpt>
      <trkpt lat="48.05479" lon="7.01857">
        <ele>1263</ele>
        <time>2018-01-29T10:38:08Z</time>
      </trkpt>
      <trkpt lat="48.05472" lon="7.01852">
        <ele>1262</ele>
        <time>2018-01-29T10:38:16Z</time>
      </trkpt>
      <trkpt lat="48.05461" lon="7.01846">
        <ele>1262</ele>
        <time>2018-01-29T10:38:26Z</time>
      </trkpt>
      <trkpt lat="48.05458" lon="7.01842">
        <ele>1261</ele>
        <time>2018-01-29T10:38:29Z</time>
      </trkpt>
      <trkpt lat="48.05453" lon="7.01837">
        <ele>1261</ele>
        <time>2018-01-29T10:38:35Z</time>
      </trkpt>
      <trkpt lat="48.05436" lon="7.01833">
        <ele>1264</ele>
        <time>2018-01-29T10:38:49Z</time>
      </trkpt>
      <trkpt lat="48.05431" lon="7.01829">
        <ele>1264</ele>
        <time>2018-01-29T10:38:54Z</time>
      </trkpt>
      <trkpt lat="48.05426" lon="7.01825">
        <ele>1262</ele>
        <time>2018-01-29T10:39:00Z</time>
      </trkpt>
      <trkpt lat="48.05421" lon="7.0182">
        <ele>1262</ele>
        <time>2018-01-29T10:39:06Z</time>
      </trkpt>
      <trkpt lat="48.05415" lon="7.01823">
        <ele>1261</ele>
        <time>2018-01-29T10:39:09Z</time>
      </trkpt>
      <trkpt lat="48.05406" lon="7.01815">
        <ele>1262</ele>
        <time>2018-01-29T10:39:18Z</time>
      </trkpt>
      <trkpt lat="48.05401" lon="7.01812">
        <ele>1262</ele>
        <time>2018-01-29T10:39:23Z</time>
      </trkpt>
      <trkpt lat="48.05398" lon="7.01805">
        <ele>1261</ele>
        <time>2018-01-29T10:39:30Z</time>
      </trkpt>
      <trkpt lat="48.05387" lon="7.01803">
        <ele>1258</ele>
        <time>2018-01-29T10:39:57Z</time>
      </trkpt>
      <trkpt lat="48.05381" lon="7.01797">
        <ele>1258</ele>
        <time>2018-01-29T10:40:10Z</time>
      </trkpt>
      <trkpt lat="48.05377" lon="7.01791">
        <ele>1255</ele>
        <time>2018-01-29T10:40:16Z</time>
      </trkpt>
      <trkpt lat="48.05375" lon="7.01798">
        <ele>1253</ele>
        <time>2018-01-29T10:40:22Z</time>
      </trkpt>
      <trkpt lat="48.05365" lon="7.01799">
        <ele>1253</ele>
        <time>2018-01-29T10:40:41Z</time>
      </trkpt>
      <trkpt lat="48.05357" lon="7.01804">
        <ele>1250</ele>
        <time>2018-01-29T10:40:45Z</time>
      </trkpt>
      <trkpt lat="48.05352" lon="7.0181">
        <ele>1256</ele>
        <time>2018-01-29T10:40:49Z</time>
      </trkpt>
      <trkpt lat="48.05345" lon="7.01813">
        <ele>1258</ele>
        <time>2018-01-29T10:40:52Z</time>
      </trkpt>
      <trkpt lat="48.05339" lon="7.0182">
        <ele>1260</ele>
        <time>2018-01-29T10:40:54Z</time>
      </trkpt>
      <trkpt lat="48.05334" lon="7.01824">
        <ele>1262</ele>
        <time>2018-01-29T10:41:10Z</time>
      </trkpt>
      <trkpt lat="48.05334" lon="7.01835">
        <ele>1263</ele>
        <time>2018-01-29T10:41:17Z</time>
      </trkpt>
      <trkpt lat="48.0533" lon="7.01842">
        <ele>1262</ele>
        <time>2018-01-29T10:41:21Z</time>
      </trkpt>
      <trkpt lat="48.05327" lon="7.0185">
        <ele>1258</ele>
        <time>2018-01-29T10:41:27Z</time>
      </trkpt>
      <trkpt lat="48.05329" lon="7.01859">
        <ele>1257</ele>
        <time>2018-01-29T10:41:31Z</time>
      </trkpt>
      <trkpt lat="48.05321" lon="7.01871">
        <ele>1256</ele>
        <time>2018-01-29T10:41:47Z</time>
      </trkpt>
      <trkpt lat="48.05313" lon="7.01878">
        <ele>1256</ele>
        <time>2018-01-29T10:41:51Z</time>
      </trkpt>
      <trkpt lat="48.05306" lon="7.01878">
        <ele>1257</ele>
        <time>2018-01-29T10:41:57Z</time>
      </trkpt>
      <trkpt lat="48.05299" lon="7.01875">
        <ele>1254</ele>
        <time>2018-01-29T10:42:05Z</time>
      </trkpt>
      <trkpt lat="48.05287" lon="7.01885">
        <ele>1256</ele>
        <time>2018-01-29T10:42:11Z</time>
      </trkpt>
      <trkpt lat="48.05269" lon="7.01884">
        <ele>1245</ele>
        <time>2018-01-29T10:42:35Z</time>
      </trkpt>
      <trkpt lat="48.05262" lon="7.01885">
        <ele>1244</ele>
        <time>2018-01-29T10:42:40Z</time>
      </trkpt>
      <trkpt lat="48.05257" lon="7.01877">
        <ele>1238</ele>
        <time>2018-01-29T10:42:52Z</time>
      </trkpt>
      <trkpt lat="48.05248" lon="7.01874">
        <ele>1237</ele>
        <time>2018-01-29T10:43:02Z</time>
      </trkpt>
      <trkpt lat="48.05227" lon="7.01883">
        <ele>1239</ele>
        <time>2018-01-29T10:43:18Z</time>
      </trkpt>
      <trkpt lat="48.05219" lon="7.01881">
        <ele>1241</ele>
        <time>2018-01-29T10:43:23Z</time>
      </trkpt>
      <trkpt lat="48.0521" lon="7.01876">
        <ele>1241</ele>
        <time>2018-01-29T10:43:35Z</time>
      </trkpt>
      <trkpt lat="48.05203" lon="7.01883">
        <ele>1242</ele>
        <time>2018-01-29T10:43:37Z</time>
      </trkpt>
      <trkpt lat="48.05193" lon="7.01887">
        <ele>1243</ele>
        <time>2018-01-29T10:43:43Z</time>
      </trkpt>
      <trkpt lat="48.05191" lon="7.01876">
        <ele>1243</ele>
        <time>2018-01-29T10:43:50Z</time>
      </trkpt>
      <trkpt lat="48.05194" lon="7.01872">
        <ele>1238</ele>
        <time>2018-01-29T10:45:19Z</time>
      </trkpt>
      <trkpt lat="48.05185" lon="7.0188">
        <ele>1237</ele>
        <time>2018-01-29T10:45:29Z</time>
      </trkpt>
      <trkpt lat="48.05179" lon="7.01885">
        <ele>1236</ele>
        <time>2018-01-29T10:45:35Z</time>
      </trkpt>
      <trkpt lat="48.05167" lon="7.01913">
        <ele>1229</ele>
        <time>2018-01-29T10:45:50Z</time>
      </trkpt>
      <trkpt lat="48.05169" lon="7.01921">
        <ele>1228</ele>
        <time>2018-01-29T10:45:54Z</time>
      </trkpt>
      <trkpt lat="48.05173" lon="7.01927">
        <ele>1227</ele>
        <time>2018-01-29T10:45:58Z</time>
      </trkpt>
      <trkpt lat="48.05177" lon="7.01936">
        <ele>1226</ele>
        <time>2018-01-29T10:46:05Z</time>
      </trkpt>
      <trkpt lat="48.05177" lon="7.01947">
        <ele>1229</ele>
        <time>2018-01-29T10:46:12Z</time>
      </trkpt>
      <trkpt lat="48.05181" lon="7.01956">
        <ele>1229</ele>
        <time>2018-01-29T10:46:19Z</time>
      </trkpt>
      <trkpt lat="48.05187" lon="7.01972">
        <ele>1231</ele>
        <time>2018-01-29T10:46:30Z</time>
      </trkpt>
      <trkpt lat="48.05191" lon="7.01978">
        <ele>1231</ele>
        <time>2018-01-29T10:46:35Z</time>
      </trkpt>
      <trkpt lat="48.05191" lon="7.01987">
        <ele>1229</ele>
        <time>2018-01-29T10:46:42Z</time>
      </trkpt>
      <trkpt lat="48.05195" lon="7.01995">
        <ele>1229</ele>
        <time>2018-01-29T10:46:47Z</time>
      </trkpt>
      <trkpt lat="48.05201" lon="7.02008">
        <ele>1228</ele>
        <time>2018-01-29T10:46:53Z</time>
      </trkpt>
      <trkpt lat="48.05204" lon="7.02015">
        <ele>1227</ele>
        <time>2018-01-29T10:46:57Z</time>
      </trkpt>
      <trkpt lat="48.05205" lon="7.02021">
        <ele>1226</ele>
        <time>2018-01-29T10:47:01Z</time>
      </trkpt>
      <trkpt lat="48.05209" lon="7.02029">
        <ele>1226</ele>
        <time>2018-01-29T10:47:06Z</time>
      </trkpt>
      <trkpt lat="48.05212" lon="7.02036">
        <ele>1228</ele>
        <time>2018-01-29T10:47:10Z</time>
      </trkpt>
      <trkpt lat="48.05218" lon="7.02055">
        <ele>1227</ele>
        <time>2018-01-29T10:47:23Z</time>
      </trkpt>
      <trkpt lat="48.05232" lon="7.02097">
        <ele>1227</ele>
        <time>2018-01-29T10:47:47Z</time>
      </trkpt>
      <trkpt lat="48.05235" lon="7.02106">
        <ele>1228</ele>
        <time>2018-01-29T10:47:53Z</time>
      </trkpt>
      <trkpt lat="48.0524" lon="7.02113">
        <ele>1228</ele>
        <time>2018-01-29T10:47:57Z</time>
      </trkpt>
      <trkpt lat="48.05238" lon="7.02122">
        <ele>1227</ele>
        <time>2018-01-29T10:48:04Z</time>
      </trkpt>
      <trkpt lat="48.05241" lon="7.02147">
        <ele>1222</ele>
        <time>2018-01-29T10:48:18Z</time>
      </trkpt>
      <trkpt lat="48.05257" lon="7.02181">
        <ele>1220</ele>
        <time>2018-01-29T10:48:38Z</time>
      </trkpt>
      <trkpt lat="48.05256" lon="7.02189">
        <ele>1220</ele>
        <time>2018-01-29T10:48:42Z</time>
      </trkpt>
      <trkpt lat="48.05258" lon="7.02195">
        <ele>1220</ele>
        <time>2018-01-29T10:48:47Z</time>
      </trkpt>
      <trkpt lat="48.05265" lon="7.02213">
        <ele>1221</ele>
        <time>2018-01-29T10:48:58Z</time>
      </trkpt>
      <trkpt lat="48.05269" lon="7.02228">
        <ele>1219</ele>
        <time>2018-01-29T10:49:07Z</time>
      </trkpt>
      <trkpt lat="48.05272" lon="7.02233">
        <ele>1219</ele>
        <time>2018-01-29T10:49:11Z</time>
      </trkpt>
      <trkpt lat="48.05273" lon="7.02245">
        <ele>1219</ele>
        <time>2018-01-29T10:49:17Z</time>
      </trkpt>
      <trkpt lat="48.05274" lon="7.02253">
        <ele>1219</ele>
        <time>2018-01-29T10:49:21Z</time>
      </trkpt>
      <trkpt lat="48.05281" lon="7.02264">
        <ele>1217</ele>
        <time>2018-01-29T10:49:28Z</time>
      </trkpt>
      <trkpt lat="48.05285" lon="7.0228">
        <ele>1217</ele>
        <time>2018-01-29T10:49:37Z</time>
      </trkpt>
      <trkpt lat="48.05285" lon="7.02287">
        <ele>1218</ele>
        <time>2018-01-29T10:49:42Z</time>
      </trkpt>
      <trkpt lat="48.0529" lon="7.02299">
        <ele>1219</ele>
        <time>2018-01-29T10:49:49Z</time>
      </trkpt>
      <trkpt lat="48.05293" lon="7.02306">
        <ele>1218</ele>
        <time>2018-01-29T10:49:53Z</time>
      </trkpt>
      <trkpt lat="48.05295" lon="7.02312">
        <ele>1220</ele>
        <time>2018-01-29T10:49:56Z</time>
      </trkpt>
      <trkpt lat="48.05297" lon="7.02317">
        <ele>1220</ele>
        <time>2018-01-29T10:49:59Z</time>
      </trkpt>
      <trkpt lat="48.05296" lon="7.02324">
        <ele>1218</ele>
        <time>2018-01-29T10:50:03Z</time>
      </trkpt>
      <trkpt lat="48.05299" lon="7.02337">
        <ele>1215</ele>
        <time>2018-01-29T10:50:11Z</time>
      </trkpt>
      <trkpt lat="48.053" lon="7.02344">
        <ele>1215</ele>
        <time>2018-01-29T10:50:15Z</time>
      </trkpt>
      <trkpt lat="48.05303" lon="7.0235">
        <ele>1215</ele>
        <time>2018-01-29T10:50:20Z</time>
      </trkpt>
      <trkpt lat="48.05304" lon="7.02356">
        <ele>1215</ele>
        <time>2018-01-29T10:50:24Z</time>
      </trkpt>
      <trkpt lat="48.05304" lon="7.02363">
        <ele>1216</ele>
        <time>2018-01-29T10:50:28Z</time>
      </trkpt>
      <trkpt lat="48.05305" lon="7.02369">
        <ele>1215</ele>
        <time>2018-01-29T10:50:31Z</time>
      </trkpt>
      <trkpt lat="48.05312" lon="7.02381">
        <ele>1215</ele>
        <time>2018-01-29T10:50:39Z</time>
      </trkpt>
      <trkpt lat="48.05319" lon="7.02388">
        <ele>1219</ele>
        <time>2018-01-29T10:50:45Z</time>
      </trkpt>
      <trkpt lat="48.05328" lon="7.02393">
        <ele>1220</ele>
        <time>2018-01-29T10:50:56Z</time>
      </trkpt>
      <trkpt lat="48.05328" lon="7.02391">
        <ele>1216</ele>
        <time>2018-01-29T10:54:05Z</time>
      </trkpt>
      <trkpt lat="48.05332" lon="7.02393">
        <ele>1215</ele>
        <time>2018-01-29T10:54:12Z</time>
      </trkpt>
      <trkpt lat="48.05338" lon="7.02394">
        <ele>1215</ele>
        <time>2018-01-29T10:54:18Z</time>
      </trkpt>
      <trkpt lat="48.05343" lon="7.02396">
        <ele>1214</ele>
        <time>2018-01-29T10:54:23Z</time>
      </trkpt>
      <trkpt lat="48.05343" lon="7.02404">
        <ele>1216</ele>
        <time>2018-01-29T10:54:31Z</time>
      </trkpt>
      <trkpt lat="48.05343" lon="7.0241">
        <ele>1217</ele>
        <time>2018-01-29T10:54:34Z</time>
      </trkpt>
      <trkpt lat="48.05347" lon="7.02421">
        <ele>1217</ele>
        <time>2018-01-29T10:54:43Z</time>
      </trkpt>
      <trkpt lat="48.05349" lon="7.02458">
        <ele>1216</ele>
        <time>2018-01-29T10:55:08Z</time>
      </trkpt>
      <trkpt lat="48.05351" lon="7.02463">
        <ele>1217</ele>
        <time>2018-01-29T10:55:11Z</time>
      </trkpt>
      <trkpt lat="48.05351" lon="7.02471">
        <ele>1219</ele>
        <time>2018-01-29T10:55:16Z</time>
      </trkpt>
      <trkpt lat="48.05352" lon="7.02477">
        <ele>1218</ele>
        <time>2018-01-29T10:55:20Z</time>
      </trkpt>
      <trkpt lat="48.05353" lon="7.02485">
        <ele>1218</ele>
        <time>2018-01-29T10:55:25Z</time>
      </trkpt>
      <trkpt lat="48.05354" lon="7.02492">
        <ele>1218</ele>
        <time>2018-01-29T10:55:30Z</time>
      </trkpt>
      <trkpt lat="48.05351" lon="7.02507">
        <ele>1218</ele>
        <time>2018-01-29T10:55:38Z</time>
      </trkpt>
      <trkpt lat="48.05348" lon="7.02511">
        <ele>1218</ele>
        <time>2018-01-29T10:55:42Z</time>
      </trkpt>
      <trkpt lat="48.05346" lon="7.02524">
        <ele>1217</ele>
        <time>2018-01-29T10:55:49Z</time>
      </trkpt>
      <trkpt lat="48.05347" lon="7.02531">
        <ele>1217</ele>
        <time>2018-01-29T10:55:52Z</time>
      </trkpt>
      <trkpt lat="48.05345" lon="7.02545">
        <ele>1214</ele>
        <time>2018-01-29T10:56:02Z</time>
      </trkpt>
      <trkpt lat="48.05346" lon="7.02552">
        <ele>1215</ele>
        <time>2018-01-29T10:56:06Z</time>
      </trkpt>
      <trkpt lat="48.05344" lon="7.02558">
        <ele>1214</ele>
        <time>2018-01-29T10:56:10Z</time>
      </trkpt>
      <trkpt lat="48.05344" lon="7.02564">
        <ele>1215</ele>
        <time>2018-01-29T10:56:14Z</time>
      </trkpt>
      <trkpt lat="48.05345" lon="7.02571">
        <ele>1216</ele>
        <time>2018-01-29T10:56:18Z</time>
      </trkpt>
      <trkpt lat="48.05346" lon="7.02578">
        <ele>1214</ele>
        <time>2018-01-29T10:56:23Z</time>
      </trkpt>
      <trkpt lat="48.05346" lon="7.02585">
        <ele>1213</ele>
        <time>2018-01-29T10:56:28Z</time>
      </trkpt>
      <trkpt lat="48.05344" lon="7.02592">
        <ele>1213</ele>
        <time>2018-01-29T10:56:33Z</time>
      </trkpt>
      <trkpt lat="48.05344" lon="7.02598">
        <ele>1213</ele>
        <time>2018-01-29T10:56:38Z</time>
      </trkpt>
      <trkpt lat="48.05341" lon="7.02602">
        <ele>1212</ele>
        <time>2018-01-29T10:56:43Z</time>
      </trkpt>
      <trkpt lat="48.05336" lon="7.02603">
        <ele>1213</ele>
        <time>2018-01-29T10:57:21Z</time>
      </trkpt>
      <trkpt lat="48.05334" lon="7.02598">
        <ele>1213</ele>
        <time>2018-01-29T10:57:25Z</time>
      </trkpt>
      <trkpt lat="48.0533" lon="7.02595">
        <ele>1212</ele>
        <time>2018-01-29T10:57:30Z</time>
      </trkpt>
      <trkpt lat="48.05321" lon="7.02588">
        <ele>1215</ele>
        <time>2018-01-29T10:57:38Z</time>
      </trkpt>
      <trkpt lat="48.05298" lon="7.02613">
        <ele>1223</ele>
        <time>2018-01-29T11:10:48Z</time>
      </trkpt>
      <trkpt lat="48.05305" lon="7.02602">
        <ele>1223</ele>
        <time>2018-01-29T11:14:17Z</time>
      </trkpt>
      <trkpt lat="48.05325" lon="7.02586">
        <ele>1221</ele>
        <time>2018-01-29T12:24:28Z</time>
      </trkpt>
      <trkpt lat="48.05327" lon="7.02579">
        <ele>1210</ele>
        <time>2018-01-29T12:30:37Z</time>
      </trkpt>
      <trkpt lat="48.05327" lon="7.02584">
        <ele>1212</ele>
        <time>2018-01-29T12:30:57Z</time>
      </trkpt>
      <trkpt lat="48.05331" lon="7.02586">
        <ele>1212</ele>
        <time>2018-01-29T12:31:00Z</time>
      </trkpt>
      <trkpt lat="48.05342" lon="7.026">
        <ele>1215</ele>
        <time>2018-01-29T12:31:09Z</time>
      </trkpt>
      <trkpt lat="48.05345" lon="7.02606">
        <ele>1215</ele>
        <time>2018-01-29T12:32:20Z</time>
      </trkpt>
      <trkpt lat="48.05349" lon="7.02603">
        <ele>1217</ele>
        <time>2018-01-29T12:32:25Z</time>
      </trkpt>
      <trkpt lat="48.05402" lon="7.02255">
        <ele>1236</ele>
        <time>2018-01-29T12:41:18Z</time>
      </trkpt>
      <trkpt lat="48.05402" lon="7.02241">
        <ele>1240</ele>
        <time>2018-01-29T12:41:48Z</time>
      </trkpt>
      <trkpt lat="48.05401" lon="7.02232">
        <ele>1241</ele>
        <time>2018-01-29T12:41:51Z</time>
      </trkpt>
      <trkpt lat="48.05399" lon="7.02226">
        <ele>1239</ele>
        <time>2018-01-29T12:41:55Z</time>
      </trkpt>
      <trkpt lat="48.05401" lon="7.02215">
        <ele>1239</ele>
        <time>2018-01-29T12:42:23Z</time>
      </trkpt>
      <trkpt lat="48.05396" lon="7.02204">
        <ele>1241</ele>
        <time>2018-01-29T12:42:32Z</time>
      </trkpt>
      <trkpt lat="48.05392" lon="7.022">
        <ele>1240</ele>
        <time>2018-01-29T12:42:35Z</time>
      </trkpt>
      <trkpt lat="48.0538" lon="7.02192">
        <ele>1245</ele>
        <time>2018-01-29T12:42:51Z</time>
      </trkpt>
      <trkpt lat="48.05374" lon="7.02186">
        <ele>1241</ele>
        <time>2018-01-29T12:42:59Z</time>
      </trkpt>
      <trkpt lat="48.0538" lon="7.02172">
        <ele>1237</ele>
        <time>2018-01-29T12:43:20Z</time>
      </trkpt>
      <trkpt lat="48.05373" lon="7.02162">
        <ele>1241</ele>
        <time>2018-01-29T12:43:39Z</time>
      </trkpt>
      <trkpt lat="48.05374" lon="7.02152">
        <ele>1246</ele>
        <time>2018-01-29T12:43:50Z</time>
      </trkpt>
      <trkpt lat="48.05376" lon="7.02147">
        <ele>1247</ele>
        <time>2018-01-29T12:44:31Z</time>
      </trkpt>
      <trkpt lat="48.05372" lon="7.02145">
        <ele>1246</ele>
        <time>2018-01-29T12:44:37Z</time>
      </trkpt>
      <trkpt lat="48.05363" lon="7.02139">
        <ele>1245</ele>
        <time>2018-01-29T12:44:45Z</time>
      </trkpt>
      <trkpt lat="48.05359" lon="7.02136">
        <ele>1245</ele>
        <time>2018-01-29T12:44:50Z</time>
      </trkpt>
      <trkpt lat="48.05355" lon="7.02135">
        <ele>1245</ele>
        <time>2018-01-29T12:45:01Z</time>
      </trkpt>
      <trkpt lat="48.05351" lon="7.02131">
        <ele>1244</ele>
        <time>2018-01-29T12:45:05Z</time>
      </trkpt>
      <trkpt lat="48.05348" lon="7.02126">
        <ele>1244</ele>
        <time>2018-01-29T12:45:09Z</time>
      </trkpt>
      <trkpt lat="48.05347" lon="7.02111">
        <ele>1244</ele>
        <time>2018-01-29T12:45:17Z</time>
      </trkpt>
      <trkpt lat="48.05343" lon="7.02106">
        <ele>1242</ele>
        <time>2018-01-29T12:45:21Z</time>
      </trkpt>
      <trkpt lat="48.05344" lon="7.021">
        <ele>1241</ele>
        <time>2018-01-29T12:45:23Z</time>
      </trkpt>
      <trkpt lat="48.05339" lon="7.02097">
        <ele>1237</ele>
        <time>2018-01-29T12:45:27Z</time>
      </trkpt>
      <trkpt lat="48.05332" lon="7.02079">
        <ele>1236</ele>
        <time>2018-01-29T12:45:44Z</time>
      </trkpt>
      <trkpt lat="48.0533" lon="7.02073">
        <ele>1236</ele>
        <time>2018-01-29T12:45:48Z</time>
      </trkpt>
      <trkpt lat="48.05327" lon="7.02065">
        <ele>1237</ele>
        <time>2018-01-29T12:45:53Z</time>
      </trkpt>
      <trkpt lat="48.05318" lon="7.02052">
        <ele>1242</ele>
        <time>2018-01-29T12:46:10Z</time>
      </trkpt>
      <trkpt lat="48.05294" lon="7.02018">
        <ele>1244</ele>
        <time>2018-01-29T12:46:45Z</time>
      </trkpt>
      <trkpt lat="48.05292" lon="7.02005">
        <ele>1244</ele>
        <time>2018-01-29T12:46:55Z</time>
      </trkpt>
      <trkpt lat="48.0529" lon="7.02">
        <ele>1244</ele>
        <time>2018-01-29T12:47:00Z</time>
      </trkpt>
      <trkpt lat="48.05286" lon="7.01996">
        <ele>1243</ele>
        <time>2018-01-29T12:47:05Z</time>
      </trkpt>
      <trkpt lat="48.05284" lon="7.01991">
        <ele>1244</ele>
        <time>2018-01-29T12:47:12Z</time>
      </trkpt>
      <trkpt lat="48.05279" lon="7.01989">
        <ele>1245</ele>
        <time>2018-01-29T12:47:19Z</time>
      </trkpt>
      <trkpt lat="48.05276" lon="7.01984">
        <ele>1245</ele>
        <time>2018-01-29T12:47:23Z</time>
      </trkpt>
      <trkpt lat="48.05276" lon="7.01976">
        <ele>1246</ele>
        <time>2018-01-29T12:47:32Z</time>
      </trkpt>
      <trkpt lat="48.05274" lon="7.01965">
        <ele>1252</ele>
        <time>2018-01-29T12:47:41Z</time>
      </trkpt>
      <trkpt lat="48.05272" lon="7.0196">
        <ele>1259</ele>
        <time>2018-01-29T12:48:29Z</time>
      </trkpt>
      <trkpt lat="48.0527" lon="7.01952">
        <ele>1259</ele>
        <time>2018-01-29T12:48:37Z</time>
      </trkpt>
      <trkpt lat="48.05268" lon="7.01944">
        <ele>1257</ele>
        <time>2018-01-29T12:48:44Z</time>
      </trkpt>
      <trkpt lat="48.05268" lon="7.01936">
        <ele>1249</ele>
        <time>2018-01-29T12:49:32Z</time>
      </trkpt>
      <trkpt lat="48.05265" lon="7.01927">
        <ele>1248</ele>
        <time>2018-01-29T12:49:39Z</time>
      </trkpt>
      <trkpt lat="48.05268" lon="7.01917">
        <ele>1245</ele>
        <time>2018-01-29T12:49:49Z</time>
      </trkpt>
      <trkpt lat="48.05267" lon="7.01909">
        <ele>1248</ele>
        <time>2018-01-29T12:50:00Z</time>
      </trkpt>
      <trkpt lat="48.05273" lon="7.01899">
        <ele>1249</ele>
        <time>2018-01-29T12:50:08Z</time>
      </trkpt>
      <trkpt lat="48.05285" lon="7.01904">
        <ele>1251</ele>
        <time>2018-01-29T12:50:17Z</time>
      </trkpt>
      <trkpt lat="48.05292" lon="7.01908">
        <ele>1256</ele>
        <time>2018-01-29T12:50:43Z</time>
      </trkpt>
      <trkpt lat="48.05305" lon="7.01919">
        <ele>1256</ele>
        <time>2018-01-29T12:50:53Z</time>
      </trkpt>
      <trkpt lat="48.05349" lon="7.01955">
        <ele>1254</ele>
        <time>2018-01-29T12:51:46Z</time>
      </trkpt>
      <trkpt lat="48.05359" lon="7.01959">
        <ele>1254</ele>
        <time>2018-01-29T12:52:02Z</time>
      </trkpt>
      <trkpt lat="48.05363" lon="7.01957">
        <ele>1256</ele>
        <time>2018-01-29T12:52:07Z</time>
      </trkpt>
      <trkpt lat="48.05382" lon="7.0197">
        <ele>1258</ele>
        <time>2018-01-29T12:52:33Z</time>
      </trkpt>
      <trkpt lat="48.05385" lon="7.01976">
        <ele>1258</ele>
        <time>2018-01-29T12:52:37Z</time>
      </trkpt>
      <trkpt lat="48.05391" lon="7.01982">
        <ele>1259</ele>
        <time>2018-01-29T12:52:43Z</time>
      </trkpt>
      <trkpt lat="48.05397" lon="7.01988">
        <ele>1261</ele>
        <time>2018-01-29T12:52:48Z</time>
      </trkpt>
      <trkpt lat="48.05411" lon="7.01999">
        <ele>1261</ele>
        <time>2018-01-29T12:52:56Z</time>
      </trkpt>
      <trkpt lat="48.05415" lon="7.02005">
        <ele>1262</ele>
        <time>2018-01-29T12:53:01Z</time>
      </trkpt>
      <trkpt lat="48.05424" lon="7.02018">
        <ele>1261</ele>
        <time>2018-01-29T12:53:08Z</time>
      </trkpt>
      <trkpt lat="48.05427" lon="7.02033">
        <ele>1259</ele>
        <time>2018-01-29T12:53:19Z</time>
      </trkpt>
      <trkpt lat="48.05428" lon="7.02043">
        <ele>1255</ele>
        <time>2018-01-29T12:53:25Z</time>
      </trkpt>
      <trkpt lat="48.05432" lon="7.02046">
        <ele>1255</ele>
        <time>2018-01-29T12:53:27Z</time>
      </trkpt>
      <trkpt lat="48.05432" lon="7.02054">
        <ele>1253</ele>
        <time>2018-01-29T12:53:32Z</time>
      </trkpt>
      <trkpt lat="48.05435" lon="7.0206">
        <ele>1253</ele>
        <time>2018-01-29T12:53:37Z</time>
      </trkpt>
      <trkpt lat="48.05443" lon="7.02065">
        <ele>1253</ele>
        <time>2018-01-29T12:53:40Z</time>
      </trkpt>
      <trkpt lat="48.05452" lon="7.0207">
        <ele>1254</ele>
        <time>2018-01-29T12:53:45Z</time>
      </trkpt>
      <trkpt lat="48.05471" lon="7.0209">
        <ele>1267</ele>
        <time>2018-01-29T12:54:06Z</time>
      </trkpt>
      <trkpt lat="48.05476" lon="7.02095">
        <ele>1269</ele>
        <time>2018-01-29T12:54:11Z</time>
      </trkpt>
      <trkpt lat="48.05481" lon="7.02101">
        <ele>1271</ele>
        <time>2018-01-29T12:54:14Z</time>
      </trkpt>
      <trkpt lat="48.05485" lon="7.02105">
        <ele>1270</ele>
        <time>2018-01-29T12:54:16Z</time>
      </trkpt>
      <trkpt lat="48.05486" lon="7.02111">
        <ele>1271</ele>
        <time>2018-01-29T12:54:24Z</time>
      </trkpt>
      <trkpt lat="48.05492" lon="7.0212">
        <ele>1270</ele>
        <time>2018-01-29T12:54:30Z</time>
      </trkpt>
      <trkpt lat="48.05496" lon="7.02127">
        <ele>1266</ele>
        <time>2018-01-29T12:54:34Z</time>
      </trkpt>
      <trkpt lat="48.05505" lon="7.02138">
        <ele>1261</ele>
        <time>2018-01-29T12:54:42Z</time>
      </trkpt>
      <trkpt lat="48.05512" lon="7.02152">
        <ele>1261</ele>
        <time>2018-01-29T12:54:51Z</time>
      </trkpt>
      <trkpt lat="48.05517" lon="7.02156">
        <ele>1261</ele>
        <time>2018-01-29T12:54:53Z</time>
      </trkpt>
      <trkpt lat="48.05519" lon="7.02163">
        <ele>1263</ele>
        <time>2018-01-29T12:54:57Z</time>
      </trkpt>
      <trkpt lat="48.05519" lon="7.02169">
        <ele>1263</ele>
        <time>2018-01-29T12:55:02Z</time>
      </trkpt>
      <trkpt lat="48.05529" lon="7.0218">
        <ele>1262</ele>
        <time>2018-01-29T12:55:10Z</time>
      </trkpt>
      <trkpt lat="48.05539" lon="7.0219">
        <ele>1261</ele>
        <time>2018-01-29T12:55:21Z</time>
      </trkpt>
      <trkpt lat="48.05542" lon="7.02193">
        <ele>1260</ele>
        <time>2018-01-29T12:55:25Z</time>
      </trkpt>
      <trkpt lat="48.05546" lon="7.02197">
        <ele>1260</ele>
        <time>2018-01-29T12:55:33Z</time>
      </trkpt>
      <trkpt lat="48.05552" lon="7.02209">
        <ele>1255</ele>
        <time>2018-01-29T12:55:43Z</time>
      </trkpt>
      <trkpt lat="48.05556" lon="7.02224">
        <ele>1253</ele>
        <time>2018-01-29T12:55:52Z</time>
      </trkpt>
      <trkpt lat="48.05555" lon="7.0224">
        <ele>1253</ele>
        <time>2018-01-29T12:56:03Z</time>
      </trkpt>
      <trkpt lat="48.05559" lon="7.02248">
        <ele>1254</ele>
        <time>2018-01-29T12:56:08Z</time>
      </trkpt>
      <trkpt lat="48.0556" lon="7.02255">
        <ele>1254</ele>
        <time>2018-01-29T12:56:12Z</time>
      </trkpt>
      <trkpt lat="48.05561" lon="7.02294">
        <ele>1254</ele>
        <time>2018-01-29T12:56:46Z</time>
      </trkpt>
      <trkpt lat="48.05564" lon="7.02293">
        <ele>1252</ele>
        <time>2018-01-29T12:57:13Z</time>
      </trkpt>
      <trkpt lat="48.05569" lon="7.02298">
        <ele>1251</ele>
        <time>2018-01-29T12:57:17Z</time>
      </trkpt>
      <trkpt lat="48.05574" lon="7.02306">
        <ele>1249</ele>
        <time>2018-01-29T12:57:25Z</time>
      </trkpt>
      <trkpt lat="48.05578" lon="7.02312">
        <ele>1252</ele>
        <time>2018-01-29T12:57:30Z</time>
      </trkpt>
      <trkpt lat="48.05581" lon="7.02316">
        <ele>1252</ele>
        <time>2018-01-29T12:57:34Z</time>
      </trkpt>
      <trkpt lat="48.05584" lon="7.02319">
        <ele>1250</ele>
        <time>2018-01-29T12:57:39Z</time>
      </trkpt>
      <trkpt lat="48.05588" lon="7.02323">
        <ele>1249</ele>
        <time>2018-01-29T12:57:43Z</time>
      </trkpt>
      <trkpt lat="48.05593" lon="7.02327">
        <ele>1252</ele>
        <time>2018-01-29T12:57:46Z</time>
      </trkpt>
      <trkpt lat="48.05592" lon="7.02336">
        <ele>1251</ele>
        <time>2018-01-29T12:57:52Z</time>
      </trkpt>
      <trkpt lat="48.05604" lon="7.02345">
        <ele>1251</ele>
        <time>2018-01-29T12:58:01Z</time>
      </trkpt>
      <trkpt lat="48.05605" lon="7.02351">
        <ele>1251</ele>
        <time>2018-01-29T12:58:06Z</time>
      </trkpt>
      <trkpt lat="48.05608" lon="7.02358">
        <ele>1251</ele>
        <time>2018-01-29T12:58:12Z</time>
      </trkpt>
      <trkpt lat="48.05612" lon="7.02363">
        <ele>1250</ele>
        <time>2018-01-29T12:58:16Z</time>
      </trkpt>
      <trkpt lat="48.05611" lon="7.0237">
        <ele>1251</ele>
        <time>2018-01-29T12:58:21Z</time>
      </trkpt>
      <trkpt lat="48.05614" lon="7.02376">
        <ele>1253</ele>
        <time>2018-01-29T12:58:25Z</time>
      </trkpt>
      <trkpt lat="48.05615" lon="7.02392">
        <ele>1252</ele>
        <time>2018-01-29T12:58:37Z</time>
      </trkpt>
      <trkpt lat="48.0562" lon="7.02395">
        <ele>1253</ele>
        <time>2018-01-29T12:58:39Z</time>
      </trkpt>
      <trkpt lat="48.05622" lon="7.024">
        <ele>1254</ele>
        <time>2018-01-29T12:58:48Z</time>
      </trkpt>
      <trkpt lat="48.05618" lon="7.02403">
        <ele>1256</ele>
        <time>2018-01-29T12:59:04Z</time>
      </trkpt>
      <trkpt lat="48.05621" lon="7.02401">
        <ele>1257</ele>
        <time>2018-01-29T12:59:26Z</time>
      </trkpt>
      <trkpt lat="48.05622" lon="7.02408">
        <ele>1256</ele>
        <time>2018-01-29T12:59:29Z</time>
      </trkpt>
      <trkpt lat="48.0564" lon="7.02422">
        <ele>1254</ele>
        <time>2018-01-29T12:59:49Z</time>
      </trkpt>
      <trkpt lat="48.05646" lon="7.02427">
        <ele>1254</ele>
        <time>2018-01-29T12:59:57Z</time>
      </trkpt>
      <trkpt lat="48.05653" lon="7.02428">
        <ele>1248</ele>
        <time>2018-01-29T13:00:17Z</time>
      </trkpt>
      <trkpt lat="48.05665" lon="7.02415">
        <ele>1249</ele>
        <time>2018-01-29T13:00:32Z</time>
      </trkpt>
      <trkpt lat="48.05669" lon="7.02413">
        <ele>1252</ele>
        <time>2018-01-29T13:00:36Z</time>
      </trkpt>
      <trkpt lat="48.05672" lon="7.02407">
        <ele>1256</ele>
        <time>2018-01-29T13:00:40Z</time>
      </trkpt>
      <trkpt lat="48.05675" lon="7.024">
        <ele>1256</ele>
        <time>2018-01-29T13:00:47Z</time>
      </trkpt>
      <trkpt lat="48.0568" lon="7.02396">
        <ele>1256</ele>
        <time>2018-01-29T13:00:52Z</time>
      </trkpt>
      <trkpt lat="48.05689" lon="7.02395">
        <ele>1246</ele>
        <time>2018-01-29T13:01:03Z</time>
      </trkpt>
      <trkpt lat="48.05702" lon="7.02398">
        <ele>1242</ele>
        <time>2018-01-29T13:01:14Z</time>
      </trkpt>
      <trkpt lat="48.05725" lon="7.0239">
        <ele>1240</ele>
        <time>2018-01-29T13:01:46Z</time>
      </trkpt>
      <trkpt lat="48.0573" lon="7.02384">
        <ele>1231</ele>
        <time>2018-01-29T13:01:50Z</time>
      </trkpt>
      <trkpt lat="48.05734" lon="7.02383">
        <ele>1232</ele>
        <time>2018-01-29T13:01:53Z</time>
      </trkpt>
      <trkpt lat="48.05738" lon="7.0238">
        <ele>1235</ele>
        <time>2018-01-29T13:01:58Z</time>
      </trkpt>
      <trkpt lat="48.05745" lon="7.0237">
        <ele>1239</ele>
        <time>2018-01-29T13:02:05Z</time>
      </trkpt>
      <trkpt lat="48.05756" lon="7.02351">
        <ele>1242</ele>
        <time>2018-01-29T13:02:20Z</time>
      </trkpt>
      <trkpt lat="48.0576" lon="7.02347">
        <ele>1241</ele>
        <time>2018-01-29T13:02:24Z</time>
      </trkpt>
      <trkpt lat="48.05766" lon="7.02338">
        <ele>1240</ele>
        <time>2018-01-29T13:02:33Z</time>
      </trkpt>
      <trkpt lat="48.05773" lon="7.02327">
        <ele>1238</ele>
        <time>2018-01-29T13:02:40Z</time>
      </trkpt>
      <trkpt lat="48.05775" lon="7.02319">
        <ele>1237</ele>
        <time>2018-01-29T13:02:44Z</time>
      </trkpt>
      <trkpt lat="48.05777" lon="7.02311">
        <ele>1238</ele>
        <time>2018-01-29T13:02:47Z</time>
      </trkpt>
      <trkpt lat="48.05781" lon="7.02308">
        <ele>1242</ele>
        <time>2018-01-29T13:02:51Z</time>
      </trkpt>
      <trkpt lat="48.05786" lon="7.02308">
        <ele>1240</ele>
        <time>2018-01-29T13:02:56Z</time>
      </trkpt>
      <trkpt lat="48.05791" lon="7.02305">
        <ele>1236</ele>
        <time>2018-01-29T13:03:02Z</time>
      </trkpt>
      <trkpt lat="48.05794" lon="7.02301">
        <ele>1235</ele>
        <time>2018-01-29T13:03:07Z</time>
      </trkpt>
      <trkpt lat="48.05804" lon="7.023">
        <ele>1230</ele>
        <time>2018-01-29T13:03:15Z</time>
      </trkpt>
      <trkpt lat="48.05808" lon="7.02297">
        <ele>1230</ele>
        <time>2018-01-29T13:03:20Z</time>
      </trkpt>
      <trkpt lat="48.05818" lon="7.02299">
        <ele>1228</ele>
        <time>2018-01-29T13:03:28Z</time>
      </trkpt>
      <trkpt lat="48.05832" lon="7.02298">
        <ele>1225</ele>
        <time>2018-01-29T13:03:37Z</time>
      </trkpt>
      <trkpt lat="48.05838" lon="7.02298">
        <ele>1224</ele>
        <time>2018-01-29T13:03:42Z</time>
      </trkpt>
      <trkpt lat="48.05844" lon="7.02298">
        <ele>1224</ele>
        <time>2018-01-29T13:03:46Z</time>
      </trkpt>
      <trkpt lat="48.05851" lon="7.02297">
        <ele>1222</ele>
        <time>2018-01-29T13:03:53Z</time>
      </trkpt>
      <trkpt lat="48.05857" lon="7.023">
        <ele>1223</ele>
        <time>2018-01-29T13:03:55Z</time>
      </trkpt>
      <trkpt lat="48.05866" lon="7.02305">
        <ele>1221</ele>
        <time>2018-01-29T13:04:08Z</time>
      </trkpt>
      <trkpt lat="48.0587" lon="7.02304">
        <ele>1221</ele>
        <time>2018-01-29T13:04:13Z</time>
      </trkpt>
      <trkpt lat="48.05875" lon="7.02306">
        <ele>1219</ele>
        <time>2018-01-29T13:04:18Z</time>
      </trkpt>
      <trkpt lat="48.05878" lon="7.02311">
        <ele>1216</ele>
        <time>2018-01-29T13:04:24Z</time>
      </trkpt>
      <trkpt lat="48.05881" lon="7.02315">
        <ele>1213</ele>
        <time>2018-01-29T13:04:28Z</time>
      </trkpt>
      <trkpt lat="48.05884" lon="7.0232">
        <ele>1212</ele>
        <time>2018-01-29T13:04:32Z</time>
      </trkpt>
      <trkpt lat="48.05888" lon="7.02325">
        <ele>1211</ele>
        <time>2018-01-29T13:04:38Z</time>
      </trkpt>
      <trkpt lat="48.05892" lon="7.02326">
        <ele>1211</ele>
        <time>2018-01-29T13:04:42Z</time>
      </trkpt>
      <trkpt lat="48.059" lon="7.02335">
        <ele>1211</ele>
        <time>2018-01-29T13:04:54Z</time>
      </trkpt>
      <trkpt lat="48.05914" lon="7.02339">
        <ele>1212</ele>
        <time>2018-01-29T13:05:05Z</time>
      </trkpt>
      <trkpt lat="48.05921" lon="7.02342">
        <ele>1211</ele>
        <time>2018-01-29T13:05:08Z</time>
      </trkpt>
      <trkpt lat="48.05926" lon="7.02346">
        <ele>1212</ele>
        <time>2018-01-29T13:05:11Z</time>
      </trkpt>
      <trkpt lat="48.05931" lon="7.02347">
        <ele>1211</ele>
        <time>2018-01-29T13:05:17Z</time>
      </trkpt>
      <trkpt lat="48.05937" lon="7.02347">
        <ele>1210</ele>
        <time>2018-01-29T13:05:21Z</time>
      </trkpt>
      <trkpt lat="48.05942" lon="7.02348">
        <ele>1209</ele>
        <time>2018-01-29T13:05:23Z</time>
      </trkpt>
      <trkpt lat="48.05946" lon="7.0235">
        <ele>1211</ele>
        <time>2018-01-29T13:05:26Z</time>
      </trkpt>
      <trkpt lat="48.0595" lon="7.02353">
        <ele>1210</ele>
        <time>2018-01-29T13:05:30Z</time>
      </trkpt>
      <trkpt lat="48.05962" lon="7.02359">
        <ele>1205</ele>
        <time>2018-01-29T13:05:44Z</time>
      </trkpt>
      <trkpt lat="48.05975" lon="7.02366">
        <ele>1203</ele>
        <time>2018-01-29T13:05:54Z</time>
      </trkpt>
      <trkpt lat="48.06001" lon="7.02375">
        <ele>1203</ele>
        <time>2018-01-29T13:06:17Z</time>
      </trkpt>
      <trkpt lat="48.06006" lon="7.02379">
        <ele>1203</ele>
        <time>2018-01-29T13:06:23Z</time>
      </trkpt>
      <trkpt lat="48.0601" lon="7.02382">
        <ele>1204</ele>
        <time>2018-01-29T13:06:28Z</time>
      </trkpt>
      <trkpt lat="48.0602" lon="7.02388">
        <ele>1201</ele>
        <time>2018-01-29T13:06:37Z</time>
      </trkpt>
      <trkpt lat="48.06061" lon="7.02406">
        <ele>1201</ele>
        <time>2018-01-29T13:07:13Z</time>
      </trkpt>
      <trkpt lat="48.0607" lon="7.02409">
        <ele>1200</ele>
        <time>2018-01-29T13:07:19Z</time>
      </trkpt>
      <trkpt lat="48.06075" lon="7.02411">
        <ele>1197</ele>
        <time>2018-01-29T13:07:21Z</time>
      </trkpt>
      <trkpt lat="48.06086" lon="7.0242">
        <ele>1197</ele>
        <time>2018-01-29T13:07:33Z</time>
      </trkpt>
      <trkpt lat="48.0609" lon="7.02419">
        <ele>1197</ele>
        <time>2018-01-29T13:07:37Z</time>
      </trkpt>
      <trkpt lat="48.06103" lon="7.02419">
        <ele>1195</ele>
        <time>2018-01-29T13:07:47Z</time>
      </trkpt>
      <trkpt lat="48.06109" lon="7.02417">
        <ele>1194</ele>
        <time>2018-01-29T13:07:51Z</time>
      </trkpt>
      <trkpt lat="48.06113" lon="7.02416">
        <ele>1193</ele>
        <time>2018-01-29T13:07:56Z</time>
      </trkpt>
      <trkpt lat="48.06119" lon="7.02416">
        <ele>1192</ele>
        <time>2018-01-29T13:08:01Z</time>
      </trkpt>
      <trkpt lat="48.06129" lon="7.02415">
        <ele>1195</ele>
        <time>2018-01-29T13:08:09Z</time>
      </trkpt>
      <trkpt lat="48.06134" lon="7.02413">
        <ele>1195</ele>
        <time>2018-01-29T13:08:13Z</time>
      </trkpt>
      <trkpt lat="48.06138" lon="7.0241">
        <ele>1193</ele>
        <time>2018-01-29T13:08:21Z</time>
      </trkpt>
      <trkpt lat="48.0614" lon="7.02404">
        <ele>1189</ele>
        <time>2018-01-29T13:08:26Z</time>
      </trkpt>
      <trkpt lat="48.06145" lon="7.024">
        <ele>1188</ele>
        <time>2018-01-29T13:08:30Z</time>
      </trkpt>
      <trkpt lat="48.06157" lon="7.02396">
        <ele>1186</ele>
        <time>2018-01-29T13:08:44Z</time>
      </trkpt>
      <trkpt lat="48.06162" lon="7.02394">
        <ele>1187</ele>
        <time>2018-01-29T13:08:48Z</time>
      </trkpt>
      <trkpt lat="48.06171" lon="7.02386">
        <ele>1187</ele>
        <time>2018-01-29T13:08:54Z</time>
      </trkpt>
      <trkpt lat="48.06175" lon="7.02383">
        <ele>1185</ele>
        <time>2018-01-29T13:08:57Z</time>
      </trkpt>
      <trkpt lat="48.0618" lon="7.02383">
        <ele>1183</ele>
        <time>2018-01-29T13:09:01Z</time>
      </trkpt>
      <trkpt lat="48.06186" lon="7.02382">
        <ele>1180</ele>
        <time>2018-01-29T13:09:06Z</time>
      </trkpt>
      <trkpt lat="48.06193" lon="7.02374">
        <ele>1180</ele>
        <time>2018-01-29T13:09:16Z</time>
      </trkpt>
      <trkpt lat="48.06207" lon="7.02372">
        <ele>1181</ele>
        <time>2018-01-29T13:09:25Z</time>
      </trkpt>
      <trkpt lat="48.06219" lon="7.02361">
        <ele>1184</ele>
        <time>2018-01-29T13:09:37Z</time>
      </trkpt>
      <trkpt lat="48.06224" lon="7.02364">
        <ele>1184</ele>
        <time>2018-01-29T13:09:40Z</time>
      </trkpt>
      <trkpt lat="48.06229" lon="7.02361">
        <ele>1180</ele>
        <time>2018-01-29T13:09:44Z</time>
      </trkpt>
      <trkpt lat="48.06234" lon="7.02358">
        <ele>1179</ele>
        <time>2018-01-29T13:09:49Z</time>
      </trkpt>
      <trkpt lat="48.06239" lon="7.02357">
        <ele>1174</ele>
        <time>2018-01-29T13:09:55Z</time>
      </trkpt>
      <trkpt lat="48.06243" lon="7.02353">
        <ele>1173</ele>
        <time>2018-01-29T13:09:58Z</time>
      </trkpt>
      <trkpt lat="48.06267" lon="7.02338">
        <ele>1173</ele>
        <time>2018-01-29T13:10:19Z</time>
      </trkpt>
      <trkpt lat="48.06273" lon="7.02336">
        <ele>1172</ele>
        <time>2018-01-29T13:10:22Z</time>
      </trkpt>
      <trkpt lat="48.06277" lon="7.02332">
        <ele>1171</ele>
        <time>2018-01-29T13:10:25Z</time>
      </trkpt>
      <trkpt lat="48.06282" lon="7.02328">
        <ele>1169</ele>
        <time>2018-01-29T13:10:35Z</time>
      </trkpt>
      <trkpt lat="48.06286" lon="7.02325">
        <ele>1169</ele>
        <time>2018-01-29T13:10:41Z</time>
      </trkpt>
      <trkpt lat="48.06286" lon="7.02319">
        <ele>1167</ele>
        <time>2018-01-29T13:10:46Z</time>
      </trkpt>
      <trkpt lat="48.06287" lon="7.0231">
        <ele>1164</ele>
        <time>2018-01-29T13:10:53Z</time>
      </trkpt>
      <trkpt lat="48.06291" lon="7.02304">
        <ele>1160</ele>
        <time>2018-01-29T13:10:58Z</time>
      </trkpt>
      <trkpt lat="48.06294" lon="7.02297">
        <ele>1158</ele>
        <time>2018-01-29T13:11:02Z</time>
      </trkpt>
      <trkpt lat="48.06292" lon="7.02278">
        <ele>1155</ele>
        <time>2018-01-29T13:11:07Z</time>
      </trkpt>
      <trkpt lat="48.06293" lon="7.02271">
        <ele>1153</ele>
        <time>2018-01-29T13:11:11Z</time>
      </trkpt>
      <trkpt lat="48.06298" lon="7.02272">
        <ele>1151</ele>
        <time>2018-01-29T13:11:16Z</time>
      </trkpt>
      <trkpt lat="48.06302" lon="7.0227">
        <ele>1149</ele>
        <time>2018-01-29T13:11:27Z</time>
      </trkpt>
      <trkpt lat="48.06307" lon="7.02272">
        <ele>1148</ele>
        <time>2018-01-29T13:11:31Z</time>
      </trkpt>
      <trkpt lat="48.06311" lon="7.02273">
        <ele>1150</ele>
        <time>2018-01-29T13:11:35Z</time>
      </trkpt>
      <trkpt lat="48.06321" lon="7.02277">
        <ele>1152</ele>
        <time>2018-01-29T13:11:45Z</time>
      </trkpt>
      <trkpt lat="48.06322" lon="7.02278">
        <ele>1152</ele>
        <time>2018-01-29T13:12:09Z</time>
      </trkpt>
      <trkpt lat="48.06323" lon="7.02285">
        <ele>1151</ele>
        <time>2018-01-29T13:12:26Z</time>
      </trkpt>
      <trkpt lat="48.06324" lon="7.02292">
        <ele>1150</ele>
        <time>2018-01-29T13:12:31Z</time>
      </trkpt>
      <trkpt lat="48.06327" lon="7.02294">
        <ele>1150</ele>
        <time>2018-01-29T13:12:54Z</time>
      </trkpt>
      <trkpt lat="48.06329" lon="7.02287">
        <ele>1150</ele>
        <time>2018-01-29T13:12:58Z</time>
      </trkpt>
      <trkpt lat="48.06328" lon="7.02279">
        <ele>1149</ele>
        <time>2018-01-29T13:13:01Z</time>
      </trkpt>
      <trkpt lat="48.0633" lon="7.02273">
        <ele>1150</ele>
        <time>2018-01-29T13:13:05Z</time>
      </trkpt>
      <trkpt lat="48.06329" lon="7.02266">
        <ele>1152</ele>
        <time>2018-01-29T13:13:08Z</time>
      </trkpt>
      <trkpt lat="48.06328" lon="7.02259">
        <ele>1151</ele>
        <time>2018-01-29T13:13:13Z</time>
      </trkpt>
      <trkpt lat="48.06328" lon="7.02253">
        <ele>1150</ele>
        <time>2018-01-29T13:13:16Z</time>
      </trkpt>
      <trkpt lat="48.06329" lon="7.02246">
        <ele>1149</ele>
        <time>2018-01-29T13:13:19Z</time>
      </trkpt>
      <trkpt lat="48.0633" lon="7.0224">
        <ele>1148</ele>
        <time>2018-01-29T13:13:21Z</time>
      </trkpt>
      <trkpt lat="48.06334" lon="7.02236">
        <ele>1147</ele>
        <time>2018-01-29T13:13:24Z</time>
      </trkpt>
      <trkpt lat="48.06339" lon="7.02235">
        <ele>1145</ele>
        <time>2018-01-29T13:13:29Z</time>
      </trkpt>
      <trkpt lat="48.06343" lon="7.02236">
        <ele>1143</ele>
        <time>2018-01-29T13:13:33Z</time>
      </trkpt>
      <trkpt lat="48.06361" lon="7.02248">
        <ele>1144</ele>
        <time>2018-01-29T13:13:47Z</time>
      </trkpt>
      <trkpt lat="48.06365" lon="7.02248">
        <ele>1143</ele>
        <time>2018-01-29T13:13:50Z</time>
      </trkpt>
      <trkpt lat="48.0637" lon="7.02244">
        <ele>1142</ele>
        <time>2018-01-29T13:13:55Z</time>
      </trkpt>
      <trkpt lat="48.06375" lon="7.0224">
        <ele>1142</ele>
        <time>2018-01-29T13:13:59Z</time>
      </trkpt>
      <trkpt lat="48.06379" lon="7.02238">
        <ele>1141</ele>
        <time>2018-01-29T13:14:05Z</time>
      </trkpt>
      <trkpt lat="48.06381" lon="7.02216">
        <ele>1140</ele>
        <time>2018-01-29T13:14:15Z</time>
      </trkpt>
      <trkpt lat="48.06382" lon="7.02208">
        <ele>1141</ele>
        <time>2018-01-29T13:14:19Z</time>
      </trkpt>
      <trkpt lat="48.06385" lon="7.02204">
        <ele>1142</ele>
        <time>2018-01-29T13:14:24Z</time>
      </trkpt>
    </trkseg>
  </trk>
</gpx>